<?xml version="1.0" encoding="UTF-8" standalone="no" ?>
<gpx xmlns="http://www.topografix.com/GPX/1/1" xmlns:xsi="http://www.w3.org/2001/XMLSchema-instance" xsi:schemaLocation="http://www.topografix.com/GPX/1/1 http://www.topografix.com/GPX/1/1/gpx.xsd" version="1.1" creator="VisuGPX - https://www.visugpx.com">
  <metadata>
    <name>Grabels / Mosson / Hauts de massane</name>
    <desc><![CDATA[Grabels  / mosson / hauts de massane]]></desc>
  </metadata>
  <trk>
    <name><![CDATA[Grabels / Mosson / Hauts de massane_1]]></name>
    <trkseg>
      <trkpt lat="43.63768" lon="3.82853">
        <ele>115.5</ele>
        <time>2016-04-29T10:15:29Z</time>
      </trkpt>
      <trkpt lat="43.6377" lon="3.82854">
        <ele>131.5</ele>
        <time>2016-04-29T10:19:06Z</time>
      </trkpt>
      <trkpt lat="43.63776" lon="3.82848">
        <ele>131.3</ele>
        <time>2016-04-29T10:19:11Z</time>
      </trkpt>
      <trkpt lat="43.63773" lon="3.82838">
        <ele>130.9</ele>
        <time>2016-04-29T10:19:14Z</time>
      </trkpt>
      <trkpt lat="43.63774" lon="3.82824">
        <ele>128.8</ele>
        <time>2016-04-29T10:19:16Z</time>
      </trkpt>
      <trkpt lat="43.63778" lon="3.82815">
        <ele>128.6</ele>
        <time>2016-04-29T10:19:18Z</time>
      </trkpt>
      <trkpt lat="43.63786" lon="3.82812">
        <ele>128.3</ele>
        <time>2016-04-29T10:19:21Z</time>
      </trkpt>
      <trkpt lat="43.63795" lon="3.82805">
        <ele>128</ele>
        <time>2016-04-29T10:19:25Z</time>
      </trkpt>
      <trkpt lat="43.63804" lon="3.82799">
        <ele>127.7</ele>
        <time>2016-04-29T10:19:28Z</time>
      </trkpt>
      <trkpt lat="43.63814" lon="3.82794">
        <ele>127.5</ele>
        <time>2016-04-29T10:19:31Z</time>
      </trkpt>
      <trkpt lat="43.63824" lon="3.82791">
        <ele>127.4</ele>
        <time>2016-04-29T10:19:34Z</time>
      </trkpt>
      <trkpt lat="43.63835" lon="3.82794">
        <ele>127.7</ele>
        <time>2016-04-29T10:19:37Z</time>
      </trkpt>
      <trkpt lat="43.63846" lon="3.82788">
        <ele>128.3</ele>
        <time>2016-04-29T10:19:40Z</time>
      </trkpt>
      <trkpt lat="43.63855" lon="3.82783">
        <ele>127.7</ele>
        <time>2016-04-29T10:19:42Z</time>
      </trkpt>
      <trkpt lat="43.63862" lon="3.82779">
        <ele>127.4</ele>
        <time>2016-04-29T10:19:44Z</time>
      </trkpt>
      <trkpt lat="43.63869" lon="3.82775">
        <ele>127.3</ele>
        <time>2016-04-29T10:19:46Z</time>
      </trkpt>
      <trkpt lat="43.63876" lon="3.82772">
        <ele>127.3</ele>
        <time>2016-04-29T10:19:49Z</time>
      </trkpt>
      <trkpt lat="43.63886" lon="3.82781">
        <ele>127.2</ele>
        <time>2016-04-29T10:19:53Z</time>
      </trkpt>
      <trkpt lat="43.6389" lon="3.8279">
        <ele>127.4</ele>
        <time>2016-04-29T10:19:54Z</time>
      </trkpt>
      <trkpt lat="43.63897" lon="3.82799">
        <ele>127.6</ele>
        <time>2016-04-29T10:19:57Z</time>
      </trkpt>
      <trkpt lat="43.63906" lon="3.828">
        <ele>127.6</ele>
        <time>2016-04-29T10:20:00Z</time>
      </trkpt>
      <trkpt lat="43.63915" lon="3.82801">
        <ele>127.8</ele>
        <time>2016-04-29T10:20:03Z</time>
      </trkpt>
      <trkpt lat="43.6392" lon="3.82813">
        <ele>128.7</ele>
        <time>2016-04-29T10:20:06Z</time>
      </trkpt>
      <trkpt lat="43.63929" lon="3.82817">
        <ele>129</ele>
        <time>2016-04-29T10:20:09Z</time>
      </trkpt>
      <trkpt lat="43.6393" lon="3.82817">
        <ele>129.5</ele>
        <time>2016-04-29T10:20:16Z</time>
      </trkpt>
      <trkpt lat="43.63937" lon="3.82817">
        <ele>130.3</ele>
        <time>2016-04-29T10:20:23Z</time>
      </trkpt>
      <trkpt lat="43.63944" lon="3.82816">
        <ele>130.4</ele>
        <time>2016-04-29T10:20:25Z</time>
      </trkpt>
      <trkpt lat="43.63953" lon="3.8281">
        <ele>130.4</ele>
        <time>2016-04-29T10:20:28Z</time>
      </trkpt>
      <trkpt lat="43.6396" lon="3.82806">
        <ele>130.6</ele>
        <time>2016-04-29T10:20:31Z</time>
      </trkpt>
      <trkpt lat="43.63967" lon="3.828">
        <ele>130.8</ele>
        <time>2016-04-29T10:20:34Z</time>
      </trkpt>
      <trkpt lat="43.63974" lon="3.82796">
        <ele>131.1</ele>
        <time>2016-04-29T10:20:36Z</time>
      </trkpt>
      <trkpt lat="43.63986" lon="3.82796">
        <ele>131.6</ele>
        <time>2016-04-29T10:20:39Z</time>
      </trkpt>
      <trkpt lat="43.63993" lon="3.82794">
        <ele>131.8</ele>
        <time>2016-04-29T10:20:41Z</time>
      </trkpt>
      <trkpt lat="43.64001" lon="3.82792">
        <ele>132.8</ele>
        <time>2016-04-29T10:20:43Z</time>
      </trkpt>
      <trkpt lat="43.64009" lon="3.82787">
        <ele>133.9</ele>
        <time>2016-04-29T10:20:45Z</time>
      </trkpt>
      <trkpt lat="43.64018" lon="3.82783">
        <ele>134</ele>
        <time>2016-04-29T10:20:47Z</time>
      </trkpt>
      <trkpt lat="43.64027" lon="3.82779">
        <ele>133.3</ele>
        <time>2016-04-29T10:20:49Z</time>
      </trkpt>
      <trkpt lat="43.64036" lon="3.82773">
        <ele>131.8</ele>
        <time>2016-04-29T10:20:51Z</time>
      </trkpt>
      <trkpt lat="43.64043" lon="3.82767">
        <ele>131.2</ele>
        <time>2016-04-29T10:20:53Z</time>
      </trkpt>
      <trkpt lat="43.64051" lon="3.8276">
        <ele>130.9</ele>
        <time>2016-04-29T10:20:55Z</time>
      </trkpt>
      <trkpt lat="43.64059" lon="3.82754">
        <ele>130.8</ele>
        <time>2016-04-29T10:20:57Z</time>
      </trkpt>
      <trkpt lat="43.64067" lon="3.82749">
        <ele>129.7</ele>
        <time>2016-04-29T10:20:59Z</time>
      </trkpt>
      <trkpt lat="43.64074" lon="3.82744">
        <ele>129.9</ele>
        <time>2016-04-29T10:21:01Z</time>
      </trkpt>
      <trkpt lat="43.6408" lon="3.82737">
        <ele>130.4</ele>
        <time>2016-04-29T10:21:03Z</time>
      </trkpt>
      <trkpt lat="43.64087" lon="3.82731">
        <ele>130.5</ele>
        <time>2016-04-29T10:21:05Z</time>
      </trkpt>
      <trkpt lat="43.64094" lon="3.82725">
        <ele>131.3</ele>
        <time>2016-04-29T10:21:07Z</time>
      </trkpt>
      <trkpt lat="43.64102" lon="3.82716">
        <ele>131.6</ele>
        <time>2016-04-29T10:21:10Z</time>
      </trkpt>
      <trkpt lat="43.64111" lon="3.82707">
        <ele>131.6</ele>
        <time>2016-04-29T10:21:13Z</time>
      </trkpt>
      <trkpt lat="43.64118" lon="3.827">
        <ele>132.3</ele>
        <time>2016-04-29T10:21:15Z</time>
      </trkpt>
      <trkpt lat="43.64125" lon="3.82694">
        <ele>133</ele>
        <time>2016-04-29T10:21:17Z</time>
      </trkpt>
      <trkpt lat="43.64132" lon="3.82686">
        <ele>134.2</ele>
        <time>2016-04-29T10:21:19Z</time>
      </trkpt>
      <trkpt lat="43.64138" lon="3.82679">
        <ele>134.5</ele>
        <time>2016-04-29T10:21:21Z</time>
      </trkpt>
      <trkpt lat="43.64145" lon="3.82671">
        <ele>134.9</ele>
        <time>2016-04-29T10:21:23Z</time>
      </trkpt>
      <trkpt lat="43.64152" lon="3.82663">
        <ele>134.2</ele>
        <time>2016-04-29T10:21:25Z</time>
      </trkpt>
      <trkpt lat="43.64159" lon="3.82654">
        <ele>133.4</ele>
        <time>2016-04-29T10:21:27Z</time>
      </trkpt>
      <trkpt lat="43.64164" lon="3.82646">
        <ele>133.5</ele>
        <time>2016-04-29T10:21:29Z</time>
      </trkpt>
      <trkpt lat="43.64174" lon="3.82644">
        <ele>134.3</ele>
        <time>2016-04-29T10:21:32Z</time>
      </trkpt>
      <trkpt lat="43.64184" lon="3.82641">
        <ele>134.7</ele>
        <time>2016-04-29T10:21:34Z</time>
      </trkpt>
      <trkpt lat="43.64192" lon="3.82641">
        <ele>135</ele>
        <time>2016-04-29T10:21:36Z</time>
      </trkpt>
      <trkpt lat="43.642" lon="3.82644">
        <ele>135.5</ele>
        <time>2016-04-29T10:21:38Z</time>
      </trkpt>
      <trkpt lat="43.6421" lon="3.82648">
        <ele>135.3</ele>
        <time>2016-04-29T10:21:40Z</time>
      </trkpt>
      <trkpt lat="43.64223" lon="3.82652">
        <ele>134</ele>
        <time>2016-04-29T10:21:42Z</time>
      </trkpt>
      <trkpt lat="43.64235" lon="3.82658">
        <ele>132.5</ele>
        <time>2016-04-29T10:21:44Z</time>
      </trkpt>
      <trkpt lat="43.64246" lon="3.82666">
        <ele>132.3</ele>
        <time>2016-04-29T10:21:46Z</time>
      </trkpt>
      <trkpt lat="43.64256" lon="3.8267">
        <ele>132.5</ele>
        <time>2016-04-29T10:21:48Z</time>
      </trkpt>
      <trkpt lat="43.64267" lon="3.82674">
        <ele>133.8</ele>
        <time>2016-04-29T10:21:50Z</time>
      </trkpt>
      <trkpt lat="43.64275" lon="3.82676">
        <ele>134.4</ele>
        <time>2016-04-29T10:21:52Z</time>
      </trkpt>
      <trkpt lat="43.64282" lon="3.82677">
        <ele>134.6</ele>
        <time>2016-04-29T10:21:54Z</time>
      </trkpt>
      <trkpt lat="43.64292" lon="3.82681">
        <ele>134.6</ele>
        <time>2016-04-29T10:21:58Z</time>
      </trkpt>
      <trkpt lat="43.64298" lon="3.82686">
        <ele>134.7</ele>
        <time>2016-04-29T10:22:01Z</time>
      </trkpt>
      <trkpt lat="43.64306" lon="3.82691">
        <ele>134.9</ele>
        <time>2016-04-29T10:22:04Z</time>
      </trkpt>
      <trkpt lat="43.64316" lon="3.82698">
        <ele>135.2</ele>
        <time>2016-04-29T10:22:07Z</time>
      </trkpt>
      <trkpt lat="43.64323" lon="3.82704">
        <ele>135.5</ele>
        <time>2016-04-29T10:22:10Z</time>
      </trkpt>
      <trkpt lat="43.6433" lon="3.82709">
        <ele>136</ele>
        <time>2016-04-29T10:22:14Z</time>
      </trkpt>
      <trkpt lat="43.64336" lon="3.82714">
        <ele>137.1</ele>
        <time>2016-04-29T10:22:21Z</time>
      </trkpt>
      <trkpt lat="43.64344" lon="3.82718">
        <ele>137.5</ele>
        <time>2016-04-29T10:22:24Z</time>
      </trkpt>
      <trkpt lat="43.64353" lon="3.8272">
        <ele>138</ele>
        <time>2016-04-29T10:22:27Z</time>
      </trkpt>
      <trkpt lat="43.64361" lon="3.82724">
        <ele>138.4</ele>
        <time>2016-04-29T10:22:30Z</time>
      </trkpt>
      <trkpt lat="43.6437" lon="3.82726">
        <ele>139</ele>
        <time>2016-04-29T10:22:33Z</time>
      </trkpt>
      <trkpt lat="43.64379" lon="3.82724">
        <ele>139.7</ele>
        <time>2016-04-29T10:22:37Z</time>
      </trkpt>
      <trkpt lat="43.64387" lon="3.82724">
        <ele>140.1</ele>
        <time>2016-04-29T10:22:40Z</time>
      </trkpt>
      <trkpt lat="43.64396" lon="3.82726">
        <ele>140.6</ele>
        <time>2016-04-29T10:22:43Z</time>
      </trkpt>
      <trkpt lat="43.64406" lon="3.82727">
        <ele>140.9</ele>
        <time>2016-04-29T10:22:46Z</time>
      </trkpt>
      <trkpt lat="43.64415" lon="3.82729">
        <ele>141.4</ele>
        <time>2016-04-29T10:22:49Z</time>
      </trkpt>
      <trkpt lat="43.64422" lon="3.82728">
        <ele>141.8</ele>
        <time>2016-04-29T10:22:52Z</time>
      </trkpt>
      <trkpt lat="43.64431" lon="3.82728">
        <ele>142.6</ele>
        <time>2016-04-29T10:22:56Z</time>
      </trkpt>
      <trkpt lat="43.64441" lon="3.82727">
        <ele>143</ele>
        <time>2016-04-29T10:22:59Z</time>
      </trkpt>
      <trkpt lat="43.64451" lon="3.82728">
        <ele>143.6</ele>
        <time>2016-04-29T10:23:02Z</time>
      </trkpt>
      <trkpt lat="43.6446" lon="3.82728">
        <ele>143.8</ele>
        <time>2016-04-29T10:23:05Z</time>
      </trkpt>
      <trkpt lat="43.64469" lon="3.82729">
        <ele>144.2</ele>
        <time>2016-04-29T10:23:08Z</time>
      </trkpt>
      <trkpt lat="43.64479" lon="3.82728">
        <ele>144.6</ele>
        <time>2016-04-29T10:23:11Z</time>
      </trkpt>
      <trkpt lat="43.64489" lon="3.82727">
        <ele>144.8</ele>
        <time>2016-04-29T10:23:14Z</time>
      </trkpt>
      <trkpt lat="43.64498" lon="3.82726">
        <ele>145.1</ele>
        <time>2016-04-29T10:23:17Z</time>
      </trkpt>
      <trkpt lat="43.64506" lon="3.82729">
        <ele>145.4</ele>
        <time>2016-04-29T10:23:20Z</time>
      </trkpt>
      <trkpt lat="43.64515" lon="3.82732">
        <ele>145.8</ele>
        <time>2016-04-29T10:23:23Z</time>
      </trkpt>
      <trkpt lat="43.64523" lon="3.82734">
        <ele>146.1</ele>
        <time>2016-04-29T10:23:26Z</time>
      </trkpt>
      <trkpt lat="43.64532" lon="3.8273">
        <ele>146.5</ele>
        <time>2016-04-29T10:23:29Z</time>
      </trkpt>
      <trkpt lat="43.64539" lon="3.82725">
        <ele>146.8</ele>
        <time>2016-04-29T10:23:31Z</time>
      </trkpt>
      <trkpt lat="43.64545" lon="3.82719">
        <ele>146.9</ele>
        <time>2016-04-29T10:23:33Z</time>
      </trkpt>
      <trkpt lat="43.64552" lon="3.82713">
        <ele>147.2</ele>
        <time>2016-04-29T10:23:36Z</time>
      </trkpt>
      <trkpt lat="43.64558" lon="3.82707">
        <ele>147.4</ele>
        <time>2016-04-29T10:23:39Z</time>
      </trkpt>
      <trkpt lat="43.64565" lon="3.827">
        <ele>147.8</ele>
        <time>2016-04-29T10:23:42Z</time>
      </trkpt>
      <trkpt lat="43.64575" lon="3.82694">
        <ele>148.2</ele>
        <time>2016-04-29T10:23:45Z</time>
      </trkpt>
      <trkpt lat="43.64583" lon="3.82687">
        <ele>148.8</ele>
        <time>2016-04-29T10:23:48Z</time>
      </trkpt>
      <trkpt lat="43.64593" lon="3.82683">
        <ele>151.9</ele>
        <time>2016-04-29T10:23:51Z</time>
      </trkpt>
      <trkpt lat="43.646" lon="3.82675">
        <ele>153.5</ele>
        <time>2016-04-29T10:23:53Z</time>
      </trkpt>
      <trkpt lat="43.64607" lon="3.82672">
        <ele>153.8</ele>
        <time>2016-04-29T10:23:55Z</time>
      </trkpt>
      <trkpt lat="43.64618" lon="3.82672">
        <ele>154.5</ele>
        <time>2016-04-29T10:23:58Z</time>
      </trkpt>
      <trkpt lat="43.64627" lon="3.82671">
        <ele>156.5</ele>
        <time>2016-04-29T10:24:01Z</time>
      </trkpt>
      <trkpt lat="43.64635" lon="3.82671">
        <ele>157.9</ele>
        <time>2016-04-29T10:24:03Z</time>
      </trkpt>
      <trkpt lat="43.64643" lon="3.82672">
        <ele>158.1</ele>
        <time>2016-04-29T10:24:05Z</time>
      </trkpt>
      <trkpt lat="43.64654" lon="3.82669">
        <ele>159.4</ele>
        <time>2016-04-29T10:24:08Z</time>
      </trkpt>
      <trkpt lat="43.64662" lon="3.82666">
        <ele>159.9</ele>
        <time>2016-04-29T10:24:10Z</time>
      </trkpt>
      <trkpt lat="43.64671" lon="3.82663">
        <ele>159.8</ele>
        <time>2016-04-29T10:24:12Z</time>
      </trkpt>
      <trkpt lat="43.64677" lon="3.82657">
        <ele>159.7</ele>
        <time>2016-04-29T10:24:14Z</time>
      </trkpt>
      <trkpt lat="43.64688" lon="3.82651">
        <ele>159.4</ele>
        <time>2016-04-29T10:24:17Z</time>
      </trkpt>
      <trkpt lat="43.64695" lon="3.82647">
        <ele>158.1</ele>
        <time>2016-04-29T10:24:19Z</time>
      </trkpt>
      <trkpt lat="43.64703" lon="3.82643">
        <ele>158.3</ele>
        <time>2016-04-29T10:24:21Z</time>
      </trkpt>
      <trkpt lat="43.64712" lon="3.82639">
        <ele>158</ele>
        <time>2016-04-29T10:24:23Z</time>
      </trkpt>
      <trkpt lat="43.64721" lon="3.82637">
        <ele>157.4</ele>
        <time>2016-04-29T10:24:25Z</time>
      </trkpt>
      <trkpt lat="43.6473" lon="3.82632">
        <ele>158</ele>
        <time>2016-04-29T10:24:27Z</time>
      </trkpt>
      <trkpt lat="43.64738" lon="3.82629">
        <ele>159.3</ele>
        <time>2016-04-29T10:24:29Z</time>
      </trkpt>
      <trkpt lat="43.64747" lon="3.82624">
        <ele>159.9</ele>
        <time>2016-04-29T10:24:31Z</time>
      </trkpt>
      <trkpt lat="43.64755" lon="3.82621">
        <ele>161.5</ele>
        <time>2016-04-29T10:24:33Z</time>
      </trkpt>
      <trkpt lat="43.64764" lon="3.82618">
        <ele>162</ele>
        <time>2016-04-29T10:24:35Z</time>
      </trkpt>
      <trkpt lat="43.64773" lon="3.82615">
        <ele>162.6</ele>
        <time>2016-04-29T10:24:37Z</time>
      </trkpt>
      <trkpt lat="43.64783" lon="3.82612">
        <ele>162.3</ele>
        <time>2016-04-29T10:24:39Z</time>
      </trkpt>
      <trkpt lat="43.64793" lon="3.82606">
        <ele>161</ele>
        <time>2016-04-29T10:24:41Z</time>
      </trkpt>
      <trkpt lat="43.64802" lon="3.82601">
        <ele>160</ele>
        <time>2016-04-29T10:24:43Z</time>
      </trkpt>
      <trkpt lat="43.64811" lon="3.82598">
        <ele>159.2</ele>
        <time>2016-04-29T10:24:45Z</time>
      </trkpt>
      <trkpt lat="43.64818" lon="3.82597">
        <ele>159.2</ele>
        <time>2016-04-29T10:24:47Z</time>
      </trkpt>
      <trkpt lat="43.64827" lon="3.82596">
        <ele>159.4</ele>
        <time>2016-04-29T10:24:49Z</time>
      </trkpt>
      <trkpt lat="43.64836" lon="3.82592">
        <ele>158.2</ele>
        <time>2016-04-29T10:24:51Z</time>
      </trkpt>
      <trkpt lat="43.64845" lon="3.82591">
        <ele>157.6</ele>
        <time>2016-04-29T10:24:53Z</time>
      </trkpt>
      <trkpt lat="43.64854" lon="3.82591">
        <ele>157.4</ele>
        <time>2016-04-29T10:24:55Z</time>
      </trkpt>
      <trkpt lat="43.64865" lon="3.82592">
        <ele>158.1</ele>
        <time>2016-04-29T10:24:57Z</time>
      </trkpt>
      <trkpt lat="43.64875" lon="3.82595">
        <ele>158</ele>
        <time>2016-04-29T10:24:59Z</time>
      </trkpt>
      <trkpt lat="43.64885" lon="3.82597">
        <ele>157.9</ele>
        <time>2016-04-29T10:25:01Z</time>
      </trkpt>
      <trkpt lat="43.64895" lon="3.82598">
        <ele>156.5</ele>
        <time>2016-04-29T10:25:03Z</time>
      </trkpt>
      <trkpt lat="43.64904" lon="3.82598">
        <ele>156.3</ele>
        <time>2016-04-29T10:25:05Z</time>
      </trkpt>
      <trkpt lat="43.64914" lon="3.82595">
        <ele>155.3</ele>
        <time>2016-04-29T10:25:07Z</time>
      </trkpt>
      <trkpt lat="43.64924" lon="3.82595">
        <ele>155.8</ele>
        <time>2016-04-29T10:25:09Z</time>
      </trkpt>
      <trkpt lat="43.64934" lon="3.82591">
        <ele>156.1</ele>
        <time>2016-04-29T10:25:11Z</time>
      </trkpt>
      <trkpt lat="43.64941" lon="3.8259">
        <ele>156.5</ele>
        <time>2016-04-29T10:25:13Z</time>
      </trkpt>
      <trkpt lat="43.64949" lon="3.82591">
        <ele>157</ele>
        <time>2016-04-29T10:25:15Z</time>
      </trkpt>
      <trkpt lat="43.64957" lon="3.82592">
        <ele>157</ele>
        <time>2016-04-29T10:25:17Z</time>
      </trkpt>
      <trkpt lat="43.64964" lon="3.82593">
        <ele>156.9</ele>
        <time>2016-04-29T10:25:19Z</time>
      </trkpt>
      <trkpt lat="43.64972" lon="3.82592">
        <ele>157.1</ele>
        <time>2016-04-29T10:25:22Z</time>
      </trkpt>
      <trkpt lat="43.64981" lon="3.82592">
        <ele>157.4</ele>
        <time>2016-04-29T10:25:25Z</time>
      </trkpt>
      <trkpt lat="43.64989" lon="3.82591">
        <ele>157.8</ele>
        <time>2016-04-29T10:25:28Z</time>
      </trkpt>
      <trkpt lat="43.64999" lon="3.8259">
        <ele>158.2</ele>
        <time>2016-04-29T10:25:31Z</time>
      </trkpt>
      <trkpt lat="43.65007" lon="3.8259">
        <ele>158.7</ele>
        <time>2016-04-29T10:25:34Z</time>
      </trkpt>
      <trkpt lat="43.65016" lon="3.82589">
        <ele>159.4</ele>
        <time>2016-04-29T10:25:37Z</time>
      </trkpt>
      <trkpt lat="43.65026" lon="3.82588">
        <ele>159.9</ele>
        <time>2016-04-29T10:25:40Z</time>
      </trkpt>
      <trkpt lat="43.65034" lon="3.82588">
        <ele>160.5</ele>
        <time>2016-04-29T10:25:43Z</time>
      </trkpt>
      <trkpt lat="43.65043" lon="3.82588">
        <ele>161</ele>
        <time>2016-04-29T10:25:46Z</time>
      </trkpt>
      <trkpt lat="43.6505" lon="3.82585">
        <ele>161.3</ele>
        <time>2016-04-29T10:25:48Z</time>
      </trkpt>
      <trkpt lat="43.65061" lon="3.82583">
        <ele>161.6</ele>
        <time>2016-04-29T10:25:51Z</time>
      </trkpt>
      <trkpt lat="43.65069" lon="3.82583">
        <ele>161.9</ele>
        <time>2016-04-29T10:25:54Z</time>
      </trkpt>
      <trkpt lat="43.65079" lon="3.8258">
        <ele>162.1</ele>
        <time>2016-04-29T10:25:57Z</time>
      </trkpt>
      <trkpt lat="43.65089" lon="3.82577">
        <ele>162.3</ele>
        <time>2016-04-29T10:26:00Z</time>
      </trkpt>
      <trkpt lat="43.65095" lon="3.82567">
        <ele>162.8</ele>
        <time>2016-04-29T10:26:03Z</time>
      </trkpt>
      <trkpt lat="43.651" lon="3.82558">
        <ele>163.1</ele>
        <time>2016-04-29T10:26:05Z</time>
      </trkpt>
      <trkpt lat="43.65105" lon="3.8255">
        <ele>163.8</ele>
        <time>2016-04-29T10:26:07Z</time>
      </trkpt>
      <trkpt lat="43.65113" lon="3.8254">
        <ele>163.8</ele>
        <time>2016-04-29T10:26:10Z</time>
      </trkpt>
      <trkpt lat="43.6512" lon="3.82531">
        <ele>163.2</ele>
        <time>2016-04-29T10:26:12Z</time>
      </trkpt>
      <trkpt lat="43.65126" lon="3.82522">
        <ele>162.5</ele>
        <time>2016-04-29T10:26:14Z</time>
      </trkpt>
      <trkpt lat="43.65132" lon="3.82514">
        <ele>162.5</ele>
        <time>2016-04-29T10:26:16Z</time>
      </trkpt>
      <trkpt lat="43.65138" lon="3.82504">
        <ele>162.3</ele>
        <time>2016-04-29T10:26:18Z</time>
      </trkpt>
      <trkpt lat="43.65146" lon="3.82498">
        <ele>160.9</ele>
        <time>2016-04-29T10:26:20Z</time>
      </trkpt>
      <trkpt lat="43.65155" lon="3.82505">
        <ele>159.8</ele>
        <time>2016-04-29T10:26:23Z</time>
      </trkpt>
      <trkpt lat="43.65161" lon="3.82513">
        <ele>159.8</ele>
        <time>2016-04-29T10:26:25Z</time>
      </trkpt>
      <trkpt lat="43.65168" lon="3.8252">
        <ele>159.5</ele>
        <time>2016-04-29T10:26:27Z</time>
      </trkpt>
      <trkpt lat="43.65176" lon="3.8253">
        <ele>159.5</ele>
        <time>2016-04-29T10:26:29Z</time>
      </trkpt>
      <trkpt lat="43.65182" lon="3.82537">
        <ele>160.2</ele>
        <time>2016-04-29T10:26:30Z</time>
      </trkpt>
      <trkpt lat="43.65191" lon="3.82551">
        <ele>161</ele>
        <time>2016-04-29T10:26:32Z</time>
      </trkpt>
      <trkpt lat="43.65199" lon="3.82567">
        <ele>162.1</ele>
        <time>2016-04-29T10:26:34Z</time>
      </trkpt>
      <trkpt lat="43.65205" lon="3.82576">
        <ele>161.7</ele>
        <time>2016-04-29T10:26:36Z</time>
      </trkpt>
      <trkpt lat="43.6521" lon="3.82585">
        <ele>162</ele>
        <time>2016-04-29T10:26:38Z</time>
      </trkpt>
      <trkpt lat="43.65217" lon="3.8259">
        <ele>162.2</ele>
        <time>2016-04-29T10:26:40Z</time>
      </trkpt>
      <trkpt lat="43.65224" lon="3.82595">
        <ele>162.3</ele>
        <time>2016-04-29T10:26:42Z</time>
      </trkpt>
      <trkpt lat="43.6523" lon="3.82601">
        <ele>162.4</ele>
        <time>2016-04-29T10:26:44Z</time>
      </trkpt>
      <trkpt lat="43.65238" lon="3.82609">
        <ele>162.6</ele>
        <time>2016-04-29T10:26:47Z</time>
      </trkpt>
      <trkpt lat="43.65245" lon="3.82614">
        <ele>162.7</ele>
        <time>2016-04-29T10:26:50Z</time>
      </trkpt>
      <trkpt lat="43.65253" lon="3.82621">
        <ele>163.1</ele>
        <time>2016-04-29T10:26:53Z</time>
      </trkpt>
      <trkpt lat="43.65261" lon="3.82627">
        <ele>163.4</ele>
        <time>2016-04-29T10:26:56Z</time>
      </trkpt>
      <trkpt lat="43.65267" lon="3.82638">
        <ele>163.7</ele>
        <time>2016-04-29T10:26:59Z</time>
      </trkpt>
      <trkpt lat="43.65272" lon="3.82647">
        <ele>164</ele>
        <time>2016-04-29T10:27:02Z</time>
      </trkpt>
      <trkpt lat="43.6528" lon="3.82653">
        <ele>164.8</ele>
        <time>2016-04-29T10:27:06Z</time>
      </trkpt>
      <trkpt lat="43.65289" lon="3.82657">
        <ele>165.4</ele>
        <time>2016-04-29T10:27:09Z</time>
      </trkpt>
      <trkpt lat="43.65298" lon="3.82664">
        <ele>166</ele>
        <time>2016-04-29T10:27:12Z</time>
      </trkpt>
      <trkpt lat="43.65305" lon="3.82671">
        <ele>166.5</ele>
        <time>2016-04-29T10:27:14Z</time>
      </trkpt>
      <trkpt lat="43.65311" lon="3.82679">
        <ele>166.9</ele>
        <time>2016-04-29T10:27:16Z</time>
      </trkpt>
      <trkpt lat="43.6532" lon="3.82686">
        <ele>167.6</ele>
        <time>2016-04-29T10:27:19Z</time>
      </trkpt>
      <trkpt lat="43.65329" lon="3.82694">
        <ele>168.2</ele>
        <time>2016-04-29T10:27:22Z</time>
      </trkpt>
      <trkpt lat="43.65337" lon="3.82695">
        <ele>168.9</ele>
        <time>2016-04-29T10:27:25Z</time>
      </trkpt>
      <trkpt lat="43.65346" lon="3.82703">
        <ele>169.7</ele>
        <time>2016-04-29T10:27:28Z</time>
      </trkpt>
      <trkpt lat="43.65356" lon="3.82709">
        <ele>170.2</ele>
        <time>2016-04-29T10:27:31Z</time>
      </trkpt>
      <trkpt lat="43.65364" lon="3.82713">
        <ele>172.5</ele>
        <time>2016-04-29T10:27:33Z</time>
      </trkpt>
      <trkpt lat="43.65374" lon="3.82718">
        <ele>172.9</ele>
        <time>2016-04-29T10:27:35Z</time>
      </trkpt>
      <trkpt lat="43.65383" lon="3.82722">
        <ele>174.9</ele>
        <time>2016-04-29T10:27:37Z</time>
      </trkpt>
      <trkpt lat="43.65391" lon="3.82729">
        <ele>175.3</ele>
        <time>2016-04-29T10:27:40Z</time>
      </trkpt>
      <trkpt lat="43.65401" lon="3.82733">
        <ele>176.6</ele>
        <time>2016-04-29T10:27:43Z</time>
      </trkpt>
      <trkpt lat="43.65408" lon="3.82741">
        <ele>178.2</ele>
        <time>2016-04-29T10:27:45Z</time>
      </trkpt>
      <trkpt lat="43.65416" lon="3.82746">
        <ele>178.5</ele>
        <time>2016-04-29T10:27:48Z</time>
      </trkpt>
      <trkpt lat="43.65422" lon="3.82752">
        <ele>178.5</ele>
        <time>2016-04-29T10:27:50Z</time>
      </trkpt>
      <trkpt lat="43.65431" lon="3.82759">
        <ele>178.5</ele>
        <time>2016-04-29T10:27:52Z</time>
      </trkpt>
      <trkpt lat="43.65439" lon="3.82759">
        <ele>178.4</ele>
        <time>2016-04-29T10:27:54Z</time>
      </trkpt>
      <trkpt lat="43.65447" lon="3.8276">
        <ele>178.4</ele>
        <time>2016-04-29T10:27:56Z</time>
      </trkpt>
      <trkpt lat="43.65456" lon="3.82762">
        <ele>178.5</ele>
        <time>2016-04-29T10:27:59Z</time>
      </trkpt>
      <trkpt lat="43.65465" lon="3.82766">
        <ele>178.5</ele>
        <time>2016-04-29T10:28:02Z</time>
      </trkpt>
      <trkpt lat="43.65473" lon="3.82778">
        <ele>178.5</ele>
        <time>2016-04-29T10:28:04Z</time>
      </trkpt>
      <trkpt lat="43.65477" lon="3.82785">
        <ele>178.5</ele>
        <time>2016-04-29T10:28:05Z</time>
      </trkpt>
      <trkpt lat="43.65482" lon="3.82794">
        <ele>179</ele>
        <time>2016-04-29T10:28:07Z</time>
      </trkpt>
      <trkpt lat="43.65491" lon="3.828">
        <ele>178.1</ele>
        <time>2016-04-29T10:28:09Z</time>
      </trkpt>
      <trkpt lat="43.65497" lon="3.82813">
        <ele>177.9</ele>
        <time>2016-04-29T10:28:12Z</time>
      </trkpt>
      <trkpt lat="43.655" lon="3.82824">
        <ele>177.6</ele>
        <time>2016-04-29T10:28:15Z</time>
      </trkpt>
      <trkpt lat="43.65504" lon="3.82836">
        <ele>177.3</ele>
        <time>2016-04-29T10:28:18Z</time>
      </trkpt>
      <trkpt lat="43.65505" lon="3.82846">
        <ele>177.1</ele>
        <time>2016-04-29T10:28:20Z</time>
      </trkpt>
      <trkpt lat="43.65502" lon="3.82857">
        <ele>177</ele>
        <time>2016-04-29T10:28:24Z</time>
      </trkpt>
      <trkpt lat="43.65497" lon="3.82867">
        <ele>176.4</ele>
        <time>2016-04-29T10:28:30Z</time>
      </trkpt>
      <trkpt lat="43.65493" lon="3.82874">
        <ele>176.3</ele>
        <time>2016-04-29T10:28:33Z</time>
      </trkpt>
      <trkpt lat="43.65487" lon="3.82885">
        <ele>176.6</ele>
        <time>2016-04-29T10:28:36Z</time>
      </trkpt>
      <trkpt lat="43.65486" lon="3.82896">
        <ele>177</ele>
        <time>2016-04-29T10:28:40Z</time>
      </trkpt>
      <trkpt lat="43.65485" lon="3.82908">
        <ele>177.4</ele>
        <time>2016-04-29T10:28:44Z</time>
      </trkpt>
      <trkpt lat="43.65486" lon="3.82919">
        <ele>177.9</ele>
        <time>2016-04-29T10:28:47Z</time>
      </trkpt>
      <trkpt lat="43.65491" lon="3.82929">
        <ele>178.4</ele>
        <time>2016-04-29T10:28:51Z</time>
      </trkpt>
      <trkpt lat="43.65498" lon="3.82935">
        <ele>178.5</ele>
        <time>2016-04-29T10:28:54Z</time>
      </trkpt>
      <trkpt lat="43.65507" lon="3.8294">
        <ele>178.8</ele>
        <time>2016-04-29T10:28:59Z</time>
      </trkpt>
      <trkpt lat="43.65515" lon="3.82947">
        <ele>179.4</ele>
        <time>2016-04-29T10:29:02Z</time>
      </trkpt>
      <trkpt lat="43.65518" lon="3.82958">
        <ele>179.8</ele>
        <time>2016-04-29T10:29:05Z</time>
      </trkpt>
      <trkpt lat="43.65524" lon="3.82969">
        <ele>180.5</ele>
        <time>2016-04-29T10:29:09Z</time>
      </trkpt>
      <trkpt lat="43.65532" lon="3.82976">
        <ele>181.2</ele>
        <time>2016-04-29T10:29:13Z</time>
      </trkpt>
      <trkpt lat="43.6554" lon="3.82978">
        <ele>181.5</ele>
        <time>2016-04-29T10:29:16Z</time>
      </trkpt>
      <trkpt lat="43.65547" lon="3.82983">
        <ele>181.6</ele>
        <time>2016-04-29T10:29:20Z</time>
      </trkpt>
      <trkpt lat="43.65549" lon="3.82988">
        <ele>182.4</ele>
        <time>2016-04-29T10:29:27Z</time>
      </trkpt>
      <trkpt lat="43.65549" lon="3.82992">
        <ele>183.8</ele>
        <time>2016-04-29T10:29:34Z</time>
      </trkpt>
      <trkpt lat="43.65542" lon="3.82999">
        <ele>183.3</ele>
        <time>2016-04-29T10:29:38Z</time>
      </trkpt>
      <trkpt lat="43.65538" lon="3.83009">
        <ele>182.7</ele>
        <time>2016-04-29T10:29:42Z</time>
      </trkpt>
      <trkpt lat="43.65535" lon="3.83018">
        <ele>182.4</ele>
        <time>2016-04-29T10:29:45Z</time>
      </trkpt>
      <trkpt lat="43.65537" lon="3.83027">
        <ele>181.7</ele>
        <time>2016-04-29T10:29:52Z</time>
      </trkpt>
      <trkpt lat="43.6554" lon="3.83038">
        <ele>181.3</ele>
        <time>2016-04-29T10:29:56Z</time>
      </trkpt>
      <trkpt lat="43.6554" lon="3.83051">
        <ele>180.8</ele>
        <time>2016-04-29T10:30:00Z</time>
      </trkpt>
      <trkpt lat="43.65542" lon="3.83054">
        <ele>179.4</ele>
        <time>2016-04-29T10:30:07Z</time>
      </trkpt>
      <trkpt lat="43.65549" lon="3.83046">
        <ele>174.1</ele>
        <time>2016-04-29T10:30:10Z</time>
      </trkpt>
      <trkpt lat="43.65557" lon="3.83036">
        <ele>172.4</ele>
        <time>2016-04-29T10:30:12Z</time>
      </trkpt>
      <trkpt lat="43.65564" lon="3.83025">
        <ele>170.6</ele>
        <time>2016-04-29T10:30:14Z</time>
      </trkpt>
      <trkpt lat="43.65571" lon="3.83018">
        <ele>170.5</ele>
        <time>2016-04-29T10:30:16Z</time>
      </trkpt>
      <trkpt lat="43.65578" lon="3.83011">
        <ele>170.4</ele>
        <time>2016-04-29T10:30:18Z</time>
      </trkpt>
      <trkpt lat="43.65583" lon="3.83004">
        <ele>170.2</ele>
        <time>2016-04-29T10:30:24Z</time>
      </trkpt>
      <trkpt lat="43.6559" lon="3.82999">
        <ele>170.4</ele>
        <time>2016-04-29T10:30:28Z</time>
      </trkpt>
      <trkpt lat="43.656" lon="3.83004">
        <ele>170.1</ele>
        <time>2016-04-29T10:30:32Z</time>
      </trkpt>
      <trkpt lat="43.65607" lon="3.83008">
        <ele>169.9</ele>
        <time>2016-04-29T10:30:34Z</time>
      </trkpt>
      <trkpt lat="43.65617" lon="3.83006">
        <ele>168.9</ele>
        <time>2016-04-29T10:30:36Z</time>
      </trkpt>
      <trkpt lat="43.65625" lon="3.83006">
        <ele>168.3</ele>
        <time>2016-04-29T10:30:40Z</time>
      </trkpt>
      <trkpt lat="43.6563" lon="3.83003">
        <ele>167.7</ele>
        <time>2016-04-29T10:30:47Z</time>
      </trkpt>
      <trkpt lat="43.65626" lon="3.83011">
        <ele>166.9</ele>
        <time>2016-04-29T10:30:54Z</time>
      </trkpt>
      <trkpt lat="43.65623" lon="3.8301">
        <ele>165.5</ele>
        <time>2016-04-29T10:31:01Z</time>
      </trkpt>
      <trkpt lat="43.65616" lon="3.83004">
        <ele>164.5</ele>
        <time>2016-04-29T10:31:05Z</time>
      </trkpt>
      <trkpt lat="43.6561" lon="3.82999">
        <ele>164</ele>
        <time>2016-04-29T10:31:08Z</time>
      </trkpt>
      <trkpt lat="43.65602" lon="3.82995">
        <ele>164</ele>
        <time>2016-04-29T10:31:12Z</time>
      </trkpt>
      <trkpt lat="43.65605" lon="3.83">
        <ele>164.1</ele>
        <time>2016-04-29T10:31:19Z</time>
      </trkpt>
      <trkpt lat="43.65612" lon="3.83004">
        <ele>164.6</ele>
        <time>2016-04-29T10:31:21Z</time>
      </trkpt>
      <trkpt lat="43.65619" lon="3.83005">
        <ele>164.9</ele>
        <time>2016-04-29T10:31:23Z</time>
      </trkpt>
      <trkpt lat="43.65628" lon="3.83004">
        <ele>164.3</ele>
        <time>2016-04-29T10:31:25Z</time>
      </trkpt>
      <trkpt lat="43.65635" lon="3.82997">
        <ele>163.5</ele>
        <time>2016-04-29T10:31:28Z</time>
      </trkpt>
      <trkpt lat="43.65645" lon="3.82989">
        <ele>162.7</ele>
        <time>2016-04-29T10:31:30Z</time>
      </trkpt>
      <trkpt lat="43.65652" lon="3.82986">
        <ele>162.2</ele>
        <time>2016-04-29T10:31:31Z</time>
      </trkpt>
      <trkpt lat="43.65662" lon="3.82987">
        <ele>161.2</ele>
        <time>2016-04-29T10:31:33Z</time>
      </trkpt>
      <trkpt lat="43.6567" lon="3.82983">
        <ele>160.5</ele>
        <time>2016-04-29T10:31:38Z</time>
      </trkpt>
      <trkpt lat="43.65679" lon="3.82978">
        <ele>158.1</ele>
        <time>2016-04-29T10:31:41Z</time>
      </trkpt>
      <trkpt lat="43.65687" lon="3.82973">
        <ele>157.7</ele>
        <time>2016-04-29T10:31:43Z</time>
      </trkpt>
      <trkpt lat="43.65695" lon="3.82968">
        <ele>156.9</ele>
        <time>2016-04-29T10:31:46Z</time>
      </trkpt>
      <trkpt lat="43.657" lon="3.8296">
        <ele>156.3</ele>
        <time>2016-04-29T10:31:49Z</time>
      </trkpt>
      <trkpt lat="43.65704" lon="3.82951">
        <ele>155.7</ele>
        <time>2016-04-29T10:31:52Z</time>
      </trkpt>
      <trkpt lat="43.65709" lon="3.82939">
        <ele>155</ele>
        <time>2016-04-29T10:31:55Z</time>
      </trkpt>
      <trkpt lat="43.65714" lon="3.82928">
        <ele>154.5</ele>
        <time>2016-04-29T10:31:57Z</time>
      </trkpt>
      <trkpt lat="43.65724" lon="3.82921">
        <ele>148.3</ele>
        <time>2016-04-29T10:31:59Z</time>
      </trkpt>
      <trkpt lat="43.65732" lon="3.82921">
        <ele>146.5</ele>
        <time>2016-04-29T10:32:00Z</time>
      </trkpt>
      <trkpt lat="43.6574" lon="3.82931">
        <ele>144.7</ele>
        <time>2016-04-29T10:32:02Z</time>
      </trkpt>
      <trkpt lat="43.65747" lon="3.82945">
        <ele>143.6</ele>
        <time>2016-04-29T10:32:04Z</time>
      </trkpt>
      <trkpt lat="43.65755" lon="3.8296">
        <ele>141.6</ele>
        <time>2016-04-29T10:32:06Z</time>
      </trkpt>
      <trkpt lat="43.6576" lon="3.82975">
        <ele>140.8</ele>
        <time>2016-04-29T10:32:08Z</time>
      </trkpt>
      <trkpt lat="43.65766" lon="3.82991">
        <ele>140.6</ele>
        <time>2016-04-29T10:32:10Z</time>
      </trkpt>
      <trkpt lat="43.65771" lon="3.83006">
        <ele>140.5</ele>
        <time>2016-04-29T10:32:12Z</time>
      </trkpt>
      <trkpt lat="43.65776" lon="3.83019">
        <ele>140.6</ele>
        <time>2016-04-29T10:32:14Z</time>
      </trkpt>
      <trkpt lat="43.6578" lon="3.83029">
        <ele>140.2</ele>
        <time>2016-04-29T10:32:16Z</time>
      </trkpt>
      <trkpt lat="43.65787" lon="3.83035">
        <ele>140.3</ele>
        <time>2016-04-29T10:32:18Z</time>
      </trkpt>
      <trkpt lat="43.65794" lon="3.8303">
        <ele>140</ele>
        <time>2016-04-29T10:32:21Z</time>
      </trkpt>
      <trkpt lat="43.65803" lon="3.83022">
        <ele>140</ele>
        <time>2016-04-29T10:32:24Z</time>
      </trkpt>
      <trkpt lat="43.65811" lon="3.83014">
        <ele>139.9</ele>
        <time>2016-04-29T10:32:28Z</time>
      </trkpt>
      <trkpt lat="43.65817" lon="3.83006">
        <ele>139.9</ele>
        <time>2016-04-29T10:32:34Z</time>
      </trkpt>
      <trkpt lat="43.65825" lon="3.83">
        <ele>140</ele>
        <time>2016-04-29T10:32:37Z</time>
      </trkpt>
      <trkpt lat="43.65829" lon="3.82991">
        <ele>140</ele>
        <time>2016-04-29T10:32:40Z</time>
      </trkpt>
      <trkpt lat="43.65833" lon="3.82977">
        <ele>139.8</ele>
        <time>2016-04-29T10:32:43Z</time>
      </trkpt>
      <trkpt lat="43.65833" lon="3.82966">
        <ele>138.2</ele>
        <time>2016-04-29T10:32:45Z</time>
      </trkpt>
      <trkpt lat="43.65833" lon="3.82954">
        <ele>136.6</ele>
        <time>2016-04-29T10:32:47Z</time>
      </trkpt>
      <trkpt lat="43.65834" lon="3.82943">
        <ele>136.1</ele>
        <time>2016-04-29T10:32:49Z</time>
      </trkpt>
      <trkpt lat="43.65837" lon="3.8293">
        <ele>135.4</ele>
        <time>2016-04-29T10:32:51Z</time>
      </trkpt>
      <trkpt lat="43.65842" lon="3.82919">
        <ele>135.2</ele>
        <time>2016-04-29T10:32:53Z</time>
      </trkpt>
      <trkpt lat="43.65847" lon="3.82908">
        <ele>134.9</ele>
        <time>2016-04-29T10:32:55Z</time>
      </trkpt>
      <trkpt lat="43.65854" lon="3.82898">
        <ele>134.8</ele>
        <time>2016-04-29T10:32:57Z</time>
      </trkpt>
      <trkpt lat="43.65861" lon="3.82895">
        <ele>134.9</ele>
        <time>2016-04-29T10:32:59Z</time>
      </trkpt>
      <trkpt lat="43.6587" lon="3.82893">
        <ele>135</ele>
        <time>2016-04-29T10:33:01Z</time>
      </trkpt>
      <trkpt lat="43.6588" lon="3.82892">
        <ele>135.9</ele>
        <time>2016-04-29T10:33:04Z</time>
      </trkpt>
      <trkpt lat="43.65887" lon="3.82889">
        <ele>136</ele>
        <time>2016-04-29T10:33:07Z</time>
      </trkpt>
      <trkpt lat="43.65897" lon="3.82886">
        <ele>136.2</ele>
        <time>2016-04-29T10:33:10Z</time>
      </trkpt>
      <trkpt lat="43.65905" lon="3.82884">
        <ele>136.4</ele>
        <time>2016-04-29T10:33:13Z</time>
      </trkpt>
      <trkpt lat="43.65914" lon="3.82881">
        <ele>136.7</ele>
        <time>2016-04-29T10:33:16Z</time>
      </trkpt>
      <trkpt lat="43.65922" lon="3.8288">
        <ele>137</ele>
        <time>2016-04-29T10:33:19Z</time>
      </trkpt>
      <trkpt lat="43.65929" lon="3.82878">
        <ele>137.4</ele>
        <time>2016-04-29T10:33:22Z</time>
      </trkpt>
      <trkpt lat="43.65937" lon="3.82874">
        <ele>137.7</ele>
        <time>2016-04-29T10:33:25Z</time>
      </trkpt>
      <trkpt lat="43.65942" lon="3.82866">
        <ele>138.1</ele>
        <time>2016-04-29T10:33:28Z</time>
      </trkpt>
      <trkpt lat="43.65946" lon="3.82855">
        <ele>138.5</ele>
        <time>2016-04-29T10:33:31Z</time>
      </trkpt>
      <trkpt lat="43.65951" lon="3.82841">
        <ele>138.9</ele>
        <time>2016-04-29T10:33:34Z</time>
      </trkpt>
      <trkpt lat="43.65955" lon="3.82832">
        <ele>139.1</ele>
        <time>2016-04-29T10:33:36Z</time>
      </trkpt>
      <trkpt lat="43.6596" lon="3.82819">
        <ele>139.4</ele>
        <time>2016-04-29T10:33:39Z</time>
      </trkpt>
      <trkpt lat="43.65963" lon="3.8281">
        <ele>139.7</ele>
        <time>2016-04-29T10:33:41Z</time>
      </trkpt>
      <trkpt lat="43.65967" lon="3.82801">
        <ele>139.9</ele>
        <time>2016-04-29T10:33:43Z</time>
      </trkpt>
      <trkpt lat="43.65971" lon="3.8279">
        <ele>142.4</ele>
        <time>2016-04-29T10:33:45Z</time>
      </trkpt>
      <trkpt lat="43.65975" lon="3.82778">
        <ele>143.3</ele>
        <time>2016-04-29T10:33:47Z</time>
      </trkpt>
      <trkpt lat="43.65981" lon="3.82767">
        <ele>145.3</ele>
        <time>2016-04-29T10:33:49Z</time>
      </trkpt>
      <trkpt lat="43.65988" lon="3.82754">
        <ele>146.3</ele>
        <time>2016-04-29T10:33:51Z</time>
      </trkpt>
      <trkpt lat="43.65994" lon="3.82741">
        <ele>146.8</ele>
        <time>2016-04-29T10:33:53Z</time>
      </trkpt>
      <trkpt lat="43.65999" lon="3.82727">
        <ele>145.8</ele>
        <time>2016-04-29T10:33:55Z</time>
      </trkpt>
      <trkpt lat="43.66005" lon="3.82714">
        <ele>146.7</ele>
        <time>2016-04-29T10:33:57Z</time>
      </trkpt>
      <trkpt lat="43.66012" lon="3.82698">
        <ele>145.5</ele>
        <time>2016-04-29T10:33:59Z</time>
      </trkpt>
      <trkpt lat="43.66018" lon="3.82683">
        <ele>144</ele>
        <time>2016-04-29T10:34:01Z</time>
      </trkpt>
      <trkpt lat="43.66024" lon="3.8267">
        <ele>142.4</ele>
        <time>2016-04-29T10:34:03Z</time>
      </trkpt>
      <trkpt lat="43.66033" lon="3.82663">
        <ele>141</ele>
        <time>2016-04-29T10:34:05Z</time>
      </trkpt>
      <trkpt lat="43.66043" lon="3.82665">
        <ele>140.1</ele>
        <time>2016-04-29T10:34:07Z</time>
      </trkpt>
      <trkpt lat="43.6605" lon="3.82669">
        <ele>139.1</ele>
        <time>2016-04-29T10:34:09Z</time>
      </trkpt>
      <trkpt lat="43.66057" lon="3.82674">
        <ele>139</ele>
        <time>2016-04-29T10:34:11Z</time>
      </trkpt>
      <trkpt lat="43.66064" lon="3.8268">
        <ele>139.6</ele>
        <time>2016-04-29T10:34:13Z</time>
      </trkpt>
      <trkpt lat="43.66073" lon="3.82686">
        <ele>140.3</ele>
        <time>2016-04-29T10:34:15Z</time>
      </trkpt>
      <trkpt lat="43.66081" lon="3.82684">
        <ele>140.6</ele>
        <time>2016-04-29T10:34:17Z</time>
      </trkpt>
      <trkpt lat="43.66089" lon="3.82677">
        <ele>141.6</ele>
        <time>2016-04-29T10:34:19Z</time>
      </trkpt>
      <trkpt lat="43.66097" lon="3.82674">
        <ele>142.5</ele>
        <time>2016-04-29T10:34:21Z</time>
      </trkpt>
      <trkpt lat="43.66105" lon="3.82676">
        <ele>142.6</ele>
        <time>2016-04-29T10:34:23Z</time>
      </trkpt>
      <trkpt lat="43.66113" lon="3.82683">
        <ele>142.7</ele>
        <time>2016-04-29T10:34:26Z</time>
      </trkpt>
      <trkpt lat="43.66123" lon="3.82683">
        <ele>142.7</ele>
        <time>2016-04-29T10:34:29Z</time>
      </trkpt>
      <trkpt lat="43.66132" lon="3.82686">
        <ele>142.8</ele>
        <time>2016-04-29T10:34:32Z</time>
      </trkpt>
      <trkpt lat="43.6614" lon="3.82686">
        <ele>143</ele>
        <time>2016-04-29T10:34:35Z</time>
      </trkpt>
      <trkpt lat="43.66148" lon="3.82688">
        <ele>143.4</ele>
        <time>2016-04-29T10:34:38Z</time>
      </trkpt>
      <trkpt lat="43.66156" lon="3.82689">
        <ele>144.1</ele>
        <time>2016-04-29T10:34:42Z</time>
      </trkpt>
      <trkpt lat="43.66164" lon="3.82695">
        <ele>144.6</ele>
        <time>2016-04-29T10:34:46Z</time>
      </trkpt>
      <trkpt lat="43.66171" lon="3.827">
        <ele>145</ele>
        <time>2016-04-29T10:34:49Z</time>
      </trkpt>
      <trkpt lat="43.66177" lon="3.82705">
        <ele>145.5</ele>
        <time>2016-04-29T10:34:53Z</time>
      </trkpt>
      <trkpt lat="43.66182" lon="3.82695">
        <ele>146.4</ele>
        <time>2016-04-29T10:34:58Z</time>
      </trkpt>
      <trkpt lat="43.66187" lon="3.82684">
        <ele>147</ele>
        <time>2016-04-29T10:35:00Z</time>
      </trkpt>
      <trkpt lat="43.66193" lon="3.82671">
        <ele>148.1</ele>
        <time>2016-04-29T10:35:02Z</time>
      </trkpt>
      <trkpt lat="43.66196" lon="3.82662">
        <ele>148.3</ele>
        <time>2016-04-29T10:35:03Z</time>
      </trkpt>
      <trkpt lat="43.662" lon="3.82654">
        <ele>148.4</ele>
        <time>2016-04-29T10:35:04Z</time>
      </trkpt>
      <trkpt lat="43.66207" lon="3.82638">
        <ele>147.2</ele>
        <time>2016-04-29T10:35:06Z</time>
      </trkpt>
      <trkpt lat="43.66214" lon="3.82622">
        <ele>147.1</ele>
        <time>2016-04-29T10:35:08Z</time>
      </trkpt>
      <trkpt lat="43.66219" lon="3.82616">
        <ele>146.8</ele>
        <time>2016-04-29T10:35:09Z</time>
      </trkpt>
      <trkpt lat="43.66228" lon="3.82608">
        <ele>146.5</ele>
        <time>2016-04-29T10:35:11Z</time>
      </trkpt>
      <trkpt lat="43.66236" lon="3.82601">
        <ele>146.3</ele>
        <time>2016-04-29T10:35:13Z</time>
      </trkpt>
      <trkpt lat="43.66243" lon="3.82597">
        <ele>146.3</ele>
        <time>2016-04-29T10:35:15Z</time>
      </trkpt>
      <trkpt lat="43.66252" lon="3.82593">
        <ele>146.2</ele>
        <time>2016-04-29T10:35:18Z</time>
      </trkpt>
      <trkpt lat="43.66261" lon="3.82589">
        <ele>146.4</ele>
        <time>2016-04-29T10:35:21Z</time>
      </trkpt>
      <trkpt lat="43.66268" lon="3.82585">
        <ele>146.6</ele>
        <time>2016-04-29T10:35:25Z</time>
      </trkpt>
      <trkpt lat="43.66276" lon="3.82583">
        <ele>146.8</ele>
        <time>2016-04-29T10:35:28Z</time>
      </trkpt>
      <trkpt lat="43.66286" lon="3.82578">
        <ele>147.3</ele>
        <time>2016-04-29T10:35:32Z</time>
      </trkpt>
      <trkpt lat="43.66293" lon="3.82572">
        <ele>147.7</ele>
        <time>2016-04-29T10:35:35Z</time>
      </trkpt>
      <trkpt lat="43.663" lon="3.82564">
        <ele>148.4</ele>
        <time>2016-04-29T10:35:39Z</time>
      </trkpt>
      <trkpt lat="43.66298" lon="3.82552">
        <ele>151.2</ele>
        <time>2016-04-29T10:35:43Z</time>
      </trkpt>
      <trkpt lat="43.66298" lon="3.82542">
        <ele>152.7</ele>
        <time>2016-04-29T10:35:45Z</time>
      </trkpt>
      <trkpt lat="43.66296" lon="3.82527">
        <ele>153.6</ele>
        <time>2016-04-29T10:35:47Z</time>
      </trkpt>
      <trkpt lat="43.66299" lon="3.82517">
        <ele>153.6</ele>
        <time>2016-04-29T10:35:49Z</time>
      </trkpt>
      <trkpt lat="43.663" lon="3.82503">
        <ele>153.7</ele>
        <time>2016-04-29T10:35:52Z</time>
      </trkpt>
      <trkpt lat="43.66301" lon="3.82489">
        <ele>153.5</ele>
        <time>2016-04-29T10:35:55Z</time>
      </trkpt>
      <trkpt lat="43.66302" lon="3.82479">
        <ele>153.4</ele>
        <time>2016-04-29T10:35:57Z</time>
      </trkpt>
      <trkpt lat="43.66303" lon="3.82467">
        <ele>152.8</ele>
        <time>2016-04-29T10:35:59Z</time>
      </trkpt>
      <trkpt lat="43.66308" lon="3.82451">
        <ele>152.5</ele>
        <time>2016-04-29T10:36:01Z</time>
      </trkpt>
      <trkpt lat="43.66315" lon="3.82443">
        <ele>152.2</ele>
        <time>2016-04-29T10:36:04Z</time>
      </trkpt>
      <trkpt lat="43.66321" lon="3.82438">
        <ele>152.2</ele>
        <time>2016-04-29T10:36:07Z</time>
      </trkpt>
      <trkpt lat="43.66326" lon="3.82429">
        <ele>152.3</ele>
        <time>2016-04-29T10:36:10Z</time>
      </trkpt>
      <trkpt lat="43.66334" lon="3.82422">
        <ele>152.6</ele>
        <time>2016-04-29T10:36:14Z</time>
      </trkpt>
      <trkpt lat="43.66343" lon="3.82418">
        <ele>152.9</ele>
        <time>2016-04-29T10:36:18Z</time>
      </trkpt>
      <trkpt lat="43.66351" lon="3.82412">
        <ele>153.1</ele>
        <time>2016-04-29T10:36:21Z</time>
      </trkpt>
      <trkpt lat="43.66358" lon="3.82407">
        <ele>153.4</ele>
        <time>2016-04-29T10:36:25Z</time>
      </trkpt>
      <trkpt lat="43.66362" lon="3.82398">
        <ele>154</ele>
        <time>2016-04-29T10:36:30Z</time>
      </trkpt>
      <trkpt lat="43.66358" lon="3.82385">
        <ele>156.5</ele>
        <time>2016-04-29T10:36:33Z</time>
      </trkpt>
      <trkpt lat="43.66354" lon="3.82371">
        <ele>158.2</ele>
        <time>2016-04-29T10:36:35Z</time>
      </trkpt>
      <trkpt lat="43.66348" lon="3.82364">
        <ele>158.1</ele>
        <time>2016-04-29T10:36:37Z</time>
      </trkpt>
      <trkpt lat="43.66344" lon="3.82349">
        <ele>157.1</ele>
        <time>2016-04-29T10:36:39Z</time>
      </trkpt>
      <trkpt lat="43.66337" lon="3.82344">
        <ele>157</ele>
        <time>2016-04-29T10:36:41Z</time>
      </trkpt>
      <trkpt lat="43.66331" lon="3.82332">
        <ele>157.5</ele>
        <time>2016-04-29T10:36:43Z</time>
      </trkpt>
      <trkpt lat="43.66325" lon="3.82316">
        <ele>157.1</ele>
        <time>2016-04-29T10:36:45Z</time>
      </trkpt>
      <trkpt lat="43.66319" lon="3.82294">
        <ele>156.7</ele>
        <time>2016-04-29T10:36:49Z</time>
      </trkpt>
      <trkpt lat="43.66316" lon="3.82283">
        <ele>156.6</ele>
        <time>2016-04-29T10:36:51Z</time>
      </trkpt>
      <trkpt lat="43.66316" lon="3.82273">
        <ele>156.7</ele>
        <time>2016-04-29T10:36:53Z</time>
      </trkpt>
      <trkpt lat="43.66315" lon="3.82262">
        <ele>156.9</ele>
        <time>2016-04-29T10:36:55Z</time>
      </trkpt>
      <trkpt lat="43.66313" lon="3.82251">
        <ele>156.8</ele>
        <time>2016-04-29T10:36:58Z</time>
      </trkpt>
      <trkpt lat="43.6631" lon="3.82238">
        <ele>156.9</ele>
        <time>2016-04-29T10:37:01Z</time>
      </trkpt>
      <trkpt lat="43.6631" lon="3.82224">
        <ele>157.3</ele>
        <time>2016-04-29T10:37:04Z</time>
      </trkpt>
      <trkpt lat="43.66309" lon="3.82212">
        <ele>157.5</ele>
        <time>2016-04-29T10:37:07Z</time>
      </trkpt>
      <trkpt lat="43.66306" lon="3.82198">
        <ele>157.7</ele>
        <time>2016-04-29T10:37:10Z</time>
      </trkpt>
      <trkpt lat="43.66303" lon="3.82189">
        <ele>157.8</ele>
        <time>2016-04-29T10:37:12Z</time>
      </trkpt>
      <trkpt lat="43.66299" lon="3.82177">
        <ele>158</ele>
        <time>2016-04-29T10:37:15Z</time>
      </trkpt>
      <trkpt lat="43.66293" lon="3.82164">
        <ele>159.8</ele>
        <time>2016-04-29T10:37:18Z</time>
      </trkpt>
      <trkpt lat="43.66286" lon="3.82154">
        <ele>161.6</ele>
        <time>2016-04-29T10:37:20Z</time>
      </trkpt>
      <trkpt lat="43.66278" lon="3.82139">
        <ele>161.7</ele>
        <time>2016-04-29T10:37:22Z</time>
      </trkpt>
      <trkpt lat="43.66272" lon="3.82125">
        <ele>161.6</ele>
        <time>2016-04-29T10:37:24Z</time>
      </trkpt>
      <trkpt lat="43.66269" lon="3.8211">
        <ele>161.4</ele>
        <time>2016-04-29T10:37:26Z</time>
      </trkpt>
      <trkpt lat="43.66264" lon="3.82093">
        <ele>161.4</ele>
        <time>2016-04-29T10:37:28Z</time>
      </trkpt>
      <trkpt lat="43.66258" lon="3.82077">
        <ele>160.4</ele>
        <time>2016-04-29T10:37:30Z</time>
      </trkpt>
      <trkpt lat="43.66255" lon="3.82067">
        <ele>158.7</ele>
        <time>2016-04-29T10:37:31Z</time>
      </trkpt>
      <trkpt lat="43.66251" lon="3.82058">
        <ele>157.2</ele>
        <time>2016-04-29T10:37:32Z</time>
      </trkpt>
      <trkpt lat="43.66247" lon="3.82049">
        <ele>156.8</ele>
        <time>2016-04-29T10:37:33Z</time>
      </trkpt>
      <trkpt lat="43.66242" lon="3.82032">
        <ele>156.8</ele>
        <time>2016-04-29T10:37:35Z</time>
      </trkpt>
      <trkpt lat="43.66238" lon="3.82024">
        <ele>156.3</ele>
        <time>2016-04-29T10:37:37Z</time>
      </trkpt>
      <trkpt lat="43.66227" lon="3.8202">
        <ele>155.7</ele>
        <time>2016-04-29T10:37:39Z</time>
      </trkpt>
      <trkpt lat="43.66215" lon="3.82014">
        <ele>155.7</ele>
        <time>2016-04-29T10:37:41Z</time>
      </trkpt>
      <trkpt lat="43.66203" lon="3.82007">
        <ele>153.9</ele>
        <time>2016-04-29T10:37:43Z</time>
      </trkpt>
      <trkpt lat="43.66202" lon="3.8199">
        <ele>152.8</ele>
        <time>2016-04-29T10:37:45Z</time>
      </trkpt>
      <trkpt lat="43.66205" lon="3.8198">
        <ele>152.8</ele>
        <time>2016-04-29T10:37:46Z</time>
      </trkpt>
      <trkpt lat="43.66207" lon="3.8197">
        <ele>152.7</ele>
        <time>2016-04-29T10:37:49Z</time>
      </trkpt>
      <trkpt lat="43.66209" lon="3.8196">
        <ele>152.6</ele>
        <time>2016-04-29T10:37:51Z</time>
      </trkpt>
      <trkpt lat="43.66207" lon="3.81947">
        <ele>152.8</ele>
        <time>2016-04-29T10:37:55Z</time>
      </trkpt>
      <trkpt lat="43.66208" lon="3.81934">
        <ele>152.9</ele>
        <time>2016-04-29T10:37:58Z</time>
      </trkpt>
      <trkpt lat="43.66209" lon="3.81924">
        <ele>153</ele>
        <time>2016-04-29T10:38:00Z</time>
      </trkpt>
      <trkpt lat="43.66212" lon="3.8191">
        <ele>153.4</ele>
        <time>2016-04-29T10:38:04Z</time>
      </trkpt>
      <trkpt lat="43.66214" lon="3.81899">
        <ele>153.6</ele>
        <time>2016-04-29T10:38:07Z</time>
      </trkpt>
      <trkpt lat="43.66214" lon="3.81888">
        <ele>153.8</ele>
        <time>2016-04-29T10:38:10Z</time>
      </trkpt>
      <trkpt lat="43.66214" lon="3.81879">
        <ele>154</ele>
        <time>2016-04-29T10:38:12Z</time>
      </trkpt>
      <trkpt lat="43.66214" lon="3.81867">
        <ele>153.8</ele>
        <time>2016-04-29T10:38:14Z</time>
      </trkpt>
      <trkpt lat="43.66216" lon="3.81856">
        <ele>153.7</ele>
        <time>2016-04-29T10:38:16Z</time>
      </trkpt>
      <trkpt lat="43.66219" lon="3.81845">
        <ele>153.8</ele>
        <time>2016-04-29T10:38:19Z</time>
      </trkpt>
      <trkpt lat="43.66222" lon="3.81837">
        <ele>154.1</ele>
        <time>2016-04-29T10:38:22Z</time>
      </trkpt>
      <trkpt lat="43.66221" lon="3.81823">
        <ele>154.9</ele>
        <time>2016-04-29T10:38:25Z</time>
      </trkpt>
      <trkpt lat="43.66221" lon="3.81812">
        <ele>154.7</ele>
        <time>2016-04-29T10:38:27Z</time>
      </trkpt>
      <trkpt lat="43.66221" lon="3.81799">
        <ele>154.7</ele>
        <time>2016-04-29T10:38:30Z</time>
      </trkpt>
      <trkpt lat="43.66224" lon="3.81786">
        <ele>154.7</ele>
        <time>2016-04-29T10:38:32Z</time>
      </trkpt>
      <trkpt lat="43.66227" lon="3.81774">
        <ele>154.9</ele>
        <time>2016-04-29T10:38:36Z</time>
      </trkpt>
      <trkpt lat="43.66227" lon="3.81761">
        <ele>155</ele>
        <time>2016-04-29T10:38:40Z</time>
      </trkpt>
      <trkpt lat="43.66225" lon="3.8175">
        <ele>155</ele>
        <time>2016-04-29T10:38:43Z</time>
      </trkpt>
      <trkpt lat="43.66223" lon="3.81738">
        <ele>155.7</ele>
        <time>2016-04-29T10:38:45Z</time>
      </trkpt>
      <trkpt lat="43.66223" lon="3.81727">
        <ele>155.9</ele>
        <time>2016-04-29T10:38:48Z</time>
      </trkpt>
      <trkpt lat="43.66219" lon="3.81713">
        <ele>156.1</ele>
        <time>2016-04-29T10:38:51Z</time>
      </trkpt>
      <trkpt lat="43.66217" lon="3.81702">
        <ele>156.4</ele>
        <time>2016-04-29T10:38:53Z</time>
      </trkpt>
      <trkpt lat="43.66216" lon="3.81692">
        <ele>156.8</ele>
        <time>2016-04-29T10:38:56Z</time>
      </trkpt>
      <trkpt lat="43.66216" lon="3.81682">
        <ele>157.1</ele>
        <time>2016-04-29T10:38:58Z</time>
      </trkpt>
      <trkpt lat="43.66218" lon="3.81671">
        <ele>158.8</ele>
        <time>2016-04-29T10:39:01Z</time>
      </trkpt>
      <trkpt lat="43.66217" lon="3.8166">
        <ele>161.3</ele>
        <time>2016-04-29T10:39:03Z</time>
      </trkpt>
      <trkpt lat="43.66215" lon="3.81641">
        <ele>160.5</ele>
        <time>2016-04-29T10:39:05Z</time>
      </trkpt>
      <trkpt lat="43.66218" lon="3.81625">
        <ele>159.5</ele>
        <time>2016-04-29T10:39:07Z</time>
      </trkpt>
      <trkpt lat="43.66215" lon="3.81615">
        <ele>158.3</ele>
        <time>2016-04-29T10:39:10Z</time>
      </trkpt>
      <trkpt lat="43.66216" lon="3.81603">
        <ele>156.5</ele>
        <time>2016-04-29T10:39:12Z</time>
      </trkpt>
      <trkpt lat="43.66215" lon="3.81591">
        <ele>155.8</ele>
        <time>2016-04-29T10:39:14Z</time>
      </trkpt>
      <trkpt lat="43.66209" lon="3.81581">
        <ele>155.6</ele>
        <time>2016-04-29T10:39:17Z</time>
      </trkpt>
      <trkpt lat="43.66203" lon="3.81574">
        <ele>155.5</ele>
        <time>2016-04-29T10:39:19Z</time>
      </trkpt>
      <trkpt lat="43.66206" lon="3.81559">
        <ele>155.4</ele>
        <time>2016-04-29T10:39:21Z</time>
      </trkpt>
      <trkpt lat="43.66203" lon="3.81547">
        <ele>155.1</ele>
        <time>2016-04-29T10:39:24Z</time>
      </trkpt>
      <trkpt lat="43.66201" lon="3.81532">
        <ele>154.3</ele>
        <time>2016-04-29T10:39:28Z</time>
      </trkpt>
      <trkpt lat="43.66194" lon="3.8152">
        <ele>153.5</ele>
        <time>2016-04-29T10:39:30Z</time>
      </trkpt>
      <trkpt lat="43.66188" lon="3.81504">
        <ele>152.3</ele>
        <time>2016-04-29T10:39:32Z</time>
      </trkpt>
      <trkpt lat="43.66186" lon="3.8149">
        <ele>151.1</ele>
        <time>2016-04-29T10:39:34Z</time>
      </trkpt>
      <trkpt lat="43.6618" lon="3.81478">
        <ele>149</ele>
        <time>2016-04-29T10:39:37Z</time>
      </trkpt>
      <trkpt lat="43.66172" lon="3.81467">
        <ele>147.4</ele>
        <time>2016-04-29T10:39:39Z</time>
      </trkpt>
      <trkpt lat="43.66165" lon="3.81455">
        <ele>145.2</ele>
        <time>2016-04-29T10:39:41Z</time>
      </trkpt>
      <trkpt lat="43.66165" lon="3.81441">
        <ele>145.1</ele>
        <time>2016-04-29T10:39:43Z</time>
      </trkpt>
      <trkpt lat="43.66167" lon="3.8143">
        <ele>145</ele>
        <time>2016-04-29T10:39:45Z</time>
      </trkpt>
      <trkpt lat="43.66165" lon="3.81417">
        <ele>143.3</ele>
        <time>2016-04-29T10:39:48Z</time>
      </trkpt>
      <trkpt lat="43.66159" lon="3.81406">
        <ele>141.1</ele>
        <time>2016-04-29T10:39:50Z</time>
      </trkpt>
      <trkpt lat="43.66153" lon="3.8139">
        <ele>137.8</ele>
        <time>2016-04-29T10:39:52Z</time>
      </trkpt>
      <trkpt lat="43.6615" lon="3.81381">
        <ele>136.9</ele>
        <time>2016-04-29T10:39:53Z</time>
      </trkpt>
      <trkpt lat="43.66146" lon="3.81365">
        <ele>134.2</ele>
        <time>2016-04-29T10:39:55Z</time>
      </trkpt>
      <trkpt lat="43.66141" lon="3.81346">
        <ele>133.5</ele>
        <time>2016-04-29T10:39:57Z</time>
      </trkpt>
      <trkpt lat="43.66139" lon="3.81332">
        <ele>133.4</ele>
        <time>2016-04-29T10:39:59Z</time>
      </trkpt>
      <trkpt lat="43.66144" lon="3.81319">
        <ele>133.3</ele>
        <time>2016-04-29T10:40:02Z</time>
      </trkpt>
      <trkpt lat="43.66151" lon="3.81316">
        <ele>133</ele>
        <time>2016-04-29T10:40:06Z</time>
      </trkpt>
      <trkpt lat="43.66158" lon="3.81312">
        <ele>133.1</ele>
        <time>2016-04-29T10:40:10Z</time>
      </trkpt>
      <trkpt lat="43.66166" lon="3.81307">
        <ele>133.1</ele>
        <time>2016-04-29T10:40:14Z</time>
      </trkpt>
      <trkpt lat="43.66173" lon="3.81302">
        <ele>133.3</ele>
        <time>2016-04-29T10:40:18Z</time>
      </trkpt>
      <trkpt lat="43.66181" lon="3.81296">
        <ele>133.5</ele>
        <time>2016-04-29T10:40:21Z</time>
      </trkpt>
      <trkpt lat="43.66188" lon="3.81292">
        <ele>133.8</ele>
        <time>2016-04-29T10:40:24Z</time>
      </trkpt>
      <trkpt lat="43.66198" lon="3.81287">
        <ele>134.1</ele>
        <time>2016-04-29T10:40:28Z</time>
      </trkpt>
      <trkpt lat="43.66205" lon="3.81283">
        <ele>134.4</ele>
        <time>2016-04-29T10:40:31Z</time>
      </trkpt>
      <trkpt lat="43.66213" lon="3.81281">
        <ele>134.8</ele>
        <time>2016-04-29T10:40:34Z</time>
      </trkpt>
      <trkpt lat="43.66221" lon="3.81278">
        <ele>135.1</ele>
        <time>2016-04-29T10:40:38Z</time>
      </trkpt>
      <trkpt lat="43.66228" lon="3.81274">
        <ele>135.7</ele>
        <time>2016-04-29T10:40:42Z</time>
      </trkpt>
      <trkpt lat="43.66235" lon="3.81272">
        <ele>136.1</ele>
        <time>2016-04-29T10:40:45Z</time>
      </trkpt>
      <trkpt lat="43.66244" lon="3.81268">
        <ele>136.6</ele>
        <time>2016-04-29T10:40:49Z</time>
      </trkpt>
      <trkpt lat="43.66252" lon="3.81265">
        <ele>137</ele>
        <time>2016-04-29T10:40:52Z</time>
      </trkpt>
      <trkpt lat="43.66259" lon="3.81262">
        <ele>137.5</ele>
        <time>2016-04-29T10:40:55Z</time>
      </trkpt>
      <trkpt lat="43.66266" lon="3.81258">
        <ele>138.3</ele>
        <time>2016-04-29T10:40:59Z</time>
      </trkpt>
      <trkpt lat="43.66273" lon="3.81254">
        <ele>138.9</ele>
        <time>2016-04-29T10:41:03Z</time>
      </trkpt>
      <trkpt lat="43.66282" lon="3.8125">
        <ele>139.5</ele>
        <time>2016-04-29T10:41:07Z</time>
      </trkpt>
      <trkpt lat="43.66289" lon="3.81245">
        <ele>139.9</ele>
        <time>2016-04-29T10:41:11Z</time>
      </trkpt>
      <trkpt lat="43.66298" lon="3.81242">
        <ele>140.4</ele>
        <time>2016-04-29T10:41:15Z</time>
      </trkpt>
      <trkpt lat="43.66307" lon="3.81239">
        <ele>141.2</ele>
        <time>2016-04-29T10:41:19Z</time>
      </trkpt>
      <trkpt lat="43.66315" lon="3.81236">
        <ele>142</ele>
        <time>2016-04-29T10:41:23Z</time>
      </trkpt>
      <trkpt lat="43.66322" lon="3.81235">
        <ele>142.6</ele>
        <time>2016-04-29T10:41:26Z</time>
      </trkpt>
      <trkpt lat="43.6633" lon="3.81235">
        <ele>143.2</ele>
        <time>2016-04-29T10:41:29Z</time>
      </trkpt>
      <trkpt lat="43.66338" lon="3.81236">
        <ele>143.9</ele>
        <time>2016-04-29T10:41:33Z</time>
      </trkpt>
      <trkpt lat="43.66345" lon="3.81233">
        <ele>144.9</ele>
        <time>2016-04-29T10:41:37Z</time>
      </trkpt>
      <trkpt lat="43.66352" lon="3.81229">
        <ele>146.2</ele>
        <time>2016-04-29T10:41:42Z</time>
      </trkpt>
      <trkpt lat="43.66359" lon="3.81231">
        <ele>147.1</ele>
        <time>2016-04-29T10:41:45Z</time>
      </trkpt>
      <trkpt lat="43.66367" lon="3.8123">
        <ele>148</ele>
        <time>2016-04-29T10:41:49Z</time>
      </trkpt>
      <trkpt lat="43.66375" lon="3.8123">
        <ele>149.3</ele>
        <time>2016-04-29T10:41:53Z</time>
      </trkpt>
      <trkpt lat="43.66384" lon="3.81231">
        <ele>150.3</ele>
        <time>2016-04-29T10:41:57Z</time>
      </trkpt>
      <trkpt lat="43.66393" lon="3.81233">
        <ele>151.4</ele>
        <time>2016-04-29T10:42:01Z</time>
      </trkpt>
      <trkpt lat="43.66402" lon="3.81232">
        <ele>152.4</ele>
        <time>2016-04-29T10:42:05Z</time>
      </trkpt>
      <trkpt lat="43.6641" lon="3.81232">
        <ele>153.4</ele>
        <time>2016-04-29T10:42:09Z</time>
      </trkpt>
      <trkpt lat="43.66419" lon="3.8123">
        <ele>154.3</ele>
        <time>2016-04-29T10:42:13Z</time>
      </trkpt>
      <trkpt lat="43.66427" lon="3.8123">
        <ele>155.6</ele>
        <time>2016-04-29T10:42:18Z</time>
      </trkpt>
      <trkpt lat="43.66435" lon="3.8123">
        <ele>156.3</ele>
        <time>2016-04-29T10:42:21Z</time>
      </trkpt>
      <trkpt lat="43.66445" lon="3.81231">
        <ele>157.4</ele>
        <time>2016-04-29T10:42:25Z</time>
      </trkpt>
      <trkpt lat="43.66454" lon="3.81232">
        <ele>158.5</ele>
        <time>2016-04-29T10:42:29Z</time>
      </trkpt>
      <trkpt lat="43.66462" lon="3.81233">
        <ele>159.2</ele>
        <time>2016-04-29T10:42:32Z</time>
      </trkpt>
      <trkpt lat="43.66471" lon="3.81232">
        <ele>160</ele>
        <time>2016-04-29T10:42:36Z</time>
      </trkpt>
      <trkpt lat="43.66479" lon="3.8123">
        <ele>161</ele>
        <time>2016-04-29T10:42:40Z</time>
      </trkpt>
      <trkpt lat="43.66488" lon="3.8123">
        <ele>162</ele>
        <time>2016-04-29T10:42:44Z</time>
      </trkpt>
      <trkpt lat="43.66496" lon="3.8123">
        <ele>163.1</ele>
        <time>2016-04-29T10:42:48Z</time>
      </trkpt>
      <trkpt lat="43.66505" lon="3.81231">
        <ele>164</ele>
        <time>2016-04-29T10:42:52Z</time>
      </trkpt>
      <trkpt lat="43.66514" lon="3.81232">
        <ele>164.9</ele>
        <time>2016-04-29T10:42:56Z</time>
      </trkpt>
      <trkpt lat="43.66521" lon="3.81233">
        <ele>165.6</ele>
        <time>2016-04-29T10:42:59Z</time>
      </trkpt>
      <trkpt lat="43.6653" lon="3.81234">
        <ele>166.6</ele>
        <time>2016-04-29T10:43:03Z</time>
      </trkpt>
      <trkpt lat="43.66539" lon="3.81235">
        <ele>167.7</ele>
        <time>2016-04-29T10:43:07Z</time>
      </trkpt>
      <trkpt lat="43.66546" lon="3.81234">
        <ele>168.9</ele>
        <time>2016-04-29T10:43:11Z</time>
      </trkpt>
      <trkpt lat="43.66553" lon="3.81232">
        <ele>169.6</ele>
        <time>2016-04-29T10:43:14Z</time>
      </trkpt>
      <trkpt lat="43.66561" lon="3.81231">
        <ele>170.4</ele>
        <time>2016-04-29T10:43:17Z</time>
      </trkpt>
      <trkpt lat="43.6657" lon="3.81231">
        <ele>171.5</ele>
        <time>2016-04-29T10:43:21Z</time>
      </trkpt>
      <trkpt lat="43.66577" lon="3.81233">
        <ele>172.7</ele>
        <time>2016-04-29T10:43:25Z</time>
      </trkpt>
      <trkpt lat="43.66585" lon="3.81235">
        <ele>173.6</ele>
        <time>2016-04-29T10:43:28Z</time>
      </trkpt>
      <trkpt lat="43.66594" lon="3.81235">
        <ele>175</ele>
        <time>2016-04-29T10:43:32Z</time>
      </trkpt>
      <trkpt lat="43.66601" lon="3.81235">
        <ele>176.2</ele>
        <time>2016-04-29T10:43:36Z</time>
      </trkpt>
      <trkpt lat="43.66609" lon="3.81232">
        <ele>177.3</ele>
        <time>2016-04-29T10:43:41Z</time>
      </trkpt>
      <trkpt lat="43.66617" lon="3.81227">
        <ele>178</ele>
        <time>2016-04-29T10:43:45Z</time>
      </trkpt>
      <trkpt lat="43.66626" lon="3.81223">
        <ele>178.6</ele>
        <time>2016-04-29T10:43:48Z</time>
      </trkpt>
      <trkpt lat="43.66633" lon="3.81222">
        <ele>179.2</ele>
        <time>2016-04-29T10:43:51Z</time>
      </trkpt>
      <trkpt lat="43.66642" lon="3.81222">
        <ele>179.6</ele>
        <time>2016-04-29T10:43:54Z</time>
      </trkpt>
      <trkpt lat="43.6665" lon="3.81223">
        <ele>180.2</ele>
        <time>2016-04-29T10:43:57Z</time>
      </trkpt>
      <trkpt lat="43.66658" lon="3.81222">
        <ele>180.7</ele>
        <time>2016-04-29T10:44:00Z</time>
      </trkpt>
      <trkpt lat="43.66666" lon="3.8122">
        <ele>181.2</ele>
        <time>2016-04-29T10:44:03Z</time>
      </trkpt>
      <trkpt lat="43.66673" lon="3.81217">
        <ele>181.7</ele>
        <time>2016-04-29T10:44:06Z</time>
      </trkpt>
      <trkpt lat="43.6668" lon="3.81215">
        <ele>182.2</ele>
        <time>2016-04-29T10:44:09Z</time>
      </trkpt>
      <trkpt lat="43.66689" lon="3.81214">
        <ele>182.6</ele>
        <time>2016-04-29T10:44:12Z</time>
      </trkpt>
      <trkpt lat="43.66698" lon="3.81214">
        <ele>184.5</ele>
        <time>2016-04-29T10:44:14Z</time>
      </trkpt>
      <trkpt lat="43.66705" lon="3.81215">
        <ele>186</ele>
        <time>2016-04-29T10:44:16Z</time>
      </trkpt>
      <trkpt lat="43.66716" lon="3.81216">
        <ele>186</ele>
        <time>2016-04-29T10:44:19Z</time>
      </trkpt>
      <trkpt lat="43.66727" lon="3.81213">
        <ele>186</ele>
        <time>2016-04-29T10:44:22Z</time>
      </trkpt>
      <trkpt lat="43.66737" lon="3.81215">
        <ele>186.5</ele>
        <time>2016-04-29T10:44:25Z</time>
      </trkpt>
      <trkpt lat="43.66745" lon="3.81219">
        <ele>186.7</ele>
        <time>2016-04-29T10:44:27Z</time>
      </trkpt>
      <trkpt lat="43.66753" lon="3.81217">
        <ele>187.5</ele>
        <time>2016-04-29T10:44:29Z</time>
      </trkpt>
      <trkpt lat="43.66756" lon="3.81207">
        <ele>187.3</ele>
        <time>2016-04-29T10:44:33Z</time>
      </trkpt>
      <trkpt lat="43.66756" lon="3.81197">
        <ele>187.1</ele>
        <time>2016-04-29T10:44:36Z</time>
      </trkpt>
      <trkpt lat="43.66757" lon="3.81185">
        <ele>186.8</ele>
        <time>2016-04-29T10:44:39Z</time>
      </trkpt>
      <trkpt lat="43.66759" lon="3.81173">
        <ele>186.6</ele>
        <time>2016-04-29T10:44:41Z</time>
      </trkpt>
      <trkpt lat="43.66759" lon="3.81162">
        <ele>186.3</ele>
        <time>2016-04-29T10:44:43Z</time>
      </trkpt>
      <trkpt lat="43.66758" lon="3.81151">
        <ele>185.1</ele>
        <time>2016-04-29T10:44:45Z</time>
      </trkpt>
      <trkpt lat="43.66758" lon="3.81137">
        <ele>184.3</ele>
        <time>2016-04-29T10:44:47Z</time>
      </trkpt>
      <trkpt lat="43.6676" lon="3.81126">
        <ele>185</ele>
        <time>2016-04-29T10:44:49Z</time>
      </trkpt>
      <trkpt lat="43.66761" lon="3.81115">
        <ele>185.3</ele>
        <time>2016-04-29T10:44:51Z</time>
      </trkpt>
      <trkpt lat="43.66761" lon="3.811">
        <ele>184.9</ele>
        <time>2016-04-29T10:44:53Z</time>
      </trkpt>
      <trkpt lat="43.66762" lon="3.81087">
        <ele>184.2</ele>
        <time>2016-04-29T10:44:55Z</time>
      </trkpt>
      <trkpt lat="43.66763" lon="3.81074">
        <ele>183.6</ele>
        <time>2016-04-29T10:44:57Z</time>
      </trkpt>
      <trkpt lat="43.66763" lon="3.81058">
        <ele>183.5</ele>
        <time>2016-04-29T10:44:59Z</time>
      </trkpt>
      <trkpt lat="43.66765" lon="3.81043">
        <ele>183.9</ele>
        <time>2016-04-29T10:45:01Z</time>
      </trkpt>
      <trkpt lat="43.66766" lon="3.81028">
        <ele>183.8</ele>
        <time>2016-04-29T10:45:03Z</time>
      </trkpt>
      <trkpt lat="43.66772" lon="3.81015">
        <ele>181.7</ele>
        <time>2016-04-29T10:45:05Z</time>
      </trkpt>
      <trkpt lat="43.66782" lon="3.81006">
        <ele>180</ele>
        <time>2016-04-29T10:45:07Z</time>
      </trkpt>
      <trkpt lat="43.6679" lon="3.81002">
        <ele>180.7</ele>
        <time>2016-04-29T10:45:09Z</time>
      </trkpt>
      <trkpt lat="43.66797" lon="3.80996">
        <ele>181.2</ele>
        <time>2016-04-29T10:45:11Z</time>
      </trkpt>
      <trkpt lat="43.66805" lon="3.8099">
        <ele>182.1</ele>
        <time>2016-04-29T10:45:13Z</time>
      </trkpt>
      <trkpt lat="43.66816" lon="3.80984">
        <ele>181.4</ele>
        <time>2016-04-29T10:45:15Z</time>
      </trkpt>
      <trkpt lat="43.66824" lon="3.80981">
        <ele>180.6</ele>
        <time>2016-04-29T10:45:17Z</time>
      </trkpt>
      <trkpt lat="43.66831" lon="3.80975">
        <ele>179.6</ele>
        <time>2016-04-29T10:45:19Z</time>
      </trkpt>
      <trkpt lat="43.66839" lon="3.80969">
        <ele>179.3</ele>
        <time>2016-04-29T10:45:21Z</time>
      </trkpt>
      <trkpt lat="43.66848" lon="3.80961">
        <ele>180.2</ele>
        <time>2016-04-29T10:45:23Z</time>
      </trkpt>
      <trkpt lat="43.66858" lon="3.80952">
        <ele>181.7</ele>
        <time>2016-04-29T10:45:25Z</time>
      </trkpt>
      <trkpt lat="43.66867" lon="3.80942">
        <ele>182.9</ele>
        <time>2016-04-29T10:45:27Z</time>
      </trkpt>
      <trkpt lat="43.66877" lon="3.8093">
        <ele>182.8</ele>
        <time>2016-04-29T10:45:29Z</time>
      </trkpt>
      <trkpt lat="43.66886" lon="3.80919">
        <ele>182.5</ele>
        <time>2016-04-29T10:45:31Z</time>
      </trkpt>
      <trkpt lat="43.66895" lon="3.80906">
        <ele>182.9</ele>
        <time>2016-04-29T10:45:33Z</time>
      </trkpt>
      <trkpt lat="43.66904" lon="3.80892">
        <ele>182.6</ele>
        <time>2016-04-29T10:45:35Z</time>
      </trkpt>
      <trkpt lat="43.66909" lon="3.80877">
        <ele>181.7</ele>
        <time>2016-04-29T10:45:37Z</time>
      </trkpt>
      <trkpt lat="43.66913" lon="3.80863">
        <ele>181.7</ele>
        <time>2016-04-29T10:45:39Z</time>
      </trkpt>
      <trkpt lat="43.66915" lon="3.80852">
        <ele>181.1</ele>
        <time>2016-04-29T10:45:41Z</time>
      </trkpt>
      <trkpt lat="43.66919" lon="3.8084">
        <ele>180.3</ele>
        <time>2016-04-29T10:45:43Z</time>
      </trkpt>
      <trkpt lat="43.66921" lon="3.8083">
        <ele>180.2</ele>
        <time>2016-04-29T10:45:45Z</time>
      </trkpt>
      <trkpt lat="43.66922" lon="3.8082">
        <ele>181.1</ele>
        <time>2016-04-29T10:45:47Z</time>
      </trkpt>
      <trkpt lat="43.66925" lon="3.80809">
        <ele>181.4</ele>
        <time>2016-04-29T10:45:49Z</time>
      </trkpt>
      <trkpt lat="43.66927" lon="3.80797">
        <ele>181</ele>
        <time>2016-04-29T10:45:51Z</time>
      </trkpt>
      <trkpt lat="43.66928" lon="3.80784">
        <ele>179.9</ele>
        <time>2016-04-29T10:45:53Z</time>
      </trkpt>
      <trkpt lat="43.66929" lon="3.80767">
        <ele>179.2</ele>
        <time>2016-04-29T10:45:55Z</time>
      </trkpt>
      <trkpt lat="43.66929" lon="3.8075">
        <ele>178.2</ele>
        <time>2016-04-29T10:45:57Z</time>
      </trkpt>
      <trkpt lat="43.66929" lon="3.80739">
        <ele>177.1</ele>
        <time>2016-04-29T10:45:58Z</time>
      </trkpt>
      <trkpt lat="43.66929" lon="3.80728">
        <ele>177.1</ele>
        <time>2016-04-29T10:45:59Z</time>
      </trkpt>
      <trkpt lat="43.66931" lon="3.80715">
        <ele>176.9</ele>
        <time>2016-04-29T10:46:00Z</time>
      </trkpt>
      <trkpt lat="43.66931" lon="3.80701">
        <ele>176.8</ele>
        <time>2016-04-29T10:46:01Z</time>
      </trkpt>
      <trkpt lat="43.66932" lon="3.80688">
        <ele>176.3</ele>
        <time>2016-04-29T10:46:02Z</time>
      </trkpt>
      <trkpt lat="43.66932" lon="3.80674">
        <ele>175.3</ele>
        <time>2016-04-29T10:46:03Z</time>
      </trkpt>
      <trkpt lat="43.66932" lon="3.8066">
        <ele>174.2</ele>
        <time>2016-04-29T10:46:04Z</time>
      </trkpt>
      <trkpt lat="43.66932" lon="3.80644">
        <ele>172.5</ele>
        <time>2016-04-29T10:46:05Z</time>
      </trkpt>
      <trkpt lat="43.66932" lon="3.80626">
        <ele>170.9</ele>
        <time>2016-04-29T10:46:06Z</time>
      </trkpt>
      <trkpt lat="43.66932" lon="3.8061">
        <ele>169.1</ele>
        <time>2016-04-29T10:46:07Z</time>
      </trkpt>
      <trkpt lat="43.66934" lon="3.80595">
        <ele>167.7</ele>
        <time>2016-04-29T10:46:08Z</time>
      </trkpt>
      <trkpt lat="43.66935" lon="3.80581">
        <ele>166.4</ele>
        <time>2016-04-29T10:46:09Z</time>
      </trkpt>
      <trkpt lat="43.66938" lon="3.80567">
        <ele>164.8</ele>
        <time>2016-04-29T10:46:10Z</time>
      </trkpt>
      <trkpt lat="43.6694" lon="3.80554">
        <ele>163.7</ele>
        <time>2016-04-29T10:46:11Z</time>
      </trkpt>
      <trkpt lat="43.66942" lon="3.80544">
        <ele>162.2</ele>
        <time>2016-04-29T10:46:12Z</time>
      </trkpt>
      <trkpt lat="43.66944" lon="3.80534">
        <ele>160.8</ele>
        <time>2016-04-29T10:46:14Z</time>
      </trkpt>
      <trkpt lat="43.6694" lon="3.80525">
        <ele>159.9</ele>
        <time>2016-04-29T10:46:17Z</time>
      </trkpt>
      <trkpt lat="43.66934" lon="3.80521">
        <ele>159.8</ele>
        <time>2016-04-29T10:46:20Z</time>
      </trkpt>
      <trkpt lat="43.66927" lon="3.80517">
        <ele>159.7</ele>
        <time>2016-04-29T10:46:23Z</time>
      </trkpt>
      <trkpt lat="43.66924" lon="3.80505">
        <ele>159.9</ele>
        <time>2016-04-29T10:46:26Z</time>
      </trkpt>
      <trkpt lat="43.66928" lon="3.80496">
        <ele>160.1</ele>
        <time>2016-04-29T10:46:29Z</time>
      </trkpt>
      <trkpt lat="43.66933" lon="3.80486">
        <ele>160.4</ele>
        <time>2016-04-29T10:46:32Z</time>
      </trkpt>
      <trkpt lat="43.66937" lon="3.80477">
        <ele>160.6</ele>
        <time>2016-04-29T10:46:35Z</time>
      </trkpt>
      <trkpt lat="43.6694" lon="3.80468">
        <ele>160.8</ele>
        <time>2016-04-29T10:46:37Z</time>
      </trkpt>
      <trkpt lat="43.66942" lon="3.80455">
        <ele>160.8</ele>
        <time>2016-04-29T10:46:40Z</time>
      </trkpt>
      <trkpt lat="43.66942" lon="3.80443">
        <ele>161.1</ele>
        <time>2016-04-29T10:46:44Z</time>
      </trkpt>
      <trkpt lat="43.66936" lon="3.80436">
        <ele>161.5</ele>
        <time>2016-04-29T10:46:48Z</time>
      </trkpt>
      <trkpt lat="43.66934" lon="3.80426">
        <ele>161.8</ele>
        <time>2016-04-29T10:46:51Z</time>
      </trkpt>
      <trkpt lat="43.66931" lon="3.80412">
        <ele>162.7</ele>
        <time>2016-04-29T10:46:55Z</time>
      </trkpt>
      <trkpt lat="43.66929" lon="3.80402">
        <ele>163.5</ele>
        <time>2016-04-29T10:46:58Z</time>
      </trkpt>
      <trkpt lat="43.66929" lon="3.80392">
        <ele>164.2</ele>
        <time>2016-04-29T10:47:01Z</time>
      </trkpt>
      <trkpt lat="43.6693" lon="3.80379">
        <ele>164.6</ele>
        <time>2016-04-29T10:47:04Z</time>
      </trkpt>
      <trkpt lat="43.66934" lon="3.8037">
        <ele>164.7</ele>
        <time>2016-04-29T10:47:06Z</time>
      </trkpt>
      <trkpt lat="43.66939" lon="3.80358">
        <ele>164.8</ele>
        <time>2016-04-29T10:47:09Z</time>
      </trkpt>
      <trkpt lat="43.66946" lon="3.80352">
        <ele>165</ele>
        <time>2016-04-29T10:47:12Z</time>
      </trkpt>
      <trkpt lat="43.66954" lon="3.80345">
        <ele>165.3</ele>
        <time>2016-04-29T10:47:15Z</time>
      </trkpt>
      <trkpt lat="43.66962" lon="3.80339">
        <ele>165.4</ele>
        <time>2016-04-29T10:47:17Z</time>
      </trkpt>
      <trkpt lat="43.66971" lon="3.80336">
        <ele>165.6</ele>
        <time>2016-04-29T10:47:20Z</time>
      </trkpt>
      <trkpt lat="43.66973" lon="3.80326">
        <ele>166</ele>
        <time>2016-04-29T10:47:24Z</time>
      </trkpt>
      <trkpt lat="43.66973" lon="3.80316">
        <ele>166.3</ele>
        <time>2016-04-29T10:47:27Z</time>
      </trkpt>
      <trkpt lat="43.66969" lon="3.80304">
        <ele>166.8</ele>
        <time>2016-04-29T10:47:31Z</time>
      </trkpt>
      <trkpt lat="43.66963" lon="3.80294">
        <ele>166.9</ele>
        <time>2016-04-29T10:47:35Z</time>
      </trkpt>
      <trkpt lat="43.66954" lon="3.80288">
        <ele>167</ele>
        <time>2016-04-29T10:47:38Z</time>
      </trkpt>
      <trkpt lat="43.66946" lon="3.80283">
        <ele>167</ele>
        <time>2016-04-29T10:47:41Z</time>
      </trkpt>
      <trkpt lat="43.6694" lon="3.80278">
        <ele>167.2</ele>
        <time>2016-04-29T10:47:44Z</time>
      </trkpt>
      <trkpt lat="43.66932" lon="3.80273">
        <ele>167.3</ele>
        <time>2016-04-29T10:47:47Z</time>
      </trkpt>
      <trkpt lat="43.66924" lon="3.80267">
        <ele>167.7</ele>
        <time>2016-04-29T10:47:50Z</time>
      </trkpt>
      <trkpt lat="43.66915" lon="3.8026">
        <ele>168</ele>
        <time>2016-04-29T10:47:53Z</time>
      </trkpt>
      <trkpt lat="43.66908" lon="3.80253">
        <ele>168.2</ele>
        <time>2016-04-29T10:47:55Z</time>
      </trkpt>
      <trkpt lat="43.66899" lon="3.80246">
        <ele>170.2</ele>
        <time>2016-04-29T10:47:58Z</time>
      </trkpt>
      <trkpt lat="43.6689" lon="3.80238">
        <ele>171.1</ele>
        <time>2016-04-29T10:48:00Z</time>
      </trkpt>
      <trkpt lat="43.66881" lon="3.80231">
        <ele>171.6</ele>
        <time>2016-04-29T10:48:02Z</time>
      </trkpt>
      <trkpt lat="43.66873" lon="3.80228">
        <ele>171.8</ele>
        <time>2016-04-29T10:48:04Z</time>
      </trkpt>
      <trkpt lat="43.66862" lon="3.80224">
        <ele>170.8</ele>
        <time>2016-04-29T10:48:06Z</time>
      </trkpt>
      <trkpt lat="43.66849" lon="3.8022">
        <ele>170.4</ele>
        <time>2016-04-29T10:48:08Z</time>
      </trkpt>
      <trkpt lat="43.66842" lon="3.80219">
        <ele>169.7</ele>
        <time>2016-04-29T10:48:09Z</time>
      </trkpt>
      <trkpt lat="43.66829" lon="3.80221">
        <ele>169.5</ele>
        <time>2016-04-29T10:48:11Z</time>
      </trkpt>
      <trkpt lat="43.66821" lon="3.80224">
        <ele>169.8</ele>
        <time>2016-04-29T10:48:12Z</time>
      </trkpt>
      <trkpt lat="43.66808" lon="3.8023">
        <ele>169.1</ele>
        <time>2016-04-29T10:48:14Z</time>
      </trkpt>
      <trkpt lat="43.668" lon="3.80231">
        <ele>168.5</ele>
        <time>2016-04-29T10:48:15Z</time>
      </trkpt>
      <trkpt lat="43.66786" lon="3.80227">
        <ele>168</ele>
        <time>2016-04-29T10:48:17Z</time>
      </trkpt>
      <trkpt lat="43.66775" lon="3.80221">
        <ele>168.7</ele>
        <time>2016-04-29T10:48:19Z</time>
      </trkpt>
      <trkpt lat="43.66761" lon="3.80211">
        <ele>169.4</ele>
        <time>2016-04-29T10:48:21Z</time>
      </trkpt>
      <trkpt lat="43.66753" lon="3.80204">
        <ele>170.2</ele>
        <time>2016-04-29T10:48:22Z</time>
      </trkpt>
      <trkpt lat="43.66744" lon="3.80199">
        <ele>170.6</ele>
        <time>2016-04-29T10:48:23Z</time>
      </trkpt>
      <trkpt lat="43.66736" lon="3.80194">
        <ele>170.4</ele>
        <time>2016-04-29T10:48:24Z</time>
      </trkpt>
      <trkpt lat="43.66729" lon="3.8019">
        <ele>170</ele>
        <time>2016-04-29T10:48:25Z</time>
      </trkpt>
      <trkpt lat="43.66721" lon="3.80185">
        <ele>169.4</ele>
        <time>2016-04-29T10:48:26Z</time>
      </trkpt>
      <trkpt lat="43.66713" lon="3.80181">
        <ele>168.8</ele>
        <time>2016-04-29T10:48:27Z</time>
      </trkpt>
      <trkpt lat="43.66705" lon="3.80177">
        <ele>167.7</ele>
        <time>2016-04-29T10:48:28Z</time>
      </trkpt>
      <trkpt lat="43.66697" lon="3.80173">
        <ele>166.6</ele>
        <time>2016-04-29T10:48:29Z</time>
      </trkpt>
      <trkpt lat="43.6669" lon="3.80169">
        <ele>166</ele>
        <time>2016-04-29T10:48:30Z</time>
      </trkpt>
      <trkpt lat="43.66684" lon="3.80163">
        <ele>165.1</ele>
        <time>2016-04-29T10:48:31Z</time>
      </trkpt>
      <trkpt lat="43.66677" lon="3.80157">
        <ele>164.7</ele>
        <time>2016-04-29T10:48:32Z</time>
      </trkpt>
      <trkpt lat="43.66669" lon="3.80155">
        <ele>164</ele>
        <time>2016-04-29T10:48:33Z</time>
      </trkpt>
      <trkpt lat="43.66661" lon="3.80153">
        <ele>163.3</ele>
        <time>2016-04-29T10:48:34Z</time>
      </trkpt>
      <trkpt lat="43.66654" lon="3.80151">
        <ele>163.2</ele>
        <time>2016-04-29T10:48:35Z</time>
      </trkpt>
      <trkpt lat="43.66647" lon="3.80151">
        <ele>163.9</ele>
        <time>2016-04-29T10:48:36Z</time>
      </trkpt>
      <trkpt lat="43.6664" lon="3.80153">
        <ele>164.2</ele>
        <time>2016-04-29T10:48:37Z</time>
      </trkpt>
      <trkpt lat="43.66632" lon="3.80153">
        <ele>163.8</ele>
        <time>2016-04-29T10:48:38Z</time>
      </trkpt>
      <trkpt lat="43.66619" lon="3.80148">
        <ele>163.1</ele>
        <time>2016-04-29T10:48:40Z</time>
      </trkpt>
      <trkpt lat="43.66615" lon="3.8014">
        <ele>162.2</ele>
        <time>2016-04-29T10:48:41Z</time>
      </trkpt>
      <trkpt lat="43.66606" lon="3.80126">
        <ele>161</ele>
        <time>2016-04-29T10:48:43Z</time>
      </trkpt>
      <trkpt lat="43.66599" lon="3.80115">
        <ele>160.8</ele>
        <time>2016-04-29T10:48:45Z</time>
      </trkpt>
      <trkpt lat="43.66595" lon="3.80103">
        <ele>160.5</ele>
        <time>2016-04-29T10:48:48Z</time>
      </trkpt>
      <trkpt lat="43.66595" lon="3.8009">
        <ele>160.5</ele>
        <time>2016-04-29T10:48:51Z</time>
      </trkpt>
      <trkpt lat="43.66597" lon="3.80079">
        <ele>159.7</ele>
        <time>2016-04-29T10:48:53Z</time>
      </trkpt>
      <trkpt lat="43.66595" lon="3.80068">
        <ele>158.7</ele>
        <time>2016-04-29T10:48:55Z</time>
      </trkpt>
      <trkpt lat="43.66593" lon="3.80054">
        <ele>158.3</ele>
        <time>2016-04-29T10:48:59Z</time>
      </trkpt>
      <trkpt lat="43.66592" lon="3.80043">
        <ele>157.6</ele>
        <time>2016-04-29T10:49:03Z</time>
      </trkpt>
      <trkpt lat="43.66585" lon="3.80032">
        <ele>155.7</ele>
        <time>2016-04-29T10:49:06Z</time>
      </trkpt>
      <trkpt lat="43.66579" lon="3.8002">
        <ele>152.5</ele>
        <time>2016-04-29T10:49:08Z</time>
      </trkpt>
      <trkpt lat="43.66573" lon="3.8001">
        <ele>150.4</ele>
        <time>2016-04-29T10:49:11Z</time>
      </trkpt>
      <trkpt lat="43.66564" lon="3.79999">
        <ele>149.2</ele>
        <time>2016-04-29T10:49:13Z</time>
      </trkpt>
      <trkpt lat="43.66557" lon="3.79992">
        <ele>148.5</ele>
        <time>2016-04-29T10:49:14Z</time>
      </trkpt>
      <trkpt lat="43.66551" lon="3.79984">
        <ele>147.9</ele>
        <time>2016-04-29T10:49:15Z</time>
      </trkpt>
      <trkpt lat="43.66545" lon="3.79977">
        <ele>147.5</ele>
        <time>2016-04-29T10:49:16Z</time>
      </trkpt>
      <trkpt lat="43.66539" lon="3.7997">
        <ele>146.2</ele>
        <time>2016-04-29T10:49:17Z</time>
      </trkpt>
      <trkpt lat="43.66528" lon="3.79958">
        <ele>145</ele>
        <time>2016-04-29T10:49:19Z</time>
      </trkpt>
      <trkpt lat="43.66523" lon="3.79951">
        <ele>144</ele>
        <time>2016-04-29T10:49:20Z</time>
      </trkpt>
      <trkpt lat="43.66511" lon="3.79943">
        <ele>142.3</ele>
        <time>2016-04-29T10:49:22Z</time>
      </trkpt>
      <trkpt lat="43.66499" lon="3.79937">
        <ele>141.5</ele>
        <time>2016-04-29T10:49:24Z</time>
      </trkpt>
      <trkpt lat="43.66486" lon="3.7993">
        <ele>141.3</ele>
        <time>2016-04-29T10:49:26Z</time>
      </trkpt>
      <trkpt lat="43.66478" lon="3.79921">
        <ele>141.3</ele>
        <time>2016-04-29T10:49:28Z</time>
      </trkpt>
      <trkpt lat="43.66467" lon="3.79906">
        <ele>139.9</ele>
        <time>2016-04-29T10:49:30Z</time>
      </trkpt>
      <trkpt lat="43.66462" lon="3.79895">
        <ele>138.6</ele>
        <time>2016-04-29T10:49:32Z</time>
      </trkpt>
      <trkpt lat="43.66458" lon="3.79883">
        <ele>138.2</ele>
        <time>2016-04-29T10:49:35Z</time>
      </trkpt>
      <trkpt lat="43.66451" lon="3.79877">
        <ele>137.5</ele>
        <time>2016-04-29T10:49:39Z</time>
      </trkpt>
      <trkpt lat="43.66445" lon="3.7987">
        <ele>137</ele>
        <time>2016-04-29T10:49:43Z</time>
      </trkpt>
      <trkpt lat="43.66437" lon="3.79865">
        <ele>136.8</ele>
        <time>2016-04-29T10:49:46Z</time>
      </trkpt>
      <trkpt lat="43.66428" lon="3.79859">
        <ele>136.8</ele>
        <time>2016-04-29T10:49:49Z</time>
      </trkpt>
      <trkpt lat="43.66421" lon="3.79853">
        <ele>136.8</ele>
        <time>2016-04-29T10:49:51Z</time>
      </trkpt>
      <trkpt lat="43.66413" lon="3.79849">
        <ele>136.7</ele>
        <time>2016-04-29T10:49:53Z</time>
      </trkpt>
      <trkpt lat="43.66403" lon="3.79844">
        <ele>136.3</ele>
        <time>2016-04-29T10:49:56Z</time>
      </trkpt>
      <trkpt lat="43.66397" lon="3.79839">
        <ele>136.1</ele>
        <time>2016-04-29T10:49:58Z</time>
      </trkpt>
      <trkpt lat="43.66391" lon="3.79832">
        <ele>136</ele>
        <time>2016-04-29T10:50:00Z</time>
      </trkpt>
      <trkpt lat="43.66386" lon="3.79825">
        <ele>135.8</ele>
        <time>2016-04-29T10:50:02Z</time>
      </trkpt>
      <trkpt lat="43.6638" lon="3.79817">
        <ele>135.7</ele>
        <time>2016-04-29T10:50:04Z</time>
      </trkpt>
      <trkpt lat="43.66373" lon="3.79806">
        <ele>134.4</ele>
        <time>2016-04-29T10:50:06Z</time>
      </trkpt>
      <trkpt lat="43.66366" lon="3.79798">
        <ele>132.1</ele>
        <time>2016-04-29T10:50:08Z</time>
      </trkpt>
      <trkpt lat="43.66358" lon="3.79789">
        <ele>130.9</ele>
        <time>2016-04-29T10:50:10Z</time>
      </trkpt>
      <trkpt lat="43.66352" lon="3.79781">
        <ele>130</ele>
        <time>2016-04-29T10:50:12Z</time>
      </trkpt>
      <trkpt lat="43.66344" lon="3.79774">
        <ele>129</ele>
        <time>2016-04-29T10:50:14Z</time>
      </trkpt>
      <trkpt lat="43.66335" lon="3.79769">
        <ele>129.2</ele>
        <time>2016-04-29T10:50:16Z</time>
      </trkpt>
      <trkpt lat="43.66327" lon="3.79762">
        <ele>130.2</ele>
        <time>2016-04-29T10:50:18Z</time>
      </trkpt>
      <trkpt lat="43.6632" lon="3.79756">
        <ele>130.2</ele>
        <time>2016-04-29T10:50:20Z</time>
      </trkpt>
      <trkpt lat="43.66312" lon="3.79751">
        <ele>130.2</ele>
        <time>2016-04-29T10:50:23Z</time>
      </trkpt>
      <trkpt lat="43.66302" lon="3.79744">
        <ele>130.3</ele>
        <time>2016-04-29T10:50:26Z</time>
      </trkpt>
      <trkpt lat="43.66294" lon="3.79738">
        <ele>131.2</ele>
        <time>2016-04-29T10:50:28Z</time>
      </trkpt>
      <trkpt lat="43.66285" lon="3.79732">
        <ele>131.5</ele>
        <time>2016-04-29T10:50:30Z</time>
      </trkpt>
      <trkpt lat="43.66274" lon="3.79723">
        <ele>131.1</ele>
        <time>2016-04-29T10:50:32Z</time>
      </trkpt>
      <trkpt lat="43.66266" lon="3.79717">
        <ele>131.5</ele>
        <time>2016-04-29T10:50:34Z</time>
      </trkpt>
      <trkpt lat="43.66255" lon="3.79709">
        <ele>131.8</ele>
        <time>2016-04-29T10:50:36Z</time>
      </trkpt>
      <trkpt lat="43.66246" lon="3.79702">
        <ele>131.3</ele>
        <time>2016-04-29T10:50:38Z</time>
      </trkpt>
      <trkpt lat="43.66236" lon="3.79696">
        <ele>131</ele>
        <time>2016-04-29T10:50:40Z</time>
      </trkpt>
      <trkpt lat="43.66229" lon="3.79687">
        <ele>131.5</ele>
        <time>2016-04-29T10:50:42Z</time>
      </trkpt>
      <trkpt lat="43.6622" lon="3.79681">
        <ele>132.2</ele>
        <time>2016-04-29T10:50:44Z</time>
      </trkpt>
      <trkpt lat="43.66212" lon="3.79675">
        <ele>133</ele>
        <time>2016-04-29T10:50:46Z</time>
      </trkpt>
      <trkpt lat="43.66206" lon="3.79667">
        <ele>133.3</ele>
        <time>2016-04-29T10:50:48Z</time>
      </trkpt>
      <trkpt lat="43.66198" lon="3.7966">
        <ele>133.6</ele>
        <time>2016-04-29T10:50:50Z</time>
      </trkpt>
      <trkpt lat="43.66189" lon="3.7965">
        <ele>133.7</ele>
        <time>2016-04-29T10:50:52Z</time>
      </trkpt>
      <trkpt lat="43.6618" lon="3.79641">
        <ele>133.5</ele>
        <time>2016-04-29T10:50:54Z</time>
      </trkpt>
      <trkpt lat="43.66171" lon="3.79633">
        <ele>133.5</ele>
        <time>2016-04-29T10:50:56Z</time>
      </trkpt>
      <trkpt lat="43.66161" lon="3.79624">
        <ele>134</ele>
        <time>2016-04-29T10:50:58Z</time>
      </trkpt>
      <trkpt lat="43.66152" lon="3.79617">
        <ele>133.2</ele>
        <time>2016-04-29T10:51:00Z</time>
      </trkpt>
      <trkpt lat="43.66143" lon="3.79609">
        <ele>132.3</ele>
        <time>2016-04-29T10:51:02Z</time>
      </trkpt>
      <trkpt lat="43.66138" lon="3.79594">
        <ele>131.6</ele>
        <time>2016-04-29T10:51:04Z</time>
      </trkpt>
      <trkpt lat="43.66135" lon="3.79581">
        <ele>130.6</ele>
        <time>2016-04-29T10:51:06Z</time>
      </trkpt>
      <trkpt lat="43.66132" lon="3.79563">
        <ele>128.6</ele>
        <time>2016-04-29T10:51:08Z</time>
      </trkpt>
      <trkpt lat="43.66129" lon="3.79547">
        <ele>128.9</ele>
        <time>2016-04-29T10:51:10Z</time>
      </trkpt>
      <trkpt lat="43.66125" lon="3.79532">
        <ele>129</ele>
        <time>2016-04-29T10:51:12Z</time>
      </trkpt>
      <trkpt lat="43.6612" lon="3.79518">
        <ele>128.4</ele>
        <time>2016-04-29T10:51:14Z</time>
      </trkpt>
      <trkpt lat="43.66115" lon="3.79507">
        <ele>127.1</ele>
        <time>2016-04-29T10:51:16Z</time>
      </trkpt>
      <trkpt lat="43.66107" lon="3.79499">
        <ele>125.7</ele>
        <time>2016-04-29T10:51:18Z</time>
      </trkpt>
      <trkpt lat="43.66099" lon="3.79492">
        <ele>125.5</ele>
        <time>2016-04-29T10:51:20Z</time>
      </trkpt>
      <trkpt lat="43.66091" lon="3.79484">
        <ele>125.4</ele>
        <time>2016-04-29T10:51:23Z</time>
      </trkpt>
      <trkpt lat="43.66082" lon="3.79478">
        <ele>125.1</ele>
        <time>2016-04-29T10:51:26Z</time>
      </trkpt>
      <trkpt lat="43.66074" lon="3.79471">
        <ele>124.8</ele>
        <time>2016-04-29T10:51:29Z</time>
      </trkpt>
      <trkpt lat="43.66065" lon="3.79465">
        <ele>125.1</ele>
        <time>2016-04-29T10:51:34Z</time>
      </trkpt>
      <trkpt lat="43.66056" lon="3.79459">
        <ele>125.2</ele>
        <time>2016-04-29T10:51:37Z</time>
      </trkpt>
      <trkpt lat="43.66048" lon="3.79452">
        <ele>125.3</ele>
        <time>2016-04-29T10:51:40Z</time>
      </trkpt>
      <trkpt lat="43.66041" lon="3.79444">
        <ele>125.5</ele>
        <time>2016-04-29T10:51:43Z</time>
      </trkpt>
      <trkpt lat="43.66035" lon="3.79434">
        <ele>125.7</ele>
        <time>2016-04-29T10:51:46Z</time>
      </trkpt>
      <trkpt lat="43.66033" lon="3.79424">
        <ele>125.7</ele>
        <time>2016-04-29T10:51:48Z</time>
      </trkpt>
      <trkpt lat="43.66033" lon="3.79414">
        <ele>125.8</ele>
        <time>2016-04-29T10:51:50Z</time>
      </trkpt>
      <trkpt lat="43.66032" lon="3.79401">
        <ele>125.8</ele>
        <time>2016-04-29T10:51:53Z</time>
      </trkpt>
      <trkpt lat="43.66033" lon="3.79391">
        <ele>126</ele>
        <time>2016-04-29T10:51:59Z</time>
      </trkpt>
      <trkpt lat="43.6603" lon="3.7938">
        <ele>126</ele>
        <time>2016-04-29T10:52:01Z</time>
      </trkpt>
      <trkpt lat="43.66023" lon="3.79374">
        <ele>126.2</ele>
        <time>2016-04-29T10:52:07Z</time>
      </trkpt>
      <trkpt lat="43.66017" lon="3.79366">
        <ele>126.1</ele>
        <time>2016-04-29T10:52:10Z</time>
      </trkpt>
      <trkpt lat="43.66009" lon="3.79362">
        <ele>126.2</ele>
        <time>2016-04-29T10:52:14Z</time>
      </trkpt>
      <trkpt lat="43.66001" lon="3.7936">
        <ele>126.3</ele>
        <time>2016-04-29T10:52:18Z</time>
      </trkpt>
      <trkpt lat="43.65991" lon="3.79356">
        <ele>126.5</ele>
        <time>2016-04-29T10:52:22Z</time>
      </trkpt>
      <trkpt lat="43.65984" lon="3.79353">
        <ele>126.7</ele>
        <time>2016-04-29T10:52:25Z</time>
      </trkpt>
      <trkpt lat="43.65976" lon="3.79348">
        <ele>127.1</ele>
        <time>2016-04-29T10:52:29Z</time>
      </trkpt>
      <trkpt lat="43.65966" lon="3.79345">
        <ele>127.3</ele>
        <time>2016-04-29T10:52:32Z</time>
      </trkpt>
      <trkpt lat="43.65957" lon="3.79343">
        <ele>127.5</ele>
        <time>2016-04-29T10:52:35Z</time>
      </trkpt>
      <trkpt lat="43.65948" lon="3.79343">
        <ele>127.8</ele>
        <time>2016-04-29T10:52:38Z</time>
      </trkpt>
      <trkpt lat="43.6594" lon="3.79341">
        <ele>127.7</ele>
        <time>2016-04-29T10:52:41Z</time>
      </trkpt>
      <trkpt lat="43.6593" lon="3.7934">
        <ele>127.7</ele>
        <time>2016-04-29T10:52:44Z</time>
      </trkpt>
      <trkpt lat="43.65923" lon="3.79341">
        <ele>127.8</ele>
        <time>2016-04-29T10:52:47Z</time>
      </trkpt>
      <trkpt lat="43.65914" lon="3.79345">
        <ele>127.7</ele>
        <time>2016-04-29T10:52:50Z</time>
      </trkpt>
      <trkpt lat="43.65905" lon="3.7935">
        <ele>127.7</ele>
        <time>2016-04-29T10:52:53Z</time>
      </trkpt>
      <trkpt lat="43.65898" lon="3.79356">
        <ele>128.1</ele>
        <time>2016-04-29T10:52:56Z</time>
      </trkpt>
      <trkpt lat="43.65891" lon="3.79363">
        <ele>129.6</ele>
        <time>2016-04-29T10:52:59Z</time>
      </trkpt>
      <trkpt lat="43.65884" lon="3.79366">
        <ele>130.4</ele>
        <time>2016-04-29T10:53:01Z</time>
      </trkpt>
      <trkpt lat="43.65877" lon="3.79372">
        <ele>131</ele>
        <time>2016-04-29T10:53:03Z</time>
      </trkpt>
      <trkpt lat="43.65871" lon="3.79379">
        <ele>131</ele>
        <time>2016-04-29T10:53:05Z</time>
      </trkpt>
      <trkpt lat="43.65863" lon="3.79388">
        <ele>130.9</ele>
        <time>2016-04-29T10:53:08Z</time>
      </trkpt>
      <trkpt lat="43.65853" lon="3.79394">
        <ele>131.1</ele>
        <time>2016-04-29T10:53:11Z</time>
      </trkpt>
      <trkpt lat="43.65848" lon="3.79402">
        <ele>131.2</ele>
        <time>2016-04-29T10:53:14Z</time>
      </trkpt>
      <trkpt lat="43.65841" lon="3.79414">
        <ele>131.2</ele>
        <time>2016-04-29T10:53:17Z</time>
      </trkpt>
      <trkpt lat="43.65834" lon="3.79424">
        <ele>131.4</ele>
        <time>2016-04-29T10:53:20Z</time>
      </trkpt>
      <trkpt lat="43.65825" lon="3.79431">
        <ele>131.7</ele>
        <time>2016-04-29T10:53:23Z</time>
      </trkpt>
      <trkpt lat="43.65819" lon="3.79436">
        <ele>132</ele>
        <time>2016-04-29T10:53:26Z</time>
      </trkpt>
      <trkpt lat="43.65811" lon="3.79431">
        <ele>132.3</ele>
        <time>2016-04-29T10:53:29Z</time>
      </trkpt>
      <trkpt lat="43.65803" lon="3.79423">
        <ele>133.4</ele>
        <time>2016-04-29T10:53:31Z</time>
      </trkpt>
      <trkpt lat="43.65796" lon="3.79414">
        <ele>133.7</ele>
        <time>2016-04-29T10:53:33Z</time>
      </trkpt>
      <trkpt lat="43.65788" lon="3.79408">
        <ele>133.7</ele>
        <time>2016-04-29T10:53:35Z</time>
      </trkpt>
      <trkpt lat="43.65779" lon="3.79401">
        <ele>133.2</ele>
        <time>2016-04-29T10:53:37Z</time>
      </trkpt>
      <trkpt lat="43.65771" lon="3.79391">
        <ele>131.9</ele>
        <time>2016-04-29T10:53:39Z</time>
      </trkpt>
      <trkpt lat="43.65764" lon="3.79379">
        <ele>130.1</ele>
        <time>2016-04-29T10:53:41Z</time>
      </trkpt>
      <trkpt lat="43.65758" lon="3.79369">
        <ele>130.1</ele>
        <time>2016-04-29T10:53:44Z</time>
      </trkpt>
      <trkpt lat="43.65752" lon="3.79358">
        <ele>131</ele>
        <time>2016-04-29T10:53:46Z</time>
      </trkpt>
      <trkpt lat="43.65744" lon="3.79351">
        <ele>131.3</ele>
        <time>2016-04-29T10:53:48Z</time>
      </trkpt>
      <trkpt lat="43.65739" lon="3.79341">
        <ele>131.3</ele>
        <time>2016-04-29T10:53:51Z</time>
      </trkpt>
      <trkpt lat="43.65733" lon="3.79333">
        <ele>131.2</ele>
        <time>2016-04-29T10:53:54Z</time>
      </trkpt>
      <trkpt lat="43.65728" lon="3.79326">
        <ele>131.1</ele>
        <time>2016-04-29T10:53:56Z</time>
      </trkpt>
      <trkpt lat="43.65719" lon="3.79323">
        <ele>131.2</ele>
        <time>2016-04-29T10:54:00Z</time>
      </trkpt>
      <trkpt lat="43.65711" lon="3.79323">
        <ele>131.3</ele>
        <time>2016-04-29T10:54:03Z</time>
      </trkpt>
      <trkpt lat="43.65704" lon="3.79316">
        <ele>131.7</ele>
        <time>2016-04-29T10:54:06Z</time>
      </trkpt>
      <trkpt lat="43.65697" lon="3.79313">
        <ele>132.2</ele>
        <time>2016-04-29T10:54:09Z</time>
      </trkpt>
      <trkpt lat="43.6569" lon="3.79306">
        <ele>132.4</ele>
        <time>2016-04-29T10:54:12Z</time>
      </trkpt>
      <trkpt lat="43.65682" lon="3.79301">
        <ele>132.7</ele>
        <time>2016-04-29T10:54:14Z</time>
      </trkpt>
      <trkpt lat="43.65674" lon="3.79299">
        <ele>132.7</ele>
        <time>2016-04-29T10:54:16Z</time>
      </trkpt>
      <trkpt lat="43.65665" lon="3.79296">
        <ele>132.9</ele>
        <time>2016-04-29T10:54:18Z</time>
      </trkpt>
      <trkpt lat="43.65657" lon="3.79292">
        <ele>133.2</ele>
        <time>2016-04-29T10:54:20Z</time>
      </trkpt>
      <trkpt lat="43.65649" lon="3.7929">
        <ele>133.6</ele>
        <time>2016-04-29T10:54:23Z</time>
      </trkpt>
      <trkpt lat="43.65644" lon="3.79283">
        <ele>133.7</ele>
        <time>2016-04-29T10:54:25Z</time>
      </trkpt>
      <trkpt lat="43.65639" lon="3.79271">
        <ele>133.7</ele>
        <time>2016-04-29T10:54:27Z</time>
      </trkpt>
      <trkpt lat="43.65642" lon="3.7926">
        <ele>133.6</ele>
        <time>2016-04-29T10:54:29Z</time>
      </trkpt>
      <trkpt lat="43.65633" lon="3.79253">
        <ele>131.8</ele>
        <time>2016-04-29T10:54:33Z</time>
      </trkpt>
      <trkpt lat="43.65624" lon="3.79248">
        <ele>131.5</ele>
        <time>2016-04-29T10:54:35Z</time>
      </trkpt>
      <trkpt lat="43.65617" lon="3.79242">
        <ele>131.2</ele>
        <time>2016-04-29T10:54:38Z</time>
      </trkpt>
      <trkpt lat="43.65607" lon="3.79234">
        <ele>130.5</ele>
        <time>2016-04-29T10:54:40Z</time>
      </trkpt>
      <trkpt lat="43.65598" lon="3.79229">
        <ele>129.8</ele>
        <time>2016-04-29T10:54:42Z</time>
      </trkpt>
      <trkpt lat="43.65589" lon="3.79223">
        <ele>129.2</ele>
        <time>2016-04-29T10:54:44Z</time>
      </trkpt>
      <trkpt lat="43.65583" lon="3.79217">
        <ele>129.2</ele>
        <time>2016-04-29T10:54:46Z</time>
      </trkpt>
      <trkpt lat="43.65574" lon="3.79211">
        <ele>129.1</ele>
        <time>2016-04-29T10:54:48Z</time>
      </trkpt>
      <trkpt lat="43.65567" lon="3.79201">
        <ele>128.5</ele>
        <time>2016-04-29T10:54:50Z</time>
      </trkpt>
      <trkpt lat="43.65562" lon="3.79195">
        <ele>128.2</ele>
        <time>2016-04-29T10:54:52Z</time>
      </trkpt>
      <trkpt lat="43.65554" lon="3.79184">
        <ele>126.4</ele>
        <time>2016-04-29T10:54:54Z</time>
      </trkpt>
      <trkpt lat="43.65546" lon="3.79179">
        <ele>125.2</ele>
        <time>2016-04-29T10:54:56Z</time>
      </trkpt>
      <trkpt lat="43.6554" lon="3.79175">
        <ele>124.9</ele>
        <time>2016-04-29T10:54:59Z</time>
      </trkpt>
      <trkpt lat="43.65531" lon="3.79174">
        <ele>124.7</ele>
        <time>2016-04-29T10:55:04Z</time>
      </trkpt>
      <trkpt lat="43.65521" lon="3.79174">
        <ele>124.9</ele>
        <time>2016-04-29T10:55:10Z</time>
      </trkpt>
      <trkpt lat="43.65514" lon="3.7917">
        <ele>125.2</ele>
        <time>2016-04-29T10:55:14Z</time>
      </trkpt>
      <trkpt lat="43.65505" lon="3.79167">
        <ele>125.8</ele>
        <time>2016-04-29T10:55:18Z</time>
      </trkpt>
      <trkpt lat="43.65496" lon="3.79163">
        <ele>126.3</ele>
        <time>2016-04-29T10:55:21Z</time>
      </trkpt>
      <trkpt lat="43.65486" lon="3.79163">
        <ele>126.7</ele>
        <time>2016-04-29T10:55:25Z</time>
      </trkpt>
      <trkpt lat="43.65475" lon="3.79165">
        <ele>127</ele>
        <time>2016-04-29T10:55:28Z</time>
      </trkpt>
      <trkpt lat="43.65465" lon="3.79164">
        <ele>127.1</ele>
        <time>2016-04-29T10:55:31Z</time>
      </trkpt>
      <trkpt lat="43.65456" lon="3.7916">
        <ele>127.9</ele>
        <time>2016-04-29T10:55:33Z</time>
      </trkpt>
      <trkpt lat="43.65447" lon="3.7916">
        <ele>128.1</ele>
        <time>2016-04-29T10:55:35Z</time>
      </trkpt>
      <trkpt lat="43.65439" lon="3.79159">
        <ele>128.3</ele>
        <time>2016-04-29T10:55:37Z</time>
      </trkpt>
      <trkpt lat="43.65431" lon="3.79158">
        <ele>128.3</ele>
        <time>2016-04-29T10:55:39Z</time>
      </trkpt>
      <trkpt lat="43.65424" lon="3.79159">
        <ele>128.4</ele>
        <time>2016-04-29T10:55:41Z</time>
      </trkpt>
      <trkpt lat="43.65414" lon="3.79156">
        <ele>128.7</ele>
        <time>2016-04-29T10:55:43Z</time>
      </trkpt>
      <trkpt lat="43.65402" lon="3.79153">
        <ele>128.8</ele>
        <time>2016-04-29T10:55:46Z</time>
      </trkpt>
      <trkpt lat="43.65393" lon="3.79149">
        <ele>128.7</ele>
        <time>2016-04-29T10:55:48Z</time>
      </trkpt>
      <trkpt lat="43.65386" lon="3.79146">
        <ele>128.7</ele>
        <time>2016-04-29T10:55:50Z</time>
      </trkpt>
      <trkpt lat="43.65377" lon="3.79146">
        <ele>128.6</ele>
        <time>2016-04-29T10:55:53Z</time>
      </trkpt>
      <trkpt lat="43.65368" lon="3.79146">
        <ele>128.5</ele>
        <time>2016-04-29T10:55:56Z</time>
      </trkpt>
      <trkpt lat="43.65361" lon="3.79143">
        <ele>128.4</ele>
        <time>2016-04-29T10:55:58Z</time>
      </trkpt>
      <trkpt lat="43.65353" lon="3.79143">
        <ele>128.4</ele>
        <time>2016-04-29T10:56:01Z</time>
      </trkpt>
      <trkpt lat="43.65342" lon="3.79141">
        <ele>128.5</ele>
        <time>2016-04-29T10:56:04Z</time>
      </trkpt>
      <trkpt lat="43.65332" lon="3.79136">
        <ele>128.8</ele>
        <time>2016-04-29T10:56:07Z</time>
      </trkpt>
      <trkpt lat="43.65324" lon="3.79131">
        <ele>129.1</ele>
        <time>2016-04-29T10:56:09Z</time>
      </trkpt>
      <trkpt lat="43.65313" lon="3.7912">
        <ele>129.9</ele>
        <time>2016-04-29T10:56:11Z</time>
      </trkpt>
      <trkpt lat="43.65306" lon="3.79116">
        <ele>130</ele>
        <time>2016-04-29T10:56:12Z</time>
      </trkpt>
      <trkpt lat="43.65299" lon="3.79113">
        <ele>130.5</ele>
        <time>2016-04-29T10:56:13Z</time>
      </trkpt>
      <trkpt lat="43.65292" lon="3.79112">
        <ele>130.5</ele>
        <time>2016-04-29T10:56:14Z</time>
      </trkpt>
      <trkpt lat="43.65277" lon="3.79114">
        <ele>129.8</ele>
        <time>2016-04-29T10:56:17Z</time>
      </trkpt>
      <trkpt lat="43.65264" lon="3.79113">
        <ele>129.1</ele>
        <time>2016-04-29T10:56:18Z</time>
      </trkpt>
      <trkpt lat="43.65258" lon="3.79106">
        <ele>128.8</ele>
        <time>2016-04-29T10:56:19Z</time>
      </trkpt>
      <trkpt lat="43.65252" lon="3.79098">
        <ele>128.3</ele>
        <time>2016-04-29T10:56:20Z</time>
      </trkpt>
      <trkpt lat="43.65246" lon="3.79092">
        <ele>127.1</ele>
        <time>2016-04-29T10:56:21Z</time>
      </trkpt>
      <trkpt lat="43.65239" lon="3.79088">
        <ele>126</ele>
        <time>2016-04-29T10:56:22Z</time>
      </trkpt>
      <trkpt lat="43.65231" lon="3.79083">
        <ele>124.5</ele>
        <time>2016-04-29T10:56:23Z</time>
      </trkpt>
      <trkpt lat="43.65223" lon="3.79081">
        <ele>124</ele>
        <time>2016-04-29T10:56:24Z</time>
      </trkpt>
      <trkpt lat="43.65211" lon="3.79078">
        <ele>122.6</ele>
        <time>2016-04-29T10:56:26Z</time>
      </trkpt>
      <trkpt lat="43.65202" lon="3.79074">
        <ele>122.2</ele>
        <time>2016-04-29T10:56:28Z</time>
      </trkpt>
      <trkpt lat="43.65197" lon="3.79066">
        <ele>121.9</ele>
        <time>2016-04-29T10:56:30Z</time>
      </trkpt>
      <trkpt lat="43.65194" lon="3.79054">
        <ele>121.5</ele>
        <time>2016-04-29T10:56:33Z</time>
      </trkpt>
      <trkpt lat="43.65185" lon="3.79055">
        <ele>121</ele>
        <time>2016-04-29T10:56:37Z</time>
      </trkpt>
      <trkpt lat="43.65176" lon="3.79056">
        <ele>120.4</ele>
        <time>2016-04-29T10:56:40Z</time>
      </trkpt>
      <trkpt lat="43.65168" lon="3.79058">
        <ele>120.1</ele>
        <time>2016-04-29T10:56:42Z</time>
      </trkpt>
      <trkpt lat="43.65159" lon="3.79057">
        <ele>118.6</ele>
        <time>2016-04-29T10:56:44Z</time>
      </trkpt>
      <trkpt lat="43.65151" lon="3.79057">
        <ele>117.5</ele>
        <time>2016-04-29T10:56:46Z</time>
      </trkpt>
      <trkpt lat="43.65143" lon="3.79057">
        <ele>116.5</ele>
        <time>2016-04-29T10:56:48Z</time>
      </trkpt>
      <trkpt lat="43.65135" lon="3.79057">
        <ele>115.8</ele>
        <time>2016-04-29T10:56:50Z</time>
      </trkpt>
      <trkpt lat="43.65128" lon="3.79058">
        <ele>115.9</ele>
        <time>2016-04-29T10:56:52Z</time>
      </trkpt>
      <trkpt lat="43.65121" lon="3.79061">
        <ele>115.9</ele>
        <time>2016-04-29T10:56:54Z</time>
      </trkpt>
      <trkpt lat="43.65113" lon="3.79067">
        <ele>115.3</ele>
        <time>2016-04-29T10:56:56Z</time>
      </trkpt>
      <trkpt lat="43.65103" lon="3.79072">
        <ele>114.2</ele>
        <time>2016-04-29T10:56:59Z</time>
      </trkpt>
      <trkpt lat="43.65095" lon="3.79078">
        <ele>113.9</ele>
        <time>2016-04-29T10:57:01Z</time>
      </trkpt>
      <trkpt lat="43.65087" lon="3.79082">
        <ele>113.9</ele>
        <time>2016-04-29T10:57:03Z</time>
      </trkpt>
      <trkpt lat="43.6508" lon="3.79085">
        <ele>113.7</ele>
        <time>2016-04-29T10:57:05Z</time>
      </trkpt>
      <trkpt lat="43.65072" lon="3.7908">
        <ele>113.6</ele>
        <time>2016-04-29T10:57:07Z</time>
      </trkpt>
      <trkpt lat="43.65068" lon="3.79071">
        <ele>113.4</ele>
        <time>2016-04-29T10:57:10Z</time>
      </trkpt>
      <trkpt lat="43.65074" lon="3.79058">
        <ele>111.9</ele>
        <time>2016-04-29T10:57:12Z</time>
      </trkpt>
      <trkpt lat="43.65081" lon="3.79046">
        <ele>111.4</ele>
        <time>2016-04-29T10:57:14Z</time>
      </trkpt>
      <trkpt lat="43.65088" lon="3.79035">
        <ele>111.2</ele>
        <time>2016-04-29T10:57:16Z</time>
      </trkpt>
      <trkpt lat="43.65091" lon="3.79022">
        <ele>110.9</ele>
        <time>2016-04-29T10:57:18Z</time>
      </trkpt>
      <trkpt lat="43.65092" lon="3.79009">
        <ele>110.9</ele>
        <time>2016-04-29T10:57:20Z</time>
      </trkpt>
      <trkpt lat="43.65091" lon="3.78996">
        <ele>110.3</ele>
        <time>2016-04-29T10:57:22Z</time>
      </trkpt>
      <trkpt lat="43.65088" lon="3.7898">
        <ele>109.7</ele>
        <time>2016-04-29T10:57:24Z</time>
      </trkpt>
      <trkpt lat="43.65084" lon="3.78964">
        <ele>107.3</ele>
        <time>2016-04-29T10:57:26Z</time>
      </trkpt>
      <trkpt lat="43.65079" lon="3.78943">
        <ele>108.6</ele>
        <time>2016-04-29T10:57:30Z</time>
      </trkpt>
      <trkpt lat="43.65076" lon="3.78931">
        <ele>109.5</ele>
        <time>2016-04-29T10:57:31Z</time>
      </trkpt>
      <trkpt lat="43.65072" lon="3.78919">
        <ele>110</ele>
        <time>2016-04-29T10:57:33Z</time>
      </trkpt>
      <trkpt lat="43.65068" lon="3.7891">
        <ele>109.6</ele>
        <time>2016-04-29T10:57:35Z</time>
      </trkpt>
      <trkpt lat="43.65063" lon="3.789">
        <ele>110.6</ele>
        <time>2016-04-29T10:57:37Z</time>
      </trkpt>
      <trkpt lat="43.65056" lon="3.78907">
        <ele>110.1</ele>
        <time>2016-04-29T10:57:39Z</time>
      </trkpt>
      <trkpt lat="43.65047" lon="3.78912">
        <ele>107.7</ele>
        <time>2016-04-29T10:57:41Z</time>
      </trkpt>
      <trkpt lat="43.6504" lon="3.7892">
        <ele>106.3</ele>
        <time>2016-04-29T10:57:43Z</time>
      </trkpt>
      <trkpt lat="43.65037" lon="3.78933">
        <ele>106.2</ele>
        <time>2016-04-29T10:57:45Z</time>
      </trkpt>
      <trkpt lat="43.65033" lon="3.78942">
        <ele>105.5</ele>
        <time>2016-04-29T10:57:47Z</time>
      </trkpt>
      <trkpt lat="43.65027" lon="3.78951">
        <ele>104.5</ele>
        <time>2016-04-29T10:57:49Z</time>
      </trkpt>
      <trkpt lat="43.6502" lon="3.78959">
        <ele>104.7</ele>
        <time>2016-04-29T10:57:51Z</time>
      </trkpt>
      <trkpt lat="43.65013" lon="3.78965">
        <ele>104.5</ele>
        <time>2016-04-29T10:57:53Z</time>
      </trkpt>
      <trkpt lat="43.65004" lon="3.78973">
        <ele>104.6</ele>
        <time>2016-04-29T10:57:55Z</time>
      </trkpt>
      <trkpt lat="43.64994" lon="3.78981">
        <ele>106.9</ele>
        <time>2016-04-29T10:57:57Z</time>
      </trkpt>
      <trkpt lat="43.64987" lon="3.78986">
        <ele>106.9</ele>
        <time>2016-04-29T10:57:59Z</time>
      </trkpt>
      <trkpt lat="43.6498" lon="3.78992">
        <ele>106.9</ele>
        <time>2016-04-29T10:58:01Z</time>
      </trkpt>
      <trkpt lat="43.64969" lon="3.78999">
        <ele>107.6</ele>
        <time>2016-04-29T10:58:03Z</time>
      </trkpt>
      <trkpt lat="43.64958" lon="3.79007">
        <ele>108.5</ele>
        <time>2016-04-29T10:58:05Z</time>
      </trkpt>
      <trkpt lat="43.64948" lon="3.79014">
        <ele>108.7</ele>
        <time>2016-04-29T10:58:07Z</time>
      </trkpt>
      <trkpt lat="43.64939" lon="3.7902">
        <ele>107.9</ele>
        <time>2016-04-29T10:58:09Z</time>
      </trkpt>
      <trkpt lat="43.64931" lon="3.79027">
        <ele>107.2</ele>
        <time>2016-04-29T10:58:11Z</time>
      </trkpt>
      <trkpt lat="43.64923" lon="3.79035">
        <ele>106.8</ele>
        <time>2016-04-29T10:58:13Z</time>
      </trkpt>
      <trkpt lat="43.64915" lon="3.79041">
        <ele>107.1</ele>
        <time>2016-04-29T10:58:15Z</time>
      </trkpt>
      <trkpt lat="43.64907" lon="3.79047">
        <ele>107.3</ele>
        <time>2016-04-29T10:58:17Z</time>
      </trkpt>
      <trkpt lat="43.649" lon="3.79053">
        <ele>108.3</ele>
        <time>2016-04-29T10:58:19Z</time>
      </trkpt>
      <trkpt lat="43.64894" lon="3.79058">
        <ele>109.1</ele>
        <time>2016-04-29T10:58:21Z</time>
      </trkpt>
      <trkpt lat="43.64884" lon="3.79067">
        <ele>108.9</ele>
        <time>2016-04-29T10:58:24Z</time>
      </trkpt>
      <trkpt lat="43.64875" lon="3.79073">
        <ele>108.3</ele>
        <time>2016-04-29T10:58:26Z</time>
      </trkpt>
      <trkpt lat="43.64864" lon="3.7908">
        <ele>107.8</ele>
        <time>2016-04-29T10:58:28Z</time>
      </trkpt>
      <trkpt lat="43.64857" lon="3.79083">
        <ele>107.7</ele>
        <time>2016-04-29T10:58:30Z</time>
      </trkpt>
      <trkpt lat="43.64849" lon="3.79086">
        <ele>107.1</ele>
        <time>2016-04-29T10:58:32Z</time>
      </trkpt>
      <trkpt lat="43.64843" lon="3.79095">
        <ele>106.8</ele>
        <time>2016-04-29T10:58:35Z</time>
      </trkpt>
      <trkpt lat="43.64835" lon="3.79107">
        <ele>106.2</ele>
        <time>2016-04-29T10:58:38Z</time>
      </trkpt>
      <trkpt lat="43.64828" lon="3.79117">
        <ele>106.8</ele>
        <time>2016-04-29T10:58:40Z</time>
      </trkpt>
      <trkpt lat="43.64819" lon="3.79122">
        <ele>106.9</ele>
        <time>2016-04-29T10:58:42Z</time>
      </trkpt>
      <trkpt lat="43.6481" lon="3.79128">
        <ele>107.2</ele>
        <time>2016-04-29T10:58:44Z</time>
      </trkpt>
      <trkpt lat="43.64802" lon="3.79134">
        <ele>107.2</ele>
        <time>2016-04-29T10:58:47Z</time>
      </trkpt>
      <trkpt lat="43.64792" lon="3.79141">
        <ele>107.1</ele>
        <time>2016-04-29T10:58:50Z</time>
      </trkpt>
      <trkpt lat="43.64785" lon="3.79148">
        <ele>107</ele>
        <time>2016-04-29T10:58:53Z</time>
      </trkpt>
      <trkpt lat="43.64777" lon="3.79153">
        <ele>107.1</ele>
        <time>2016-04-29T10:58:56Z</time>
      </trkpt>
      <trkpt lat="43.6477" lon="3.79157">
        <ele>107.4</ele>
        <time>2016-04-29T10:59:00Z</time>
      </trkpt>
      <trkpt lat="43.64763" lon="3.79165">
        <ele>109.7</ele>
        <time>2016-04-29T10:59:03Z</time>
      </trkpt>
      <trkpt lat="43.64755" lon="3.79173">
        <ele>110.2</ele>
        <time>2016-04-29T10:59:06Z</time>
      </trkpt>
      <trkpt lat="43.64747" lon="3.79179">
        <ele>110.4</ele>
        <time>2016-04-29T10:59:08Z</time>
      </trkpt>
      <trkpt lat="43.64741" lon="3.79185">
        <ele>110.5</ele>
        <time>2016-04-29T10:59:10Z</time>
      </trkpt>
      <trkpt lat="43.64732" lon="3.7919">
        <ele>110.4</ele>
        <time>2016-04-29T10:59:12Z</time>
      </trkpt>
      <trkpt lat="43.64722" lon="3.79196">
        <ele>110.5</ele>
        <time>2016-04-29T10:59:15Z</time>
      </trkpt>
      <trkpt lat="43.64715" lon="3.792">
        <ele>110.7</ele>
        <time>2016-04-29T10:59:17Z</time>
      </trkpt>
      <trkpt lat="43.64707" lon="3.79204">
        <ele>111.1</ele>
        <time>2016-04-29T10:59:20Z</time>
      </trkpt>
      <trkpt lat="43.647" lon="3.79211">
        <ele>111.7</ele>
        <time>2016-04-29T10:59:24Z</time>
      </trkpt>
      <trkpt lat="43.64697" lon="3.79226">
        <ele>112.2</ele>
        <time>2016-04-29T10:59:27Z</time>
      </trkpt>
      <trkpt lat="43.64703" lon="3.79244">
        <ele>110.5</ele>
        <time>2016-04-29T10:59:29Z</time>
      </trkpt>
      <trkpt lat="43.64704" lon="3.79254">
        <ele>109.9</ele>
        <time>2016-04-29T10:59:30Z</time>
      </trkpt>
      <trkpt lat="43.64705" lon="3.79268">
        <ele>108.9</ele>
        <time>2016-04-29T10:59:32Z</time>
      </trkpt>
      <trkpt lat="43.64696" lon="3.79282">
        <ele>106.5</ele>
        <time>2016-04-29T10:59:34Z</time>
      </trkpt>
      <trkpt lat="43.64686" lon="3.79285">
        <ele>106.2</ele>
        <time>2016-04-29T10:59:36Z</time>
      </trkpt>
      <trkpt lat="43.64675" lon="3.79285">
        <ele>106.2</ele>
        <time>2016-04-29T10:59:39Z</time>
      </trkpt>
      <trkpt lat="43.64671" lon="3.79295">
        <ele>106.6</ele>
        <time>2016-04-29T10:59:45Z</time>
      </trkpt>
      <trkpt lat="43.64671" lon="3.79308">
        <ele>107.2</ele>
        <time>2016-04-29T10:59:48Z</time>
      </trkpt>
      <trkpt lat="43.64673" lon="3.79321">
        <ele>107.9</ele>
        <time>2016-04-29T10:59:51Z</time>
      </trkpt>
      <trkpt lat="43.64674" lon="3.79334">
        <ele>108.2</ele>
        <time>2016-04-29T10:59:53Z</time>
      </trkpt>
      <trkpt lat="43.64672" lon="3.79345">
        <ele>108.7</ele>
        <time>2016-04-29T10:59:55Z</time>
      </trkpt>
      <trkpt lat="43.64669" lon="3.79357">
        <ele>110.5</ele>
        <time>2016-04-29T10:59:57Z</time>
      </trkpt>
      <trkpt lat="43.64665" lon="3.79373">
        <ele>112.6</ele>
        <time>2016-04-29T10:59:59Z</time>
      </trkpt>
      <trkpt lat="43.64654" lon="3.79393">
        <ele>114.1</ele>
        <time>2016-04-29T11:00:01Z</time>
      </trkpt>
      <trkpt lat="43.64648" lon="3.79401">
        <ele>115.3</ele>
        <time>2016-04-29T11:00:02Z</time>
      </trkpt>
      <trkpt lat="43.64638" lon="3.79412">
        <ele>116.6</ele>
        <time>2016-04-29T11:00:04Z</time>
      </trkpt>
      <trkpt lat="43.64628" lon="3.79421">
        <ele>115.6</ele>
        <time>2016-04-29T11:00:06Z</time>
      </trkpt>
      <trkpt lat="43.6462" lon="3.7943">
        <ele>114.6</ele>
        <time>2016-04-29T11:00:08Z</time>
      </trkpt>
      <trkpt lat="43.64615" lon="3.7944">
        <ele>113.7</ele>
        <time>2016-04-29T11:00:10Z</time>
      </trkpt>
      <trkpt lat="43.64608" lon="3.7945">
        <ele>113.1</ele>
        <time>2016-04-29T11:00:14Z</time>
      </trkpt>
      <trkpt lat="43.64605" lon="3.79461">
        <ele>112.1</ele>
        <time>2016-04-29T11:00:20Z</time>
      </trkpt>
      <trkpt lat="43.64605" lon="3.79471">
        <ele>111.5</ele>
        <time>2016-04-29T11:00:23Z</time>
      </trkpt>
      <trkpt lat="43.64601" lon="3.79482">
        <ele>111</ele>
        <time>2016-04-29T11:00:26Z</time>
      </trkpt>
      <trkpt lat="43.64596" lon="3.79491">
        <ele>110.7</ele>
        <time>2016-04-29T11:00:28Z</time>
      </trkpt>
      <trkpt lat="43.64592" lon="3.79499">
        <ele>110.3</ele>
        <time>2016-04-29T11:00:30Z</time>
      </trkpt>
      <trkpt lat="43.64588" lon="3.7951">
        <ele>110</ele>
        <time>2016-04-29T11:00:32Z</time>
      </trkpt>
      <trkpt lat="43.64584" lon="3.79521">
        <ele>109.8</ele>
        <time>2016-04-29T11:00:34Z</time>
      </trkpt>
      <trkpt lat="43.64581" lon="3.79532">
        <ele>109.5</ele>
        <time>2016-04-29T11:00:36Z</time>
      </trkpt>
      <trkpt lat="43.64578" lon="3.79543">
        <ele>109.2</ele>
        <time>2016-04-29T11:00:38Z</time>
      </trkpt>
      <trkpt lat="43.64576" lon="3.79554">
        <ele>108.8</ele>
        <time>2016-04-29T11:00:40Z</time>
      </trkpt>
      <trkpt lat="43.64573" lon="3.79567">
        <ele>105.2</ele>
        <time>2016-04-29T11:00:42Z</time>
      </trkpt>
      <trkpt lat="43.6457" lon="3.7958">
        <ele>103.6</ele>
        <time>2016-04-29T11:00:44Z</time>
      </trkpt>
      <trkpt lat="43.64568" lon="3.79593">
        <ele>103.7</ele>
        <time>2016-04-29T11:00:46Z</time>
      </trkpt>
      <trkpt lat="43.64565" lon="3.79603">
        <ele>103.7</ele>
        <time>2016-04-29T11:00:48Z</time>
      </trkpt>
      <trkpt lat="43.64562" lon="3.79613">
        <ele>103.8</ele>
        <time>2016-04-29T11:00:50Z</time>
      </trkpt>
      <trkpt lat="43.64558" lon="3.79622">
        <ele>103.8</ele>
        <time>2016-04-29T11:00:52Z</time>
      </trkpt>
      <trkpt lat="43.64554" lon="3.79635">
        <ele>103.9</ele>
        <time>2016-04-29T11:00:55Z</time>
      </trkpt>
      <trkpt lat="43.64548" lon="3.79646">
        <ele>104.1</ele>
        <time>2016-04-29T11:00:57Z</time>
      </trkpt>
      <trkpt lat="43.64544" lon="3.79661">
        <ele>104.4</ele>
        <time>2016-04-29T11:00:59Z</time>
      </trkpt>
      <trkpt lat="43.64539" lon="3.79675">
        <ele>104.9</ele>
        <time>2016-04-29T11:01:02Z</time>
      </trkpt>
      <trkpt lat="43.64531" lon="3.79683">
        <ele>106.6</ele>
        <time>2016-04-29T11:01:04Z</time>
      </trkpt>
      <trkpt lat="43.64524" lon="3.79694">
        <ele>108</ele>
        <time>2016-04-29T11:01:06Z</time>
      </trkpt>
      <trkpt lat="43.64519" lon="3.79703">
        <ele>108.1</ele>
        <time>2016-04-29T11:01:08Z</time>
      </trkpt>
      <trkpt lat="43.64515" lon="3.79713">
        <ele>108.2</ele>
        <time>2016-04-29T11:01:10Z</time>
      </trkpt>
      <trkpt lat="43.64511" lon="3.79725">
        <ele>108.5</ele>
        <time>2016-04-29T11:01:12Z</time>
      </trkpt>
      <trkpt lat="43.64506" lon="3.79734">
        <ele>108.6</ele>
        <time>2016-04-29T11:01:14Z</time>
      </trkpt>
      <trkpt lat="43.64498" lon="3.79748">
        <ele>108.5</ele>
        <time>2016-04-29T11:01:17Z</time>
      </trkpt>
      <trkpt lat="43.64492" lon="3.79759">
        <ele>108.3</ele>
        <time>2016-04-29T11:01:19Z</time>
      </trkpt>
      <trkpt lat="43.64484" lon="3.79766">
        <ele>108.2</ele>
        <time>2016-04-29T11:01:21Z</time>
      </trkpt>
      <trkpt lat="43.64473" lon="3.79771">
        <ele>108.1</ele>
        <time>2016-04-29T11:01:23Z</time>
      </trkpt>
      <trkpt lat="43.64466" lon="3.79778">
        <ele>107.9</ele>
        <time>2016-04-29T11:01:25Z</time>
      </trkpt>
      <trkpt lat="43.6446" lon="3.79787">
        <ele>107.6</ele>
        <time>2016-04-29T11:01:28Z</time>
      </trkpt>
      <trkpt lat="43.6445" lon="3.79791">
        <ele>107.5</ele>
        <time>2016-04-29T11:01:31Z</time>
      </trkpt>
      <trkpt lat="43.6444" lon="3.79794">
        <ele>108.4</ele>
        <time>2016-04-29T11:01:33Z</time>
      </trkpt>
      <trkpt lat="43.64429" lon="3.79796">
        <ele>109.7</ele>
        <time>2016-04-29T11:01:35Z</time>
      </trkpt>
      <trkpt lat="43.64417" lon="3.79795">
        <ele>111</ele>
        <time>2016-04-29T11:01:37Z</time>
      </trkpt>
      <trkpt lat="43.64405" lon="3.79791">
        <ele>110.4</ele>
        <time>2016-04-29T11:01:39Z</time>
      </trkpt>
      <trkpt lat="43.64395" lon="3.79787">
        <ele>110.4</ele>
        <time>2016-04-29T11:01:41Z</time>
      </trkpt>
      <trkpt lat="43.64386" lon="3.79785">
        <ele>109.6</ele>
        <time>2016-04-29T11:01:43Z</time>
      </trkpt>
      <trkpt lat="43.64376" lon="3.79786">
        <ele>109.5</ele>
        <time>2016-04-29T11:01:45Z</time>
      </trkpt>
      <trkpt lat="43.64365" lon="3.7979">
        <ele>109.3</ele>
        <time>2016-04-29T11:01:47Z</time>
      </trkpt>
      <trkpt lat="43.64354" lon="3.79793">
        <ele>108</ele>
        <time>2016-04-29T11:01:49Z</time>
      </trkpt>
      <trkpt lat="43.64343" lon="3.79797">
        <ele>106</ele>
        <time>2016-04-29T11:01:51Z</time>
      </trkpt>
      <trkpt lat="43.64334" lon="3.798">
        <ele>104.6</ele>
        <time>2016-04-29T11:01:53Z</time>
      </trkpt>
      <trkpt lat="43.64323" lon="3.79806">
        <ele>104.8</ele>
        <time>2016-04-29T11:01:55Z</time>
      </trkpt>
      <trkpt lat="43.64314" lon="3.79813">
        <ele>104.7</ele>
        <time>2016-04-29T11:01:57Z</time>
      </trkpt>
      <trkpt lat="43.64305" lon="3.79817">
        <ele>104.4</ele>
        <time>2016-04-29T11:01:59Z</time>
      </trkpt>
      <trkpt lat="43.64295" lon="3.79823">
        <ele>104.2</ele>
        <time>2016-04-29T11:02:02Z</time>
      </trkpt>
      <trkpt lat="43.64284" lon="3.79827">
        <ele>104.9</ele>
        <time>2016-04-29T11:02:04Z</time>
      </trkpt>
      <trkpt lat="43.64275" lon="3.79832">
        <ele>104.6</ele>
        <time>2016-04-29T11:02:06Z</time>
      </trkpt>
      <trkpt lat="43.64264" lon="3.79836">
        <ele>104.6</ele>
        <time>2016-04-29T11:02:08Z</time>
      </trkpt>
      <trkpt lat="43.64256" lon="3.7984">
        <ele>105.2</ele>
        <time>2016-04-29T11:02:10Z</time>
      </trkpt>
      <trkpt lat="43.64246" lon="3.79846">
        <ele>105.5</ele>
        <time>2016-04-29T11:02:12Z</time>
      </trkpt>
      <trkpt lat="43.64238" lon="3.79853">
        <ele>104.5</ele>
        <time>2016-04-29T11:02:14Z</time>
      </trkpt>
      <trkpt lat="43.6423" lon="3.79859">
        <ele>103.7</ele>
        <time>2016-04-29T11:02:16Z</time>
      </trkpt>
      <trkpt lat="43.64227" lon="3.79871">
        <ele>101.3</ele>
        <time>2016-04-29T11:02:19Z</time>
      </trkpt>
      <trkpt lat="43.64226" lon="3.79887">
        <ele>100.4</ele>
        <time>2016-04-29T11:02:21Z</time>
      </trkpt>
      <trkpt lat="43.64218" lon="3.79899">
        <ele>100.6</ele>
        <time>2016-04-29T11:02:23Z</time>
      </trkpt>
      <trkpt lat="43.64207" lon="3.79902">
        <ele>100.8</ele>
        <time>2016-04-29T11:02:25Z</time>
      </trkpt>
      <trkpt lat="43.64196" lon="3.799">
        <ele>101.7</ele>
        <time>2016-04-29T11:02:27Z</time>
      </trkpt>
      <trkpt lat="43.64188" lon="3.79903">
        <ele>100.9</ele>
        <time>2016-04-29T11:02:29Z</time>
      </trkpt>
      <trkpt lat="43.64179" lon="3.79908">
        <ele>100.7</ele>
        <time>2016-04-29T11:02:31Z</time>
      </trkpt>
      <trkpt lat="43.6417" lon="3.79915">
        <ele>101.7</ele>
        <time>2016-04-29T11:02:33Z</time>
      </trkpt>
      <trkpt lat="43.64161" lon="3.79921">
        <ele>102.2</ele>
        <time>2016-04-29T11:02:35Z</time>
      </trkpt>
      <trkpt lat="43.64151" lon="3.79927">
        <ele>101.5</ele>
        <time>2016-04-29T11:02:37Z</time>
      </trkpt>
      <trkpt lat="43.64144" lon="3.79934">
        <ele>99.8</ele>
        <time>2016-04-29T11:02:39Z</time>
      </trkpt>
      <trkpt lat="43.64135" lon="3.79941">
        <ele>98.2</ele>
        <time>2016-04-29T11:02:41Z</time>
      </trkpt>
      <trkpt lat="43.64127" lon="3.79949">
        <ele>99.7</ele>
        <time>2016-04-29T11:02:43Z</time>
      </trkpt>
      <trkpt lat="43.64117" lon="3.79954">
        <ele>101.3</ele>
        <time>2016-04-29T11:02:45Z</time>
      </trkpt>
      <trkpt lat="43.64108" lon="3.79959">
        <ele>100.9</ele>
        <time>2016-04-29T11:02:47Z</time>
      </trkpt>
      <trkpt lat="43.641" lon="3.79968">
        <ele>100.2</ele>
        <time>2016-04-29T11:02:49Z</time>
      </trkpt>
      <trkpt lat="43.64092" lon="3.79974">
        <ele>101.3</ele>
        <time>2016-04-29T11:02:51Z</time>
      </trkpt>
      <trkpt lat="43.64085" lon="3.7998">
        <ele>103.2</ele>
        <time>2016-04-29T11:02:53Z</time>
      </trkpt>
      <trkpt lat="43.64074" lon="3.79989">
        <ele>101.3</ele>
        <time>2016-04-29T11:02:55Z</time>
      </trkpt>
      <trkpt lat="43.64064" lon="3.79997">
        <ele>99.5</ele>
        <time>2016-04-29T11:02:57Z</time>
      </trkpt>
      <trkpt lat="43.64054" lon="3.80004">
        <ele>98.8</ele>
        <time>2016-04-29T11:02:59Z</time>
      </trkpt>
      <trkpt lat="43.64046" lon="3.8001">
        <ele>97.5</ele>
        <time>2016-04-29T11:03:01Z</time>
      </trkpt>
      <trkpt lat="43.64038" lon="3.80017">
        <ele>97.4</ele>
        <time>2016-04-29T11:03:03Z</time>
      </trkpt>
      <trkpt lat="43.64027" lon="3.80023">
        <ele>98</ele>
        <time>2016-04-29T11:03:05Z</time>
      </trkpt>
      <trkpt lat="43.64019" lon="3.8003">
        <ele>98.4</ele>
        <time>2016-04-29T11:03:07Z</time>
      </trkpt>
      <trkpt lat="43.64012" lon="3.80035">
        <ele>98.2</ele>
        <time>2016-04-29T11:03:09Z</time>
      </trkpt>
      <trkpt lat="43.64005" lon="3.8004">
        <ele>97.6</ele>
        <time>2016-04-29T11:03:11Z</time>
      </trkpt>
      <trkpt lat="43.63998" lon="3.80046">
        <ele>97.1</ele>
        <time>2016-04-29T11:03:13Z</time>
      </trkpt>
      <trkpt lat="43.63989" lon="3.80053">
        <ele>98.4</ele>
        <time>2016-04-29T11:03:15Z</time>
      </trkpt>
      <trkpt lat="43.6398" lon="3.80058">
        <ele>97.6</ele>
        <time>2016-04-29T11:03:17Z</time>
      </trkpt>
      <trkpt lat="43.63971" lon="3.80063">
        <ele>97.2</ele>
        <time>2016-04-29T11:03:19Z</time>
      </trkpt>
      <trkpt lat="43.63962" lon="3.80068">
        <ele>96.7</ele>
        <time>2016-04-29T11:03:21Z</time>
      </trkpt>
      <trkpt lat="43.63955" lon="3.80071">
        <ele>96.1</ele>
        <time>2016-04-29T11:03:23Z</time>
      </trkpt>
      <trkpt lat="43.63947" lon="3.80075">
        <ele>96.6</ele>
        <time>2016-04-29T11:03:25Z</time>
      </trkpt>
      <trkpt lat="43.6394" lon="3.8008">
        <ele>96.9</ele>
        <time>2016-04-29T11:03:27Z</time>
      </trkpt>
      <trkpt lat="43.63933" lon="3.80085">
        <ele>97.4</ele>
        <time>2016-04-29T11:03:29Z</time>
      </trkpt>
      <trkpt lat="43.63924" lon="3.80089">
        <ele>97.9</ele>
        <time>2016-04-29T11:03:31Z</time>
      </trkpt>
      <trkpt lat="43.63917" lon="3.80091">
        <ele>97.9</ele>
        <time>2016-04-29T11:03:33Z</time>
      </trkpt>
      <trkpt lat="43.6391" lon="3.80094">
        <ele>97.8</ele>
        <time>2016-04-29T11:03:35Z</time>
      </trkpt>
      <trkpt lat="43.63902" lon="3.801">
        <ele>97.1</ele>
        <time>2016-04-29T11:03:37Z</time>
      </trkpt>
      <trkpt lat="43.63895" lon="3.80103">
        <ele>97.1</ele>
        <time>2016-04-29T11:03:39Z</time>
      </trkpt>
      <trkpt lat="43.63887" lon="3.80107">
        <ele>97.3</ele>
        <time>2016-04-29T11:03:42Z</time>
      </trkpt>
      <trkpt lat="43.63877" lon="3.80113">
        <ele>97.5</ele>
        <time>2016-04-29T11:03:45Z</time>
      </trkpt>
      <trkpt lat="43.63872" lon="3.80122">
        <ele>97.6</ele>
        <time>2016-04-29T11:03:48Z</time>
      </trkpt>
      <trkpt lat="43.63866" lon="3.80132">
        <ele>97.8</ele>
        <time>2016-04-29T11:03:50Z</time>
      </trkpt>
      <trkpt lat="43.6386" lon="3.80144">
        <ele>98.1</ele>
        <time>2016-04-29T11:03:53Z</time>
      </trkpt>
      <trkpt lat="43.63853" lon="3.80151">
        <ele>98.3</ele>
        <time>2016-04-29T11:03:55Z</time>
      </trkpt>
      <trkpt lat="43.63848" lon="3.80158">
        <ele>98.5</ele>
        <time>2016-04-29T11:03:57Z</time>
      </trkpt>
      <trkpt lat="43.63839" lon="3.80167">
        <ele>98.7</ele>
        <time>2016-04-29T11:04:00Z</time>
      </trkpt>
      <trkpt lat="43.63836" lon="3.80177">
        <ele>98.8</ele>
        <time>2016-04-29T11:04:03Z</time>
      </trkpt>
      <trkpt lat="43.63835" lon="3.80189">
        <ele>99.1</ele>
        <time>2016-04-29T11:04:06Z</time>
      </trkpt>
      <trkpt lat="43.63834" lon="3.802">
        <ele>99.2</ele>
        <time>2016-04-29T11:04:09Z</time>
      </trkpt>
      <trkpt lat="43.63832" lon="3.80212">
        <ele>99.3</ele>
        <time>2016-04-29T11:04:12Z</time>
      </trkpt>
      <trkpt lat="43.63832" lon="3.80222">
        <ele>99.5</ele>
        <time>2016-04-29T11:04:14Z</time>
      </trkpt>
      <trkpt lat="43.63832" lon="3.80236">
        <ele>99.5</ele>
        <time>2016-04-29T11:04:17Z</time>
      </trkpt>
      <trkpt lat="43.6383" lon="3.80246">
        <ele>99.5</ele>
        <time>2016-04-29T11:04:19Z</time>
      </trkpt>
      <trkpt lat="43.6383" lon="3.80258">
        <ele>99.6</ele>
        <time>2016-04-29T11:04:22Z</time>
      </trkpt>
      <trkpt lat="43.63833" lon="3.80267">
        <ele>99.6</ele>
        <time>2016-04-29T11:04:25Z</time>
      </trkpt>
      <trkpt lat="43.63838" lon="3.80277">
        <ele>99.6</ele>
        <time>2016-04-29T11:04:28Z</time>
      </trkpt>
      <trkpt lat="43.63843" lon="3.80285">
        <ele>99.6</ele>
        <time>2016-04-29T11:04:30Z</time>
      </trkpt>
      <trkpt lat="43.63848" lon="3.80294">
        <ele>99.7</ele>
        <time>2016-04-29T11:04:33Z</time>
      </trkpt>
      <trkpt lat="43.63851" lon="3.80306">
        <ele>100.5</ele>
        <time>2016-04-29T11:04:35Z</time>
      </trkpt>
      <trkpt lat="43.63852" lon="3.80318">
        <ele>100.9</ele>
        <time>2016-04-29T11:04:37Z</time>
      </trkpt>
      <trkpt lat="43.63849" lon="3.80332">
        <ele>101</ele>
        <time>2016-04-29T11:04:40Z</time>
      </trkpt>
      <trkpt lat="43.63846" lon="3.80344">
        <ele>100.7</ele>
        <time>2016-04-29T11:04:42Z</time>
      </trkpt>
      <trkpt lat="43.63844" lon="3.80357">
        <ele>100.1</ele>
        <time>2016-04-29T11:04:44Z</time>
      </trkpt>
      <trkpt lat="43.63842" lon="3.80373">
        <ele>100.7</ele>
        <time>2016-04-29T11:04:46Z</time>
      </trkpt>
      <trkpt lat="43.63846" lon="3.80387">
        <ele>101.2</ele>
        <time>2016-04-29T11:04:48Z</time>
      </trkpt>
      <trkpt lat="43.63853" lon="3.80395">
        <ele>102.7</ele>
        <time>2016-04-29T11:04:50Z</time>
      </trkpt>
      <trkpt lat="43.6386" lon="3.80404">
        <ele>103.2</ele>
        <time>2016-04-29T11:04:52Z</time>
      </trkpt>
      <trkpt lat="43.63866" lon="3.80412">
        <ele>102.8</ele>
        <time>2016-04-29T11:04:54Z</time>
      </trkpt>
      <trkpt lat="43.63871" lon="3.8042">
        <ele>102.5</ele>
        <time>2016-04-29T11:04:56Z</time>
      </trkpt>
      <trkpt lat="43.63877" lon="3.80429">
        <ele>102.4</ele>
        <time>2016-04-29T11:04:58Z</time>
      </trkpt>
      <trkpt lat="43.63883" lon="3.80439">
        <ele>101.4</ele>
        <time>2016-04-29T11:05:00Z</time>
      </trkpt>
      <trkpt lat="43.63889" lon="3.80447">
        <ele>100.3</ele>
        <time>2016-04-29T11:05:02Z</time>
      </trkpt>
      <trkpt lat="43.63895" lon="3.80455">
        <ele>101.2</ele>
        <time>2016-04-29T11:05:04Z</time>
      </trkpt>
      <trkpt lat="43.63899" lon="3.80464">
        <ele>101.3</ele>
        <time>2016-04-29T11:05:06Z</time>
      </trkpt>
      <trkpt lat="43.63906" lon="3.80472">
        <ele>101.5</ele>
        <time>2016-04-29T11:05:09Z</time>
      </trkpt>
      <trkpt lat="43.63913" lon="3.80481">
        <ele>101.8</ele>
        <time>2016-04-29T11:05:12Z</time>
      </trkpt>
      <trkpt lat="43.63913" lon="3.80491">
        <ele>101.9</ele>
        <time>2016-04-29T11:05:14Z</time>
      </trkpt>
      <trkpt lat="43.63913" lon="3.80506">
        <ele>104</ele>
        <time>2016-04-29T11:05:16Z</time>
      </trkpt>
      <trkpt lat="43.63913" lon="3.80519">
        <ele>103.5</ele>
        <time>2016-04-29T11:05:18Z</time>
      </trkpt>
      <trkpt lat="43.63912" lon="3.80532">
        <ele>102.8</ele>
        <time>2016-04-29T11:05:20Z</time>
      </trkpt>
      <trkpt lat="43.63911" lon="3.80545">
        <ele>103.8</ele>
        <time>2016-04-29T11:05:22Z</time>
      </trkpt>
      <trkpt lat="43.6391" lon="3.80558">
        <ele>103.5</ele>
        <time>2016-04-29T11:05:24Z</time>
      </trkpt>
      <trkpt lat="43.63911" lon="3.80572">
        <ele>102.6</ele>
        <time>2016-04-29T11:05:26Z</time>
      </trkpt>
      <trkpt lat="43.63911" lon="3.80586">
        <ele>102.1</ele>
        <time>2016-04-29T11:05:28Z</time>
      </trkpt>
      <trkpt lat="43.63911" lon="3.80602">
        <ele>102.4</ele>
        <time>2016-04-29T11:05:30Z</time>
      </trkpt>
      <trkpt lat="43.63911" lon="3.80619">
        <ele>102.3</ele>
        <time>2016-04-29T11:05:32Z</time>
      </trkpt>
      <trkpt lat="43.63909" lon="3.80633">
        <ele>101.6</ele>
        <time>2016-04-29T11:05:34Z</time>
      </trkpt>
      <trkpt lat="43.6391" lon="3.80645">
        <ele>100.9</ele>
        <time>2016-04-29T11:05:36Z</time>
      </trkpt>
      <trkpt lat="43.63911" lon="3.80659">
        <ele>99.6</ele>
        <time>2016-04-29T11:05:38Z</time>
      </trkpt>
      <trkpt lat="43.63918" lon="3.80663">
        <ele>99.3</ele>
        <time>2016-04-29T11:05:43Z</time>
      </trkpt>
      <trkpt lat="43.63927" lon="3.80662">
        <ele>99.3</ele>
        <time>2016-04-29T11:05:47Z</time>
      </trkpt>
      <trkpt lat="43.63935" lon="3.80662">
        <ele>99.5</ele>
        <time>2016-04-29T11:05:51Z</time>
      </trkpt>
      <trkpt lat="43.63943" lon="3.80661">
        <ele>99.8</ele>
        <time>2016-04-29T11:05:54Z</time>
      </trkpt>
      <trkpt lat="43.6395" lon="3.80657">
        <ele>100.1</ele>
        <time>2016-04-29T11:05:57Z</time>
      </trkpt>
      <trkpt lat="43.63958" lon="3.80655">
        <ele>100.4</ele>
        <time>2016-04-29T11:06:03Z</time>
      </trkpt>
      <trkpt lat="43.63967" lon="3.80652">
        <ele>100.7</ele>
        <time>2016-04-29T11:06:07Z</time>
      </trkpt>
      <trkpt lat="43.63975" lon="3.80648">
        <ele>101.1</ele>
        <time>2016-04-29T11:06:11Z</time>
      </trkpt>
      <trkpt lat="43.63983" lon="3.80644">
        <ele>101.8</ele>
        <time>2016-04-29T11:06:15Z</time>
      </trkpt>
      <trkpt lat="43.6399" lon="3.80643">
        <ele>102.4</ele>
        <time>2016-04-29T11:06:19Z</time>
      </trkpt>
      <trkpt lat="43.63999" lon="3.80638">
        <ele>102.9</ele>
        <time>2016-04-29T11:06:23Z</time>
      </trkpt>
      <trkpt lat="43.64007" lon="3.80636">
        <ele>103.1</ele>
        <time>2016-04-29T11:06:26Z</time>
      </trkpt>
      <trkpt lat="43.64014" lon="3.80632">
        <ele>103.7</ele>
        <time>2016-04-29T11:06:30Z</time>
      </trkpt>
      <trkpt lat="43.64022" lon="3.8063">
        <ele>104.3</ele>
        <time>2016-04-29T11:06:34Z</time>
      </trkpt>
      <trkpt lat="43.6403" lon="3.80628">
        <ele>104.6</ele>
        <time>2016-04-29T11:06:38Z</time>
      </trkpt>
      <trkpt lat="43.64038" lon="3.8062">
        <ele>105.1</ele>
        <time>2016-04-29T11:06:44Z</time>
      </trkpt>
      <trkpt lat="43.64046" lon="3.80621">
        <ele>105.6</ele>
        <time>2016-04-29T11:06:48Z</time>
      </trkpt>
      <trkpt lat="43.64054" lon="3.80622">
        <ele>106.6</ele>
        <time>2016-04-29T11:06:53Z</time>
      </trkpt>
      <trkpt lat="43.64061" lon="3.80628">
        <ele>108</ele>
        <time>2016-04-29T11:06:59Z</time>
      </trkpt>
      <trkpt lat="43.64068" lon="3.80631">
        <ele>109.4</ele>
        <time>2016-04-29T11:07:06Z</time>
      </trkpt>
      <trkpt lat="43.64072" lon="3.8063">
        <ele>110.7</ele>
        <time>2016-04-29T11:07:13Z</time>
      </trkpt>
      <trkpt lat="43.6408" lon="3.80625">
        <ele>112.1</ele>
        <time>2016-04-29T11:07:20Z</time>
      </trkpt>
      <trkpt lat="43.64084" lon="3.80622">
        <ele>112.8</ele>
        <time>2016-04-29T11:07:27Z</time>
      </trkpt>
      <trkpt lat="43.64088" lon="3.80617">
        <ele>115</ele>
        <time>2016-04-29T11:07:41Z</time>
      </trkpt>
      <trkpt lat="43.64093" lon="3.80609">
        <ele>115.5</ele>
        <time>2016-04-29T11:07:46Z</time>
      </trkpt>
      <trkpt lat="43.64096" lon="3.80598">
        <ele>116.3</ele>
        <time>2016-04-29T11:07:52Z</time>
      </trkpt>
      <trkpt lat="43.64099" lon="3.80587">
        <ele>116.8</ele>
        <time>2016-04-29T11:07:57Z</time>
      </trkpt>
      <trkpt lat="43.64108" lon="3.80583">
        <ele>117.5</ele>
        <time>2016-04-29T11:08:01Z</time>
      </trkpt>
      <trkpt lat="43.64113" lon="3.80595">
        <ele>118.5</ele>
        <time>2016-04-29T11:08:06Z</time>
      </trkpt>
      <trkpt lat="43.64117" lon="3.80603">
        <ele>119.1</ele>
        <time>2016-04-29T11:08:10Z</time>
      </trkpt>
      <trkpt lat="43.64124" lon="3.80608">
        <ele>119.9</ele>
        <time>2016-04-29T11:08:15Z</time>
      </trkpt>
      <trkpt lat="43.64131" lon="3.80615">
        <ele>121.1</ele>
        <time>2016-04-29T11:08:21Z</time>
      </trkpt>
      <trkpt lat="43.6414" lon="3.80618">
        <ele>121.9</ele>
        <time>2016-04-29T11:08:27Z</time>
      </trkpt>
      <trkpt lat="43.64147" lon="3.80623">
        <ele>122.7</ele>
        <time>2016-04-29T11:08:31Z</time>
      </trkpt>
      <trkpt lat="43.64149" lon="3.80633">
        <ele>123.7</ele>
        <time>2016-04-29T11:08:37Z</time>
      </trkpt>
      <trkpt lat="43.64153" lon="3.80643">
        <ele>124.9</ele>
        <time>2016-04-29T11:08:42Z</time>
      </trkpt>
      <trkpt lat="43.64154" lon="3.80656">
        <ele>125.6</ele>
        <time>2016-04-29T11:08:46Z</time>
      </trkpt>
      <trkpt lat="43.64156" lon="3.80668">
        <ele>126.3</ele>
        <time>2016-04-29T11:08:51Z</time>
      </trkpt>
      <trkpt lat="43.64159" lon="3.8068">
        <ele>126.9</ele>
        <time>2016-04-29T11:08:56Z</time>
      </trkpt>
      <trkpt lat="43.6416" lon="3.8069">
        <ele>127.3</ele>
        <time>2016-04-29T11:09:00Z</time>
      </trkpt>
      <trkpt lat="43.64162" lon="3.80701">
        <ele>127.8</ele>
        <time>2016-04-29T11:09:05Z</time>
      </trkpt>
      <trkpt lat="43.64165" lon="3.80711">
        <ele>128.4</ele>
        <time>2016-04-29T11:09:09Z</time>
      </trkpt>
      <trkpt lat="43.64167" lon="3.80722">
        <ele>129.4</ele>
        <time>2016-04-29T11:09:14Z</time>
      </trkpt>
      <trkpt lat="43.64168" lon="3.80732">
        <ele>130</ele>
        <time>2016-04-29T11:09:17Z</time>
      </trkpt>
      <trkpt lat="43.64168" lon="3.80742">
        <ele>130.5</ele>
        <time>2016-04-29T11:09:20Z</time>
      </trkpt>
      <trkpt lat="43.64166" lon="3.80755">
        <ele>131.1</ele>
        <time>2016-04-29T11:09:24Z</time>
      </trkpt>
      <trkpt lat="43.64167" lon="3.80766">
        <ele>132.1</ele>
        <time>2016-04-29T11:09:29Z</time>
      </trkpt>
      <trkpt lat="43.64169" lon="3.80779">
        <ele>133.7</ele>
        <time>2016-04-29T11:09:34Z</time>
      </trkpt>
      <trkpt lat="43.64169" lon="3.80791">
        <ele>135.3</ele>
        <time>2016-04-29T11:09:40Z</time>
      </trkpt>
      <trkpt lat="43.64169" lon="3.80803">
        <ele>136.5</ele>
        <time>2016-04-29T11:09:45Z</time>
      </trkpt>
      <trkpt lat="43.6417" lon="3.80814">
        <ele>137.2</ele>
        <time>2016-04-29T11:09:49Z</time>
      </trkpt>
      <trkpt lat="43.64171" lon="3.80826">
        <ele>138.2</ele>
        <time>2016-04-29T11:09:54Z</time>
      </trkpt>
      <trkpt lat="43.64173" lon="3.80838">
        <ele>138.7</ele>
        <time>2016-04-29T11:09:57Z</time>
      </trkpt>
      <trkpt lat="43.64174" lon="3.8085">
        <ele>139.6</ele>
        <time>2016-04-29T11:10:02Z</time>
      </trkpt>
      <trkpt lat="43.64177" lon="3.80861">
        <ele>140.7</ele>
        <time>2016-04-29T11:10:07Z</time>
      </trkpt>
      <trkpt lat="43.6418" lon="3.80872">
        <ele>141.7</ele>
        <time>2016-04-29T11:10:12Z</time>
      </trkpt>
      <trkpt lat="43.64183" lon="3.80881">
        <ele>142.7</ele>
        <time>2016-04-29T11:10:16Z</time>
      </trkpt>
      <trkpt lat="43.64185" lon="3.80891">
        <ele>143.6</ele>
        <time>2016-04-29T11:10:20Z</time>
      </trkpt>
      <trkpt lat="43.64185" lon="3.80901">
        <ele>144.1</ele>
        <time>2016-04-29T11:10:23Z</time>
      </trkpt>
      <trkpt lat="43.64183" lon="3.80912">
        <ele>145.4</ele>
        <time>2016-04-29T11:10:28Z</time>
      </trkpt>
      <trkpt lat="43.64179" lon="3.80921">
        <ele>146.6</ele>
        <time>2016-04-29T11:10:33Z</time>
      </trkpt>
      <trkpt lat="43.64173" lon="3.80928">
        <ele>147</ele>
        <time>2016-04-29T11:10:37Z</time>
      </trkpt>
      <trkpt lat="43.64167" lon="3.80937">
        <ele>147.5</ele>
        <time>2016-04-29T11:10:41Z</time>
      </trkpt>
      <trkpt lat="43.6416" lon="3.80945">
        <ele>147.9</ele>
        <time>2016-04-29T11:10:44Z</time>
      </trkpt>
      <trkpt lat="43.64151" lon="3.80962">
        <ele>149.3</ele>
        <time>2016-04-29T11:10:47Z</time>
      </trkpt>
      <trkpt lat="43.64145" lon="3.8098">
        <ele>150.6</ele>
        <time>2016-04-29T11:10:49Z</time>
      </trkpt>
      <trkpt lat="43.64139" lon="3.80994">
        <ele>151.3</ele>
        <time>2016-04-29T11:10:51Z</time>
      </trkpt>
      <trkpt lat="43.6413" lon="3.81">
        <ele>151.4</ele>
        <time>2016-04-29T11:10:53Z</time>
      </trkpt>
      <trkpt lat="43.64124" lon="3.81007">
        <ele>151.6</ele>
        <time>2016-04-29T11:10:56Z</time>
      </trkpt>
      <trkpt lat="43.64121" lon="3.81016">
        <ele>152.4</ele>
        <time>2016-04-29T11:11:02Z</time>
      </trkpt>
      <trkpt lat="43.64118" lon="3.81025">
        <ele>152.7</ele>
        <time>2016-04-29T11:11:07Z</time>
      </trkpt>
      <trkpt lat="43.64116" lon="3.81037">
        <ele>153.1</ele>
        <time>2016-04-29T11:11:11Z</time>
      </trkpt>
      <trkpt lat="43.64114" lon="3.81046">
        <ele>153.6</ele>
        <time>2016-04-29T11:11:14Z</time>
      </trkpt>
      <trkpt lat="43.6411" lon="3.81054">
        <ele>154</ele>
        <time>2016-04-29T11:11:17Z</time>
      </trkpt>
      <trkpt lat="43.64103" lon="3.81062">
        <ele>154.2</ele>
        <time>2016-04-29T11:11:21Z</time>
      </trkpt>
      <trkpt lat="43.64099" lon="3.81072">
        <ele>154.9</ele>
        <time>2016-04-29T11:11:26Z</time>
      </trkpt>
      <trkpt lat="43.64092" lon="3.81079">
        <ele>155.4</ele>
        <time>2016-04-29T11:11:29Z</time>
      </trkpt>
      <trkpt lat="43.64087" lon="3.81088">
        <ele>156.3</ele>
        <time>2016-04-29T11:11:33Z</time>
      </trkpt>
      <trkpt lat="43.6409" lon="3.81099">
        <ele>157.5</ele>
        <time>2016-04-29T11:11:40Z</time>
      </trkpt>
      <trkpt lat="43.64096" lon="3.81109">
        <ele>158.3</ele>
        <time>2016-04-29T11:11:45Z</time>
      </trkpt>
      <trkpt lat="43.64103" lon="3.81115">
        <ele>159</ele>
        <time>2016-04-29T11:11:49Z</time>
      </trkpt>
      <trkpt lat="43.64108" lon="3.81124">
        <ele>159.5</ele>
        <time>2016-04-29T11:11:52Z</time>
      </trkpt>
      <trkpt lat="43.64114" lon="3.81131">
        <ele>160.1</ele>
        <time>2016-04-29T11:11:55Z</time>
      </trkpt>
      <trkpt lat="43.64119" lon="3.81139">
        <ele>160.4</ele>
        <time>2016-04-29T11:11:58Z</time>
      </trkpt>
      <trkpt lat="43.64125" lon="3.81146">
        <ele>160.7</ele>
        <time>2016-04-29T11:12:01Z</time>
      </trkpt>
      <trkpt lat="43.64133" lon="3.81153">
        <ele>161.2</ele>
        <time>2016-04-29T11:12:05Z</time>
      </trkpt>
      <trkpt lat="43.6414" lon="3.81161">
        <ele>161.5</ele>
        <time>2016-04-29T11:12:09Z</time>
      </trkpt>
      <trkpt lat="43.64147" lon="3.81169">
        <ele>162.2</ele>
        <time>2016-04-29T11:12:13Z</time>
      </trkpt>
      <trkpt lat="43.64154" lon="3.81176">
        <ele>162.6</ele>
        <time>2016-04-29T11:12:16Z</time>
      </trkpt>
      <trkpt lat="43.6416" lon="3.81182">
        <ele>163.2</ele>
        <time>2016-04-29T11:12:19Z</time>
      </trkpt>
      <trkpt lat="43.64166" lon="3.81189">
        <ele>163.5</ele>
        <time>2016-04-29T11:12:22Z</time>
      </trkpt>
      <trkpt lat="43.64172" lon="3.81198">
        <ele>163.8</ele>
        <time>2016-04-29T11:12:25Z</time>
      </trkpt>
      <trkpt lat="43.64179" lon="3.81208">
        <ele>164.1</ele>
        <time>2016-04-29T11:12:28Z</time>
      </trkpt>
      <trkpt lat="43.64184" lon="3.81217">
        <ele>164.2</ele>
        <time>2016-04-29T11:12:31Z</time>
      </trkpt>
      <trkpt lat="43.64191" lon="3.81227">
        <ele>164.5</ele>
        <time>2016-04-29T11:12:34Z</time>
      </trkpt>
      <trkpt lat="43.64195" lon="3.81236">
        <ele>164.7</ele>
        <time>2016-04-29T11:12:37Z</time>
      </trkpt>
      <trkpt lat="43.64202" lon="3.81246">
        <ele>165</ele>
        <time>2016-04-29T11:12:40Z</time>
      </trkpt>
      <trkpt lat="43.64209" lon="3.81247">
        <ele>165</ele>
        <time>2016-04-29T11:12:46Z</time>
      </trkpt>
      <trkpt lat="43.64216" lon="3.8124">
        <ele>164.9</ele>
        <time>2016-04-29T11:12:49Z</time>
      </trkpt>
      <trkpt lat="43.64225" lon="3.81232">
        <ele>164.1</ele>
        <time>2016-04-29T11:12:52Z</time>
      </trkpt>
      <trkpt lat="43.64233" lon="3.81223">
        <ele>162.3</ele>
        <time>2016-04-29T11:12:54Z</time>
      </trkpt>
      <trkpt lat="43.6424" lon="3.81217">
        <ele>160.9</ele>
        <time>2016-04-29T11:12:56Z</time>
      </trkpt>
      <trkpt lat="43.64246" lon="3.81209">
        <ele>160.8</ele>
        <time>2016-04-29T11:12:58Z</time>
      </trkpt>
      <trkpt lat="43.64254" lon="3.81209">
        <ele>160.6</ele>
        <time>2016-04-29T11:13:00Z</time>
      </trkpt>
      <trkpt lat="43.64262" lon="3.81211">
        <ele>160.3</ele>
        <time>2016-04-29T11:13:04Z</time>
      </trkpt>
      <trkpt lat="43.64271" lon="3.81211">
        <ele>160.2</ele>
        <time>2016-04-29T11:13:09Z</time>
      </trkpt>
      <trkpt lat="43.64279" lon="3.81213">
        <ele>159.8</ele>
        <time>2016-04-29T11:13:15Z</time>
      </trkpt>
      <trkpt lat="43.64286" lon="3.81218">
        <ele>159</ele>
        <time>2016-04-29T11:13:19Z</time>
      </trkpt>
      <trkpt lat="43.64292" lon="3.81224">
        <ele>157.7</ele>
        <time>2016-04-29T11:13:23Z</time>
      </trkpt>
      <trkpt lat="43.643" lon="3.81227">
        <ele>156.8</ele>
        <time>2016-04-29T11:13:26Z</time>
      </trkpt>
      <trkpt lat="43.64307" lon="3.81237">
        <ele>156.1</ele>
        <time>2016-04-29T11:13:28Z</time>
      </trkpt>
      <trkpt lat="43.6431" lon="3.81248">
        <ele>154.9</ele>
        <time>2016-04-29T11:13:31Z</time>
      </trkpt>
      <trkpt lat="43.64314" lon="3.81261">
        <ele>154.1</ele>
        <time>2016-04-29T11:13:34Z</time>
      </trkpt>
      <trkpt lat="43.64317" lon="3.8127">
        <ele>153.2</ele>
        <time>2016-04-29T11:13:38Z</time>
      </trkpt>
      <trkpt lat="43.6432" lon="3.81281">
        <ele>152.3</ele>
        <time>2016-04-29T11:13:42Z</time>
      </trkpt>
      <trkpt lat="43.64324" lon="3.81291">
        <ele>151.5</ele>
        <time>2016-04-29T11:13:47Z</time>
      </trkpt>
      <trkpt lat="43.64329" lon="3.81299">
        <ele>151</ele>
        <time>2016-04-29T11:13:51Z</time>
      </trkpt>
      <trkpt lat="43.64334" lon="3.81308">
        <ele>150.7</ele>
        <time>2016-04-29T11:13:54Z</time>
      </trkpt>
      <trkpt lat="43.64341" lon="3.81319">
        <ele>149.8</ele>
        <time>2016-04-29T11:14:00Z</time>
      </trkpt>
      <trkpt lat="43.64345" lon="3.8133">
        <ele>149.1</ele>
        <time>2016-04-29T11:14:03Z</time>
      </trkpt>
      <trkpt lat="43.64349" lon="3.81342">
        <ele>148.1</ele>
        <time>2016-04-29T11:14:08Z</time>
      </trkpt>
      <trkpt lat="43.64353" lon="3.81354">
        <ele>147.4</ele>
        <time>2016-04-29T11:14:12Z</time>
      </trkpt>
      <trkpt lat="43.64359" lon="3.81364">
        <ele>146.9</ele>
        <time>2016-04-29T11:14:17Z</time>
      </trkpt>
      <trkpt lat="43.64362" lon="3.81374">
        <ele>146.7</ele>
        <time>2016-04-29T11:14:20Z</time>
      </trkpt>
      <trkpt lat="43.64368" lon="3.81381">
        <ele>146.5</ele>
        <time>2016-04-29T11:14:23Z</time>
      </trkpt>
      <trkpt lat="43.64372" lon="3.81389">
        <ele>145.9</ele>
        <time>2016-04-29T11:14:28Z</time>
      </trkpt>
      <trkpt lat="43.64379" lon="3.81398">
        <ele>145.1</ele>
        <time>2016-04-29T11:14:32Z</time>
      </trkpt>
      <trkpt lat="43.64382" lon="3.81408">
        <ele>144.9</ele>
        <time>2016-04-29T11:14:35Z</time>
      </trkpt>
      <trkpt lat="43.64383" lon="3.81419">
        <ele>144.4</ele>
        <time>2016-04-29T11:14:38Z</time>
      </trkpt>
      <trkpt lat="43.64388" lon="3.81422">
        <ele>144.4</ele>
        <time>2016-04-29T11:14:45Z</time>
      </trkpt>
      <trkpt lat="43.64392" lon="3.81432">
        <ele>144.7</ele>
        <time>2016-04-29T11:14:49Z</time>
      </trkpt>
      <trkpt lat="43.64396" lon="3.81441">
        <ele>145.4</ele>
        <time>2016-04-29T11:14:54Z</time>
      </trkpt>
      <trkpt lat="43.64403" lon="3.8145">
        <ele>145.9</ele>
        <time>2016-04-29T11:14:58Z</time>
      </trkpt>
      <trkpt lat="43.64408" lon="3.81458">
        <ele>146.1</ele>
        <time>2016-04-29T11:15:00Z</time>
      </trkpt>
      <trkpt lat="43.64414" lon="3.81473">
        <ele>146.4</ele>
        <time>2016-04-29T11:15:02Z</time>
      </trkpt>
      <trkpt lat="43.64419" lon="3.81481">
        <ele>146.8</ele>
        <time>2016-04-29T11:15:04Z</time>
      </trkpt>
      <trkpt lat="43.64427" lon="3.81491">
        <ele>150.3</ele>
        <time>2016-04-29T11:15:07Z</time>
      </trkpt>
      <trkpt lat="43.64436" lon="3.81503">
        <ele>152.1</ele>
        <time>2016-04-29T11:15:09Z</time>
      </trkpt>
      <trkpt lat="43.64444" lon="3.81514">
        <ele>153</ele>
        <time>2016-04-29T11:15:11Z</time>
      </trkpt>
      <trkpt lat="43.64451" lon="3.81528">
        <ele>151.5</ele>
        <time>2016-04-29T11:15:13Z</time>
      </trkpt>
      <trkpt lat="43.64456" lon="3.81538">
        <ele>151.3</ele>
        <time>2016-04-29T11:15:15Z</time>
      </trkpt>
      <trkpt lat="43.64461" lon="3.81556">
        <ele>151.1</ele>
        <time>2016-04-29T11:15:17Z</time>
      </trkpt>
      <trkpt lat="43.64464" lon="3.81567">
        <ele>150.8</ele>
        <time>2016-04-29T11:15:19Z</time>
      </trkpt>
      <trkpt lat="43.64465" lon="3.81578">
        <ele>150.1</ele>
        <time>2016-04-29T11:15:22Z</time>
      </trkpt>
      <trkpt lat="43.64467" lon="3.81588">
        <ele>149.6</ele>
        <time>2016-04-29T11:15:27Z</time>
      </trkpt>
      <trkpt lat="43.64471" lon="3.81601">
        <ele>149.1</ele>
        <time>2016-04-29T11:15:31Z</time>
      </trkpt>
      <trkpt lat="43.64472" lon="3.81613">
        <ele>148.6</ele>
        <time>2016-04-29T11:15:36Z</time>
      </trkpt>
      <trkpt lat="43.64473" lon="3.81624">
        <ele>148</ele>
        <time>2016-04-29T11:15:41Z</time>
      </trkpt>
      <trkpt lat="43.64476" lon="3.81634">
        <ele>147.7</ele>
        <time>2016-04-29T11:15:46Z</time>
      </trkpt>
      <trkpt lat="43.64479" lon="3.81645">
        <ele>147.2</ele>
        <time>2016-04-29T11:15:50Z</time>
      </trkpt>
      <trkpt lat="43.64482" lon="3.81656">
        <ele>146.6</ele>
        <time>2016-04-29T11:15:53Z</time>
      </trkpt>
      <trkpt lat="43.64485" lon="3.81666">
        <ele>146.1</ele>
        <time>2016-04-29T11:15:57Z</time>
      </trkpt>
      <trkpt lat="43.64489" lon="3.81676">
        <ele>146.2</ele>
        <time>2016-04-29T11:16:01Z</time>
      </trkpt>
      <trkpt lat="43.64491" lon="3.81687">
        <ele>146.3</ele>
        <time>2016-04-29T11:16:05Z</time>
      </trkpt>
      <trkpt lat="43.64495" lon="3.81698">
        <ele>146.3</ele>
        <time>2016-04-29T11:16:08Z</time>
      </trkpt>
      <trkpt lat="43.64498" lon="3.8171">
        <ele>146.4</ele>
        <time>2016-04-29T11:16:13Z</time>
      </trkpt>
      <trkpt lat="43.64499" lon="3.81721">
        <ele>146.6</ele>
        <time>2016-04-29T11:16:16Z</time>
      </trkpt>
      <trkpt lat="43.64502" lon="3.81732">
        <ele>146.7</ele>
        <time>2016-04-29T11:16:19Z</time>
      </trkpt>
      <trkpt lat="43.645" lon="3.81744">
        <ele>146.5</ele>
        <time>2016-04-29T11:16:23Z</time>
      </trkpt>
      <trkpt lat="43.64498" lon="3.81755">
        <ele>146.7</ele>
        <time>2016-04-29T11:16:28Z</time>
      </trkpt>
      <trkpt lat="43.64496" lon="3.81766">
        <ele>146.7</ele>
        <time>2016-04-29T11:16:32Z</time>
      </trkpt>
      <trkpt lat="43.64494" lon="3.81777">
        <ele>146.6</ele>
        <time>2016-04-29T11:16:35Z</time>
      </trkpt>
      <trkpt lat="43.64492" lon="3.81788">
        <ele>146.8</ele>
        <time>2016-04-29T11:16:38Z</time>
      </trkpt>
      <trkpt lat="43.6449" lon="3.81798">
        <ele>146.8</ele>
        <time>2016-04-29T11:16:42Z</time>
      </trkpt>
      <trkpt lat="43.64489" lon="3.8181">
        <ele>146.9</ele>
        <time>2016-04-29T11:16:45Z</time>
      </trkpt>
      <trkpt lat="43.64487" lon="3.81823">
        <ele>147</ele>
        <time>2016-04-29T11:16:49Z</time>
      </trkpt>
      <trkpt lat="43.64485" lon="3.81833">
        <ele>147.3</ele>
        <time>2016-04-29T11:16:52Z</time>
      </trkpt>
      <trkpt lat="43.64482" lon="3.81844">
        <ele>147.7</ele>
        <time>2016-04-29T11:16:55Z</time>
      </trkpt>
      <trkpt lat="43.6448" lon="3.81854">
        <ele>147.9</ele>
        <time>2016-04-29T11:16:58Z</time>
      </trkpt>
      <trkpt lat="43.64478" lon="3.81866">
        <ele>148.5</ele>
        <time>2016-04-29T11:17:02Z</time>
      </trkpt>
      <trkpt lat="43.64476" lon="3.81876">
        <ele>148.8</ele>
        <time>2016-04-29T11:17:05Z</time>
      </trkpt>
      <trkpt lat="43.64475" lon="3.81889">
        <ele>149.2</ele>
        <time>2016-04-29T11:17:09Z</time>
      </trkpt>
      <trkpt lat="43.64473" lon="3.819">
        <ele>149.5</ele>
        <time>2016-04-29T11:17:11Z</time>
      </trkpt>
      <trkpt lat="43.6447" lon="3.81913">
        <ele>149.7</ele>
        <time>2016-04-29T11:17:15Z</time>
      </trkpt>
      <trkpt lat="43.64466" lon="3.81923">
        <ele>149.9</ele>
        <time>2016-04-29T11:17:19Z</time>
      </trkpt>
      <trkpt lat="43.64464" lon="3.81934">
        <ele>149.9</ele>
        <time>2016-04-29T11:17:21Z</time>
      </trkpt>
      <trkpt lat="43.64459" lon="3.81945">
        <ele>149.7</ele>
        <time>2016-04-29T11:17:23Z</time>
      </trkpt>
      <trkpt lat="43.64453" lon="3.81955">
        <ele>149.6</ele>
        <time>2016-04-29T11:17:25Z</time>
      </trkpt>
      <trkpt lat="43.64446" lon="3.81965">
        <ele>150.2</ele>
        <time>2016-04-29T11:17:27Z</time>
      </trkpt>
      <trkpt lat="43.6444" lon="3.81975">
        <ele>151.3</ele>
        <time>2016-04-29T11:17:29Z</time>
      </trkpt>
      <trkpt lat="43.64433" lon="3.81985">
        <ele>150.5</ele>
        <time>2016-04-29T11:17:31Z</time>
      </trkpt>
      <trkpt lat="43.64427" lon="3.81996">
        <ele>149.2</ele>
        <time>2016-04-29T11:17:33Z</time>
      </trkpt>
      <trkpt lat="43.6442" lon="3.82006">
        <ele>149.1</ele>
        <time>2016-04-29T11:17:35Z</time>
      </trkpt>
      <trkpt lat="43.64414" lon="3.82017">
        <ele>148.8</ele>
        <time>2016-04-29T11:17:37Z</time>
      </trkpt>
      <trkpt lat="43.64408" lon="3.82027">
        <ele>148</ele>
        <time>2016-04-29T11:17:39Z</time>
      </trkpt>
      <trkpt lat="43.64401" lon="3.82038">
        <ele>147.6</ele>
        <time>2016-04-29T11:17:41Z</time>
      </trkpt>
      <trkpt lat="43.64395" lon="3.82048">
        <ele>146.8</ele>
        <time>2016-04-29T11:17:43Z</time>
      </trkpt>
      <trkpt lat="43.6439" lon="3.82059">
        <ele>145.8</ele>
        <time>2016-04-29T11:17:45Z</time>
      </trkpt>
      <trkpt lat="43.64385" lon="3.82069">
        <ele>145.7</ele>
        <time>2016-04-29T11:17:47Z</time>
      </trkpt>
      <trkpt lat="43.64378" lon="3.82081">
        <ele>145.5</ele>
        <time>2016-04-29T11:17:49Z</time>
      </trkpt>
      <trkpt lat="43.64373" lon="3.82092">
        <ele>144.9</ele>
        <time>2016-04-29T11:17:51Z</time>
      </trkpt>
      <trkpt lat="43.64368" lon="3.82102">
        <ele>146.1</ele>
        <time>2016-04-29T11:17:53Z</time>
      </trkpt>
      <trkpt lat="43.64362" lon="3.82113">
        <ele>146.7</ele>
        <time>2016-04-29T11:17:55Z</time>
      </trkpt>
      <trkpt lat="43.64359" lon="3.82121">
        <ele>148</ele>
        <time>2016-04-29T11:17:57Z</time>
      </trkpt>
      <trkpt lat="43.64356" lon="3.82132">
        <ele>149.1</ele>
        <time>2016-04-29T11:17:59Z</time>
      </trkpt>
      <trkpt lat="43.64354" lon="3.82142">
        <ele>149</ele>
        <time>2016-04-29T11:18:02Z</time>
      </trkpt>
      <trkpt lat="43.6435" lon="3.82152">
        <ele>148.6</ele>
        <time>2016-04-29T11:18:04Z</time>
      </trkpt>
      <trkpt lat="43.64344" lon="3.82158">
        <ele>148.3</ele>
        <time>2016-04-29T11:18:08Z</time>
      </trkpt>
      <trkpt lat="43.64342" lon="3.8217">
        <ele>148.4</ele>
        <time>2016-04-29T11:18:12Z</time>
      </trkpt>
      <trkpt lat="43.6434" lon="3.82181">
        <ele>148.6</ele>
        <time>2016-04-29T11:18:16Z</time>
      </trkpt>
      <trkpt lat="43.64338" lon="3.82195">
        <ele>148.6</ele>
        <time>2016-04-29T11:18:19Z</time>
      </trkpt>
      <trkpt lat="43.64334" lon="3.82209">
        <ele>147.7</ele>
        <time>2016-04-29T11:18:21Z</time>
      </trkpt>
      <trkpt lat="43.64336" lon="3.82218">
        <ele>147.6</ele>
        <time>2016-04-29T11:18:23Z</time>
      </trkpt>
      <trkpt lat="43.64338" lon="3.82228">
        <ele>146.8</ele>
        <time>2016-04-29T11:18:25Z</time>
      </trkpt>
      <trkpt lat="43.64338" lon="3.82238">
        <ele>146.8</ele>
        <time>2016-04-29T11:18:27Z</time>
      </trkpt>
      <trkpt lat="43.64342" lon="3.82249">
        <ele>147</ele>
        <time>2016-04-29T11:18:31Z</time>
      </trkpt>
      <trkpt lat="43.64343" lon="3.82262">
        <ele>147.3</ele>
        <time>2016-04-29T11:18:34Z</time>
      </trkpt>
      <trkpt lat="43.64343" lon="3.82278">
        <ele>147.5</ele>
        <time>2016-04-29T11:18:37Z</time>
      </trkpt>
      <trkpt lat="43.6434" lon="3.82287">
        <ele>147.7</ele>
        <time>2016-04-29T11:18:39Z</time>
      </trkpt>
      <trkpt lat="43.6433" lon="3.82293">
        <ele>148</ele>
        <time>2016-04-29T11:18:41Z</time>
      </trkpt>
      <trkpt lat="43.64322" lon="3.82296">
        <ele>148.7</ele>
        <time>2016-04-29T11:18:43Z</time>
      </trkpt>
      <trkpt lat="43.64313" lon="3.82299">
        <ele>149.8</ele>
        <time>2016-04-29T11:18:45Z</time>
      </trkpt>
      <trkpt lat="43.64303" lon="3.82299">
        <ele>151.6</ele>
        <time>2016-04-29T11:18:47Z</time>
      </trkpt>
      <trkpt lat="43.64296" lon="3.82299">
        <ele>151.7</ele>
        <time>2016-04-29T11:18:49Z</time>
      </trkpt>
      <trkpt lat="43.6429" lon="3.82312">
        <ele>152</ele>
        <time>2016-04-29T11:18:52Z</time>
      </trkpt>
      <trkpt lat="43.6428" lon="3.82315">
        <ele>151.5</ele>
        <time>2016-04-29T11:18:54Z</time>
      </trkpt>
      <trkpt lat="43.64271" lon="3.82315">
        <ele>150.9</ele>
        <time>2016-04-29T11:18:56Z</time>
      </trkpt>
      <trkpt lat="43.64264" lon="3.8231">
        <ele>150.8</ele>
        <time>2016-04-29T11:18:58Z</time>
      </trkpt>
      <trkpt lat="43.64256" lon="3.82308">
        <ele>150.7</ele>
        <time>2016-04-29T11:19:00Z</time>
      </trkpt>
      <trkpt lat="43.64246" lon="3.82307">
        <ele>150.6</ele>
        <time>2016-04-29T11:19:03Z</time>
      </trkpt>
      <trkpt lat="43.64238" lon="3.82307">
        <ele>150.5</ele>
        <time>2016-04-29T11:19:07Z</time>
      </trkpt>
      <trkpt lat="43.6423" lon="3.82308">
        <ele>150.6</ele>
        <time>2016-04-29T11:19:10Z</time>
      </trkpt>
      <trkpt lat="43.64223" lon="3.82309">
        <ele>150.8</ele>
        <time>2016-04-29T11:19:12Z</time>
      </trkpt>
      <trkpt lat="43.64213" lon="3.82313">
        <ele>151</ele>
        <time>2016-04-29T11:19:15Z</time>
      </trkpt>
      <trkpt lat="43.64204" lon="3.82319">
        <ele>151.2</ele>
        <time>2016-04-29T11:19:18Z</time>
      </trkpt>
      <trkpt lat="43.64195" lon="3.82324">
        <ele>151.8</ele>
        <time>2016-04-29T11:19:22Z</time>
      </trkpt>
      <trkpt lat="43.64188" lon="3.82333">
        <ele>152.3</ele>
        <time>2016-04-29T11:19:26Z</time>
      </trkpt>
      <trkpt lat="43.64186" lon="3.82343">
        <ele>152.6</ele>
        <time>2016-04-29T11:19:29Z</time>
      </trkpt>
      <trkpt lat="43.64184" lon="3.82356">
        <ele>152.8</ele>
        <time>2016-04-29T11:19:32Z</time>
      </trkpt>
      <trkpt lat="43.64182" lon="3.82367">
        <ele>153</ele>
        <time>2016-04-29T11:19:35Z</time>
      </trkpt>
      <trkpt lat="43.64176" lon="3.82377">
        <ele>153.3</ele>
        <time>2016-04-29T11:19:38Z</time>
      </trkpt>
      <trkpt lat="43.6417" lon="3.82384">
        <ele>153.5</ele>
        <time>2016-04-29T11:19:40Z</time>
      </trkpt>
      <trkpt lat="43.64168" lon="3.82393">
        <ele>153.8</ele>
        <time>2016-04-29T11:19:43Z</time>
      </trkpt>
      <trkpt lat="43.64163" lon="3.82405">
        <ele>153.9</ele>
        <time>2016-04-29T11:19:45Z</time>
      </trkpt>
      <trkpt lat="43.64158" lon="3.82417">
        <ele>155.2</ele>
        <time>2016-04-29T11:19:47Z</time>
      </trkpt>
      <trkpt lat="43.64157" lon="3.82429">
        <ele>155.2</ele>
        <time>2016-04-29T11:19:49Z</time>
      </trkpt>
      <trkpt lat="43.64155" lon="3.82441">
        <ele>155.1</ele>
        <time>2016-04-29T11:19:52Z</time>
      </trkpt>
      <trkpt lat="43.64154" lon="3.82452">
        <ele>154.4</ele>
        <time>2016-04-29T11:19:54Z</time>
      </trkpt>
      <trkpt lat="43.64149" lon="3.82466">
        <ele>153.3</ele>
        <time>2016-04-29T11:19:56Z</time>
      </trkpt>
      <trkpt lat="43.64144" lon="3.82478">
        <ele>153.3</ele>
        <time>2016-04-29T11:19:58Z</time>
      </trkpt>
      <trkpt lat="43.64143" lon="3.82493">
        <ele>151.5</ele>
        <time>2016-04-29T11:20:00Z</time>
      </trkpt>
      <trkpt lat="43.64137" lon="3.82508">
        <ele>151</ele>
        <time>2016-04-29T11:20:02Z</time>
      </trkpt>
      <trkpt lat="43.64129" lon="3.82523">
        <ele>150.5</ele>
        <time>2016-04-29T11:20:04Z</time>
      </trkpt>
      <trkpt lat="43.64121" lon="3.82539">
        <ele>149.4</ele>
        <time>2016-04-29T11:20:06Z</time>
      </trkpt>
      <trkpt lat="43.64115" lon="3.82557">
        <ele>148</ele>
        <time>2016-04-29T11:20:08Z</time>
      </trkpt>
      <trkpt lat="43.64112" lon="3.82566">
        <ele>148.3</ele>
        <time>2016-04-29T11:20:09Z</time>
      </trkpt>
      <trkpt lat="43.64108" lon="3.82577">
        <ele>148.3</ele>
        <time>2016-04-29T11:20:10Z</time>
      </trkpt>
      <trkpt lat="43.64103" lon="3.82584">
        <ele>148</ele>
        <time>2016-04-29T11:20:11Z</time>
      </trkpt>
      <trkpt lat="43.64096" lon="3.82601">
        <ele>147.7</ele>
        <time>2016-04-29T11:20:13Z</time>
      </trkpt>
      <trkpt lat="43.64092" lon="3.82617">
        <ele>147.5</ele>
        <time>2016-04-29T11:20:15Z</time>
      </trkpt>
      <trkpt lat="43.64088" lon="3.82635">
        <ele>146.6</ele>
        <time>2016-04-29T11:20:17Z</time>
      </trkpt>
      <trkpt lat="43.64085" lon="3.82645">
        <ele>146.2</ele>
        <time>2016-04-29T11:20:18Z</time>
      </trkpt>
      <trkpt lat="43.64078" lon="3.82664">
        <ele>144.5</ele>
        <time>2016-04-29T11:20:20Z</time>
      </trkpt>
      <trkpt lat="43.64073" lon="3.82674">
        <ele>143.1</ele>
        <time>2016-04-29T11:20:21Z</time>
      </trkpt>
      <trkpt lat="43.64068" lon="3.82682">
        <ele>141.8</ele>
        <time>2016-04-29T11:20:22Z</time>
      </trkpt>
      <trkpt lat="43.64063" lon="3.82702">
        <ele>140.2</ele>
        <time>2016-04-29T11:20:24Z</time>
      </trkpt>
      <trkpt lat="43.64057" lon="3.82713">
        <ele>138.7</ele>
        <time>2016-04-29T11:20:25Z</time>
      </trkpt>
      <trkpt lat="43.64051" lon="3.82722">
        <ele>137.9</ele>
        <time>2016-04-29T11:20:26Z</time>
      </trkpt>
      <trkpt lat="43.64046" lon="3.82731">
        <ele>137</ele>
        <time>2016-04-29T11:20:27Z</time>
      </trkpt>
      <trkpt lat="43.64041" lon="3.82739">
        <ele>135.8</ele>
        <time>2016-04-29T11:20:28Z</time>
      </trkpt>
      <trkpt lat="43.64037" lon="3.82748">
        <ele>135.1</ele>
        <time>2016-04-29T11:20:29Z</time>
      </trkpt>
      <trkpt lat="43.64033" lon="3.82758">
        <ele>134.5</ele>
        <time>2016-04-29T11:20:30Z</time>
      </trkpt>
      <trkpt lat="43.64025" lon="3.8277">
        <ele>133.6</ele>
        <time>2016-04-29T11:20:32Z</time>
      </trkpt>
      <trkpt lat="43.6402" lon="3.82785">
        <ele>132.4</ele>
        <time>2016-04-29T11:20:34Z</time>
      </trkpt>
      <trkpt lat="43.64013" lon="3.82791">
        <ele>132.7</ele>
        <time>2016-04-29T11:20:35Z</time>
      </trkpt>
      <trkpt lat="43.64006" lon="3.82796">
        <ele>132.7</ele>
        <time>2016-04-29T11:20:36Z</time>
      </trkpt>
      <trkpt lat="43.63994" lon="3.82799">
        <ele>131.6</ele>
        <time>2016-04-29T11:20:38Z</time>
      </trkpt>
      <trkpt lat="43.63982" lon="3.828">
        <ele>131.2</ele>
        <time>2016-04-29T11:20:40Z</time>
      </trkpt>
      <trkpt lat="43.63971" lon="3.82805">
        <ele>130.7</ele>
        <time>2016-04-29T11:20:42Z</time>
      </trkpt>
      <trkpt lat="43.63963" lon="3.82812">
        <ele>130.1</ele>
        <time>2016-04-29T11:20:44Z</time>
      </trkpt>
      <trkpt lat="43.63952" lon="3.8282">
        <ele>131.5</ele>
        <time>2016-04-29T11:20:46Z</time>
      </trkpt>
      <trkpt lat="43.63944" lon="3.82825">
        <ele>131.5</ele>
        <time>2016-04-29T11:20:48Z</time>
      </trkpt>
      <trkpt lat="43.63937" lon="3.82829">
        <ele>131.8</ele>
        <time>2016-04-29T11:20:50Z</time>
      </trkpt>
      <trkpt lat="43.63929" lon="3.82829">
        <ele>133.7</ele>
        <time>2016-04-29T11:20:52Z</time>
      </trkpt>
      <trkpt lat="43.63916" lon="3.82824">
        <ele>132.3</ele>
        <time>2016-04-29T11:20:54Z</time>
      </trkpt>
      <trkpt lat="43.63909" lon="3.82817">
        <ele>131.6</ele>
        <time>2016-04-29T11:20:56Z</time>
      </trkpt>
      <trkpt lat="43.63897" lon="3.82812">
        <ele>131.7</ele>
        <time>2016-04-29T11:20:59Z</time>
      </trkpt>
      <trkpt lat="43.6389" lon="3.82803">
        <ele>133.1</ele>
        <time>2016-04-29T11:21:01Z</time>
      </trkpt>
      <trkpt lat="43.63883" lon="3.82789">
        <ele>131.7</ele>
        <time>2016-04-29T11:21:03Z</time>
      </trkpt>
      <trkpt lat="43.63876" lon="3.82787">
        <ele>130.5</ele>
        <time>2016-04-29T11:21:05Z</time>
      </trkpt>
      <trkpt lat="43.63868" lon="3.82794">
        <ele>129.5</ele>
        <time>2016-04-29T11:21:08Z</time>
      </trkpt>
      <trkpt lat="43.63859" lon="3.82801">
        <ele>128.5</ele>
        <time>2016-04-29T11:21:10Z</time>
      </trkpt>
      <trkpt lat="43.63852" lon="3.82804">
        <ele>127.8</ele>
        <time>2016-04-29T11:21:11Z</time>
      </trkpt>
      <trkpt lat="43.63843" lon="3.82805">
        <ele>126.7</ele>
        <time>2016-04-29T11:21:12Z</time>
      </trkpt>
      <trkpt lat="43.63831" lon="3.82804">
        <ele>125.2</ele>
        <time>2016-04-29T11:21:14Z</time>
      </trkpt>
      <trkpt lat="43.63818" lon="3.82806">
        <ele>124.2</ele>
        <time>2016-04-29T11:21:16Z</time>
      </trkpt>
      <trkpt lat="43.63809" lon="3.8281">
        <ele>124.4</ele>
        <time>2016-04-29T11:21:18Z</time>
      </trkpt>
      <trkpt lat="43.638" lon="3.82814">
        <ele>123.7</ele>
        <time>2016-04-29T11:21:20Z</time>
      </trkpt>
      <trkpt lat="43.63789" lon="3.82819">
        <ele>123.7</ele>
        <time>2016-04-29T11:21:22Z</time>
      </trkpt>
      <trkpt lat="43.63781" lon="3.82821">
        <ele>123.6</ele>
        <time>2016-04-29T11:21:24Z</time>
      </trkpt>
      <trkpt lat="43.63781" lon="3.82834">
        <ele>124.1</ele>
        <time>2016-04-29T11:21:28Z</time>
      </trkpt>
      <trkpt lat="43.6378" lon="3.82852">
        <ele>124.1</ele>
        <time>2016-04-29T11:21:31Z</time>
      </trkpt>
      <trkpt lat="43.63772" lon="3.82856">
        <ele>124.2</ele>
        <time>2016-04-29T11:21:33Z</time>
      </trkpt>
      <trkpt lat="43.63765" lon="3.82853">
        <ele>124.4</ele>
        <time>2016-04-29T11:21:36Z</time>
      </trkpt>
      <trkpt lat="43.63765" lon="3.82856">
        <ele>124.2</ele>
        <time>2016-04-29T11:21:43Z</time>
      </trkpt>
    </trkseg>
  </trk>
</gpx>